<?xml version='1.0' encoding='UTF-8'?><gpx version="1.1" creator="JPX - https://github.com/jenetics/jpx" xmlns="http://www.topografix.com/GPX/1/1"><trk><trkseg><trkpt lat="45.890280720354326" lon="11.54787455202066"><ele>1081.5</ele><time>2026-04-08T06:02:58.82Z</time></trkpt><trkpt lat="45.890421294797925" lon="11.547927495420081"><ele>1081.0</ele><time>2026-04-08T06:02:59.82Z</time></trkpt><trkpt lat="45.89055649952903" lon="11.547997423512964"><ele>1080.5</ele><time>2026-04-08T06:03:00.82Z</time></trkpt><trkpt lat="45.89069214035721" lon="11.54807601124913"><ele>1080.0</ele><time>2026-04-08T06:03:01.82Z</time></trkpt><trkpt lat="45.89083056488938" lon="11.548109997677049"><ele>1081.0</ele><time>2026-04-08T06:03:02.82Z</time></trkpt><trkpt lat="45.89095573562524" lon="11.5481156195007"><ele>1082.0</ele><time>2026-04-08T06:03:03.82Z</time></trkpt><trkpt lat="45.89106006423107" lon="11.548157055929822"><ele>1083.0</ele><time>2026-04-08T06:03:04.82Z</time></trkpt><trkpt lat="45.89119454983803" lon="11.548117144375318"><ele>1084.0</ele><time>2026-04-08T06:03:05.82Z</time></trkpt><trkpt lat="45.89133083602009" lon="11.548069709128896"><ele>1084.0</ele><time>2026-04-08T06:03:06.82Z</time></trkpt><trkpt lat="45.89147843749799" lon="11.548006641714327"><ele>1084.0</ele><time>2026-04-08T06:03:07.82Z</time></trkpt><trkpt lat="45.89161234540582" lon="11.54796351682606"><ele>1084.0</ele><time>2026-04-08T06:03:08.819Z</time></trkpt><trkpt lat="45.89174131061235" lon="11.547900706441379"><ele>1084.0</ele><time>2026-04-08T06:03:09.819Z</time></trkpt><trkpt lat="45.891856336714476" lon="11.547844349785374"><ele>1084.6000000000001</ele><time>2026-04-08T06:03:10.769Z</time></trkpt><trkpt lat="45.89195299951894" lon="11.54780137597418"><ele>1085.2</ele><time>2026-04-08T06:03:11.719Z</time></trkpt><trkpt lat="45.89201722881729" lon="11.54778152402384"><ele>1085.8000000000002</ele><time>2026-04-08T06:03:12.669Z</time></trkpt><trkpt lat="45.8921526807512" lon="11.547785490304644"><ele>1086.4</ele><time>2026-04-08T06:03:14.569Z</time></trkpt><trkpt lat="45.89221840668344" lon="11.547773072323091"><ele>1087.0</ele><time>2026-04-08T06:03:15.519Z</time></trkpt><trkpt lat="45.892284932495805" lon="11.54784174395837"><ele>1087.0</ele><time>2026-04-08T06:03:16.469Z</time></trkpt><trkpt lat="45.892351255492606" lon="11.54785557284005"><ele>1087.0</ele><time>2026-04-08T06:03:17.419Z</time></trkpt><trkpt lat="45.89242157218028" lon="11.547942668551078"><ele>1087.0</ele><time>2026-04-08T06:03:19.319Z</time></trkpt><trkpt lat="45.892404167116005" lon="11.548131292197208"><ele>1087.0</ele><time>2026-04-08T06:03:21.219Z</time></trkpt><trkpt lat="45.892453327518574" lon="11.548278308533481"><ele>1087.0</ele><time>2026-04-08T06:03:22.169Z</time></trkpt><trkpt lat="45.89241651668414" lon="11.548385751087793"><ele>1086.75</ele><time>2026-04-08T06:03:23.119Z</time></trkpt><trkpt lat="45.89239885873666" lon="11.54866269128396"><ele>1086.5</ele><time>2026-04-08T06:03:25.019Z</time></trkpt><trkpt lat="45.89238449463966" lon="11.548785506958627"><ele>1086.25</ele><time>2026-04-08T06:03:26Z</time></trkpt><trkpt lat="45.892374782584845" lon="11.548926350728797"><ele>1086.0</ele><time>2026-04-08T06:03:27Z</time></trkpt><trkpt lat="45.8923395006082" lon="11.549064478002915"><ele>1086.0</ele><time>2026-04-08T06:03:28Z</time></trkpt><trkpt lat="45.89231979003034" lon="11.54921475579893"><ele>1086.0</ele><time>2026-04-08T06:03:29Z</time></trkpt><trkpt lat="45.89230041107829" lon="11.549367019002302"><ele>1086.0</ele><time>2026-04-08T06:03:30Z</time></trkpt><trkpt lat="45.89228099181003" lon="11.549519599091852"><ele>1086.0</ele><time>2026-04-08T06:03:31Z</time></trkpt><trkpt lat="45.89225913711136" lon="11.549685880808129"><ele>1086.0</ele><time>2026-04-08T06:03:32Z</time></trkpt><trkpt lat="45.89223708261183" lon="11.549854727217536"><ele>1087.0</ele><time>2026-04-08T06:03:33Z</time></trkpt><trkpt lat="45.89221505819744" lon="11.55002242200267"><ele>1088.0</ele><time>2026-04-08T06:03:34Z</time></trkpt><trkpt lat="45.89219275734629" lon="11.550190582484257"><ele>1089.0</ele><time>2026-04-08T06:03:35Z</time></trkpt><trkpt lat="45.89216952563877" lon="11.550365762123747"><ele>1090.0</ele><time>2026-04-08T06:03:36Z</time></trkpt><trkpt lat="45.89214866738945" lon="11.550523044604779"><ele>1091.2</ele><time>2026-04-08T06:03:37Z</time></trkpt><trkpt lat="45.892127852881494" lon="11.550679938284993"><ele>1092.4</ele><time>2026-04-08T06:03:38Z</time></trkpt><trkpt lat="45.89210779701061" lon="11.550830732210859"><ele>1093.6</ele><time>2026-04-08T06:03:39Z</time></trkpt><trkpt lat="45.89208992501597" lon="11.55096911028217"><ele>1094.8</ele><time>2026-04-08T06:03:40Z</time></trkpt><trkpt lat="45.8920912910849" lon="11.551080968666554"><ele>1096.0</ele><time>2026-04-08T06:03:41Z</time></trkpt><trkpt lat="45.892064647966514" lon="11.551164426627011"><ele>1096.3999999999999</ele><time>2026-04-08T06:03:42Z</time></trkpt><trkpt lat="45.8920465506277" lon="11.551304265200029"><ele>1096.8</ele><time>2026-04-08T06:03:43.999Z</time></trkpt><trkpt lat="45.89202586039084" lon="11.551463747526638"><ele>1097.1999999999998</ele><time>2026-04-08T06:03:45.999Z</time></trkpt><trkpt lat="45.89202655914729" lon="11.5515842998838"><ele>1097.6</ele><time>2026-04-08T06:03:46.999Z</time></trkpt><trkpt lat="45.89198002882859" lon="11.551721541221387"><ele>1098.0</ele><time>2026-04-08T06:03:47.999Z</time></trkpt><trkpt lat="45.891956899139686" lon="11.551869610321218"><ele>1098.0</ele><time>2026-04-08T06:03:48.999Z</time></trkpt><trkpt lat="45.891939653731846" lon="11.552019891347214"><ele>1098.0</ele><time>2026-04-08T06:03:49.999Z</time></trkpt><trkpt lat="45.8919286405689" lon="11.552181063456436"><ele>1098.0</ele><time>2026-04-08T06:03:50.999Z</time></trkpt><trkpt lat="45.89192060136122" lon="11.55235907746366"><ele>1098.0</ele><time>2026-04-08T06:03:51.999Z</time></trkpt><trkpt lat="45.891963427300816" lon="11.552544006164341"><ele>1098.5</ele><time>2026-04-08T06:03:52.999Z</time></trkpt><trkpt lat="45.89200210332777" lon="11.552722329595795"><ele>1099.0</ele><time>2026-04-08T06:03:53.999Z</time></trkpt><trkpt lat="45.89203236194944" lon="11.55289697588126"><ele>1099.5</ele><time>2026-04-08T06:03:54.999Z</time></trkpt><trkpt lat="45.89205710161689" lon="11.55308133935906"><ele>1100.0</ele><time>2026-04-08T06:03:55.999Z</time></trkpt><trkpt lat="45.89207141091989" lon="11.55327244880326"><ele>1100.5</ele><time>2026-04-08T06:03:56.999Z</time></trkpt><trkpt lat="45.89205520467212" lon="11.55346474522135"><ele>1101.0</ele><time>2026-04-08T06:03:57.999Z</time></trkpt><trkpt lat="45.89204356111077" lon="11.55366930621006"><ele>1101.5</ele><time>2026-04-08T06:03:58.999Z</time></trkpt><trkpt lat="45.89204717898142" lon="11.553879982814236"><ele>1102.0</ele><time>2026-04-08T06:03:59.999Z</time></trkpt><trkpt lat="45.89204820908911" lon="11.554080353724787"><ele>1104.0</ele><time>2026-04-08T06:04:00.999Z</time></trkpt><trkpt lat="45.892053949840545" lon="11.554281067297989"><ele>1106.0</ele><time>2026-04-08T06:04:01.999Z</time></trkpt><trkpt lat="45.89206530949097" lon="11.554487419197443"><ele>1108.0</ele><time>2026-04-08T06:04:02.999Z</time></trkpt><trkpt lat="45.89209676267136" lon="11.55468886348563"><ele>1110.0</ele><time>2026-04-08T06:04:03.999Z</time></trkpt><trkpt lat="45.89212701065864" lon="11.554891739025315"><ele>1110.75</ele><time>2026-04-08T06:04:04.999Z</time></trkpt><trkpt lat="45.89217212782704" lon="11.555082730822788"><ele>1111.5</ele><time>2026-04-08T06:04:05.999Z</time></trkpt><trkpt lat="45.89220589754357" lon="11.555280290449565"><ele>1112.25</ele><time>2026-04-08T06:04:06.999Z</time></trkpt><trkpt lat="45.89223472768247" lon="11.555466771621912"><ele>1113.0</ele><time>2026-04-08T06:04:07.999Z</time></trkpt><trkpt lat="45.89225549241093" lon="11.555667313468938"><ele>1113.0</ele><time>2026-04-08T06:04:08.999Z</time></trkpt><trkpt lat="45.89229314893144" lon="11.555865802745522"><ele>1113.0</ele><time>2026-04-08T06:04:09.999Z</time></trkpt><trkpt lat="45.892317449274145" lon="11.556063234315586"><ele>1113.0</ele><time>2026-04-08T06:04:10.999Z</time></trkpt><trkpt lat="45.8923547206575" lon="11.556251229433933"><ele>1113.0</ele><time>2026-04-08T06:04:11.999Z</time></trkpt><trkpt lat="45.89240352796202" lon="11.556443971448571"><ele>1112.5</ele><time>2026-04-08T06:04:12.999Z</time></trkpt><trkpt lat="45.89246957535522" lon="11.556626644453313"><ele>1112.0</ele><time>2026-04-08T06:04:13.999Z</time></trkpt><trkpt lat="45.892547479365156" lon="11.556796499874144"><ele>1111.5</ele><time>2026-04-08T06:04:14.999Z</time></trkpt><trkpt lat="45.8926331787576" lon="11.556963452093184"><ele>1111.0</ele><time>2026-04-08T06:04:15.999Z</time></trkpt><trkpt lat="45.892716998348625" lon="11.557126886911197"><ele>1114.5</ele><time>2026-04-08T06:04:16.999Z</time></trkpt><trkpt lat="45.89280683888963" lon="11.557289092457326"><ele>1118.0</ele><time>2026-04-08T06:04:17.999Z</time></trkpt><trkpt lat="45.892904748896605" lon="11.557448086664547"><ele>1121.5</ele><time>2026-04-08T06:04:18.999Z</time></trkpt><trkpt lat="45.8930055700342" lon="11.557605978332006"><ele>1125.0</ele><time>2026-04-08T06:04:19.999Z</time></trkpt><trkpt lat="45.8931079828509" lon="11.557769193425788"><ele>1123.0</ele><time>2026-04-08T06:04:20.999Z</time></trkpt><trkpt lat="45.893207257456716" lon="11.557924708284665"><ele>1121.0</ele><time>2026-04-08T06:04:21.999Z</time></trkpt><trkpt lat="45.8933012010246" lon="11.558086295332565"><ele>1119.0</ele><time>2026-04-08T06:04:22.999Z</time></trkpt><trkpt lat="45.89340964744745" lon="11.558225438873054"><ele>1117.0</ele><time>2026-04-08T06:04:23.999Z</time></trkpt><trkpt lat="45.89351206396422" lon="11.55838486861815"><ele>1121.0</ele><time>2026-04-08T06:04:24.999Z</time></trkpt><trkpt lat="45.893625932555615" lon="11.558542932126972"><ele>1125.0</ele><time>2026-04-08T06:04:25.999Z</time></trkpt><trkpt lat="45.893745807069145" lon="11.558698503326674"><ele>1129.0</ele><time>2026-04-08T06:04:26.999Z</time></trkpt><trkpt lat="45.89387345260197" lon="11.558843554237427"><ele>1129.0</ele><time>2026-04-08T06:04:27.999Z</time></trkpt><trkpt lat="45.894013232670176" lon="11.558979469190179"><ele>1129.0</ele><time>2026-04-08T06:04:28.999Z</time></trkpt><trkpt lat="45.894161083779316" lon="11.559115042125107"><ele>1129.0</ele><time>2026-04-08T06:04:29.999Z</time></trkpt><trkpt lat="45.89430764523505" lon="11.55923660027172"><ele>1133.3333333333333</ele><time>2026-04-08T06:04:30.999Z</time></trkpt><trkpt lat="45.89444366181642" lon="11.55936664291331"><ele>1137.6666666666667</ele><time>2026-04-08T06:04:31.999Z</time></trkpt><trkpt lat="45.894569036961016" lon="11.559504138338465"><ele>1142.0</ele><time>2026-04-08T06:04:32.999Z</time></trkpt><trkpt lat="45.894690116449155" lon="11.559658734687256"><ele>1142.0</ele><time>2026-04-08T06:04:33.999Z</time></trkpt><trkpt lat="45.89480424824977" lon="11.559827474014092"><ele>1142.0</ele><time>2026-04-08T06:04:34.999Z</time></trkpt><trkpt lat="45.894917112345304" lon="11.559986718442364"><ele>1142.0</ele><time>2026-04-08T06:04:35.999Z</time></trkpt><trkpt lat="45.895019023099834" lon="11.560139147466286"><ele>1140.75</ele><time>2026-04-08T06:04:36.999Z</time></trkpt><trkpt lat="45.89511163407183" lon="11.560292452877741"><ele>1139.5</ele><time>2026-04-08T06:04:37.999Z</time></trkpt><trkpt lat="45.895198216077006" lon="11.560437860143011"><ele>1138.25</ele><time>2026-04-08T06:04:38.999Z</time></trkpt><trkpt lat="45.89527262925596" lon="11.560565782731029"><ele>1137.0</ele><time>2026-04-08T06:04:39.999Z</time></trkpt><trkpt lat="45.89534175779959" lon="11.560672727046477"><ele>1137.0</ele><time>2026-04-08T06:04:40.999Z</time></trkpt><trkpt lat="45.895420355240674" lon="11.560738525338435"><ele>1137.0</ele><time>2026-04-08T06:04:41.999Z</time></trkpt><trkpt lat="45.89550640525767" lon="11.56072368014899"><ele>1137.0</ele><time>2026-04-08T06:04:42.999Z</time></trkpt><trkpt lat="45.89559230112189" lon="11.560687265996737"><ele>1137.0</ele><time>2026-04-08T06:04:43.999Z</time></trkpt><trkpt lat="45.89568753162635" lon="11.56064489022609"><ele>1137.0</ele><time>2026-04-08T06:04:44.999Z</time></trkpt><trkpt lat="45.895768121892395" lon="11.560528263393095"><ele>1137.0</ele><time>2026-04-08T06:04:45.999Z</time></trkpt><trkpt lat="45.89584035680491" lon="11.5603864010708"><ele>1137.0</ele><time>2026-04-08T06:04:46.999Z</time></trkpt><trkpt lat="45.89590501816543" lon="11.560233602953346"><ele>1137.0</ele><time>2026-04-08T06:04:47.999Z</time></trkpt><trkpt lat="45.89594560329318" lon="11.560068757725075"><ele>1137.0</ele><time>2026-04-08T06:04:48.999Z</time></trkpt><trkpt lat="45.89597047891559" lon="11.55988980673211"><ele>1136.25</ele><time>2026-04-08T06:04:49.999Z</time></trkpt><trkpt lat="45.89599514954673" lon="11.559694853310598"><ele>1135.5</ele><time>2026-04-08T06:04:50.999Z</time></trkpt><trkpt lat="45.896014713628915" lon="11.559513808477057"><ele>1134.75</ele><time>2026-04-08T06:04:51.999Z</time></trkpt><trkpt lat="45.896036281625" lon="11.55936058804939"><ele>1134.0</ele><time>2026-04-08T06:04:52.999Z</time></trkpt><trkpt lat="45.89605163487079" lon="11.559233001796498"><ele>1141.6000000000001</ele><time>2026-04-08T06:04:53.999Z</time></trkpt><trkpt lat="45.896087166062536" lon="11.559123684154628"><ele>1149.2</ele><time>2026-04-08T06:04:54.999Z</time></trkpt><trkpt lat="45.89616859774546" lon="11.559010246786611"><ele>1156.8000000000002</ele><time>2026-04-08T06:04:55.999Z</time></trkpt><trkpt lat="45.89626451411792" lon="11.559015529479646"><ele>1164.4</ele><time>2026-04-08T06:04:56.999Z</time></trkpt><trkpt lat="45.896402913425575" lon="11.55902899939689"><ele>1172.0</ele><time>2026-04-08T06:04:57.999Z</time></trkpt><trkpt lat="45.896512766169884" lon="11.55905520786351"><ele>1172.0</ele><time>2026-04-08T06:04:58.999Z</time></trkpt><trkpt lat="45.89664239170416" lon="11.55908665203255"><ele>1172.0</ele><time>2026-04-08T06:04:59.999Z</time></trkpt><trkpt lat="45.89678612996692" lon="11.559078624106284"><ele>1172.0</ele><time>2026-04-08T06:05:01Z</time></trkpt><trkpt lat="45.896927117480054" lon="11.559076853924072"><ele>1172.0</ele><time>2026-04-08T06:05:02Z</time></trkpt><trkpt lat="45.89704658558895" lon="11.559010971213702"><ele>1174.0</ele><time>2026-04-08T06:05:03Z</time></trkpt><trkpt lat="45.897174220092126" lon="11.55896602604521"><ele>1176.0</ele><time>2026-04-08T06:05:04.001Z</time></trkpt><trkpt lat="45.89728127022701" lon="11.55892050853145"><ele>1178.0</ele><time>2026-04-08T06:05:05Z</time></trkpt><trkpt lat="45.89738302234422" lon="11.558903015264605"><ele>1180.0</ele><time>2026-04-08T06:05:06Z</time></trkpt><trkpt lat="45.89748431648358" lon="11.55895070892223"><ele>1180.0</ele><time>2026-04-08T06:05:07.001Z</time></trkpt><trkpt lat="45.89756861569699" lon="11.559067216252508"><ele>1180.0</ele><time>2026-04-08T06:05:08Z</time></trkpt><trkpt lat="45.89767916308877" lon="11.559177543547895"><ele>1180.0</ele><time>2026-04-08T06:05:09Z</time></trkpt><trkpt lat="45.89778369387741" lon="11.559292117201945"><ele>1180.0</ele><time>2026-04-08T06:05:10.001Z</time></trkpt><trkpt lat="45.8978799338559" lon="11.55943553566492"><ele>1180.5</ele><time>2026-04-08T06:05:11.001Z</time></trkpt><trkpt lat="45.897969054433055" lon="11.559583016652304"><ele>1181.0</ele><time>2026-04-08T06:05:12.001Z</time></trkpt><trkpt lat="45.898066295915505" lon="11.559735089566367"><ele>1181.5</ele><time>2026-04-08T06:05:13.001Z</time></trkpt><trkpt lat="45.89817195751354" lon="11.559859881718348"><ele>1182.0</ele><time>2026-04-08T06:05:14.001Z</time></trkpt><trkpt lat="45.89826131667728" lon="11.559997467717874"><ele>1182.0</ele><time>2026-04-08T06:05:15.001Z</time></trkpt><trkpt lat="45.89834950923638" lon="11.56013102732743"><ele>1182.0</ele><time>2026-04-08T06:05:16.001Z</time></trkpt><trkpt lat="45.89842892289095" lon="11.560279842835385"><ele>1182.0</ele><time>2026-04-08T06:05:17.001Z</time></trkpt><trkpt lat="45.89850625077653" lon="11.560433835063625"><ele>1182.0</ele><time>2026-04-08T06:05:18.001Z</time></trkpt><trkpt lat="45.89857903072218" lon="11.560580440391586"><ele>1185.25</ele><time>2026-04-08T06:05:19.001Z</time></trkpt><trkpt lat="45.89865711208462" lon="11.560707657471424"><ele>1188.5</ele><time>2026-04-08T06:05:20.001Z</time></trkpt><trkpt lat="45.898760344100715" lon="11.560803815474824"><ele>1191.75</ele><time>2026-04-08T06:05:21.001Z</time></trkpt><trkpt lat="45.8988776490699" lon="11.560885769733298"><ele>1195.0</ele><time>2026-04-08T06:05:22.001Z</time></trkpt><trkpt lat="45.89899547625691" lon="11.56096718183681"><ele>1195.0</ele><time>2026-04-08T06:05:23.001Z</time></trkpt><trkpt lat="45.899118503593556" lon="11.561055783127927"><ele>1195.0</ele><time>2026-04-08T06:05:24.001Z</time></trkpt><trkpt lat="45.899247528254094" lon="11.56114467745709"><ele>1195.0</ele><time>2026-04-08T06:05:25.001Z</time></trkpt><trkpt lat="45.899368605439065" lon="11.561231937276133"><ele>1195.0</ele><time>2026-04-08T06:05:26.001Z</time></trkpt><trkpt lat="45.899477105388875" lon="11.56129729578586"><ele>1194.0</ele><time>2026-04-08T06:05:27.001Z</time></trkpt><trkpt lat="45.899574277606426" lon="11.561320193017961"><ele>1193.0</ele><time>2026-04-08T06:05:28.001Z</time></trkpt><trkpt lat="45.89966745094543" lon="11.561283271013858"><ele>1192.0</ele><time>2026-04-08T06:05:29.001Z</time></trkpt><trkpt lat="45.8997350470754" lon="11.561177600978976"><ele>1191.0</ele><time>2026-04-08T06:05:30.001Z</time></trkpt><trkpt lat="45.89978453941257" lon="11.561036913123225"><ele>1190.0</ele><time>2026-04-08T06:05:31.001Z</time></trkpt><trkpt lat="45.899862787380236" lon="11.560921799308558"><ele>1192.75</ele><time>2026-04-08T06:05:32.001Z</time></trkpt><trkpt lat="45.899952501072605" lon="11.560832478449441"><ele>1195.5</ele><time>2026-04-08T06:05:33.001Z</time></trkpt><trkpt lat="45.900063553455354" lon="11.56074233109729"><ele>1198.25</ele><time>2026-04-08T06:05:34.001Z</time></trkpt><trkpt lat="45.90017595433264" lon="11.56064287881098"><ele>1201.0</ele><time>2026-04-08T06:05:35.001Z</time></trkpt><trkpt lat="45.90027938535962" lon="11.560530360169137"><ele>1204.3999999999999</ele><time>2026-04-08T06:05:36.001Z</time></trkpt><trkpt lat="45.90036312562008" lon="11.560421160978994"><ele>1207.8</ele><time>2026-04-08T06:05:37.001Z</time></trkpt><trkpt lat="45.9004538561998" lon="11.560354508319124"><ele>1211.1999999999998</ele><time>2026-04-08T06:05:38Z</time></trkpt><trkpt lat="45.90053616909668" lon="11.56033042359678"><ele>1214.6</ele><time>2026-04-08T06:05:39Z</time></trkpt><trkpt lat="45.90061404706348" lon="11.56037541633991"><ele>1218.0</ele><time>2026-04-08T06:05:40Z</time></trkpt><trkpt lat="45.90065626703232" lon="11.560475360723006"><ele>1218.0</ele><time>2026-04-08T06:05:41Z</time></trkpt><trkpt lat="45.900646025409" lon="11.56061437572176"><ele>1218.0</ele><time>2026-04-08T06:05:42Z</time></trkpt><trkpt lat="45.9006810700741" lon="11.560756018974141"><ele>1218.0</ele><time>2026-04-08T06:05:43Z</time></trkpt><trkpt lat="45.90071754791861" lon="11.560905607961388"><ele>1218.0</ele><time>2026-04-08T06:05:44Z</time></trkpt><trkpt lat="45.900777337959745" lon="11.561039643142912"><ele>1218.0</ele><time>2026-04-08T06:05:45Z</time></trkpt><trkpt lat="45.90083873914186" lon="11.561161662766535"><ele>1216.4</ele><time>2026-04-08T06:05:46Z</time></trkpt><trkpt lat="45.90089315909101" lon="11.56129925142069"><ele>1214.8</ele><time>2026-04-08T06:05:47Z</time></trkpt><trkpt lat="45.90094213713278" lon="11.561439281528095"><ele>1213.2</ele><time>2026-04-08T06:05:48Z</time></trkpt><trkpt lat="45.90098122910931" lon="11.561572538588493"><ele>1211.6</ele><time>2026-04-08T06:05:49Z</time></trkpt><trkpt lat="45.9010621908039" lon="11.561665140073513"><ele>1210.0</ele><time>2026-04-08T06:05:50Z</time></trkpt><trkpt lat="45.901149505862" lon="11.56173352007383"><ele>1215.8</ele><time>2026-04-08T06:05:51Z</time></trkpt><trkpt lat="45.901227957543995" lon="11.561787768760585"><ele>1221.6</ele><time>2026-04-08T06:05:52Z</time></trkpt><trkpt lat="45.901305521584526" lon="11.561855508235308"><ele>1227.4</ele><time>2026-04-08T06:05:53Z</time></trkpt><trkpt lat="45.90137513957567" lon="11.561964027743926"><ele>1233.2</ele><time>2026-04-08T06:05:54Z</time></trkpt><trkpt lat="45.90138810267431" lon="11.562106486798477"><ele>1239.0</ele><time>2026-04-08T06:05:55Z</time></trkpt><trkpt lat="45.901388096006016" lon="11.562261915375295"><ele>1239.0</ele><time>2026-04-08T06:05:56Z</time></trkpt><trkpt lat="45.90139743402404" lon="11.562424105960824"><ele>1239.0</ele><time>2026-04-08T06:05:57Z</time></trkpt><trkpt lat="45.90142219789126" lon="11.562591467215247"><ele>1239.0</ele><time>2026-04-08T06:05:58Z</time></trkpt><trkpt lat="45.9014144487123" lon="11.562762498652932"><ele>1239.0</ele><time>2026-04-08T06:05:59Z</time></trkpt><trkpt lat="45.90139562535838" lon="11.562930241842546"><ele>1239.2</ele><time>2026-04-08T06:06:00Z</time></trkpt><trkpt lat="45.901375620981455" lon="11.563081637322512"><ele>1239.4</ele><time>2026-04-08T06:06:01Z</time></trkpt><trkpt lat="45.90134861114092" lon="11.563220658232192"><ele>1239.6</ele><time>2026-04-08T06:06:02Z</time></trkpt><trkpt lat="45.90133619222443" lon="11.563365416919059"><ele>1239.8</ele><time>2026-04-08T06:06:03Z</time></trkpt><trkpt lat="45.90135683291245" lon="11.563515753847396"><ele>1240.0</ele><time>2026-04-08T06:06:04Z</time></trkpt><trkpt lat="45.90140859474115" lon="11.563642102206096"><ele>1238.0</ele><time>2026-04-08T06:06:05Z</time></trkpt><trkpt lat="45.9014808102984" lon="11.563767961572095"><ele>1236.0</ele><time>2026-04-08T06:06:06Z</time></trkpt><trkpt lat="45.90155640054897" lon="11.563894659266744"><ele>1234.0</ele><time>2026-04-08T06:06:07Z</time></trkpt><trkpt lat="45.901635886608354" lon="11.564026824348206"><ele>1232.0</ele><time>2026-04-08T06:06:08Z</time></trkpt><trkpt lat="45.90171498686644" lon="11.564158203316962"><ele>1234.75</ele><time>2026-04-08T06:06:09Z</time></trkpt><trkpt lat="45.90178772609002" lon="11.564295671449548"><ele>1237.5</ele><time>2026-04-08T06:06:10Z</time></trkpt><trkpt lat="45.901863672008155" lon="11.564429181696337"><ele>1240.25</ele><time>2026-04-08T06:06:11Z</time></trkpt><trkpt lat="45.901941948857214" lon="11.564568475149835"><ele>1243.0</ele><time>2026-04-08T06:06:12Z</time></trkpt><trkpt lat="45.90204099594758" lon="11.564682880277033"><ele>1243.0</ele><time>2026-04-08T06:06:13Z</time></trkpt><trkpt lat="45.902157809316556" lon="11.564766949229917"><ele>1243.0</ele><time>2026-04-08T06:06:14Z</time></trkpt><trkpt lat="45.902281525477896" lon="11.564842769949177"><ele>1243.0</ele><time>2026-04-08T06:06:15Z</time></trkpt><trkpt lat="45.90240743588897" lon="11.564919455626917"><ele>1243.0</ele><time>2026-04-08T06:06:16Z</time></trkpt><trkpt lat="45.90253559992418" lon="11.565000896653807"><ele>1243.75</ele><time>2026-04-08T06:06:17Z</time></trkpt><trkpt lat="45.90266255334236" lon="11.565086786454083"><ele>1244.5</ele><time>2026-04-08T06:06:18Z</time></trkpt><trkpt lat="45.90278148564055" lon="11.565198123216025"><ele>1245.25</ele><time>2026-04-08T06:06:19Z</time></trkpt><trkpt lat="45.902905744092685" lon="11.565297156671733"><ele>1246.0</ele><time>2026-04-08T06:06:20Z</time></trkpt><trkpt lat="45.903028176399054" lon="11.56539378602268"><ele>1246.0</ele><time>2026-04-08T06:06:21Z</time></trkpt><trkpt lat="45.903153087206725" lon="11.565491512729926"><ele>1246.0</ele><time>2026-04-08T06:06:22Z</time></trkpt><trkpt lat="45.90327814697368" lon="11.565579020961904"><ele>1246.0</ele><time>2026-04-08T06:06:23Z</time></trkpt><trkpt lat="45.90340226601202" lon="11.56566201043248"><ele>1246.0</ele><time>2026-04-08T06:06:24Z</time></trkpt><trkpt lat="45.90352403683177" lon="11.565743429819577"><ele>1253.0</ele><time>2026-04-08T06:06:25Z</time></trkpt><trkpt lat="45.90364904618571" lon="11.565821770285838"><ele>1260.0</ele><time>2026-04-08T06:06:26Z</time></trkpt><trkpt lat="45.903781657399165" lon="11.565890457195021"><ele>1267.0</ele><time>2026-04-08T06:06:27Z</time></trkpt><trkpt lat="45.903913701855906" lon="11.565916883815223"><ele>1274.0</ele><time>2026-04-08T06:06:28Z</time></trkpt><trkpt lat="45.90404111270873" lon="11.565978419878583"><ele>1274.0</ele><time>2026-04-08T06:06:29Z</time></trkpt><trkpt lat="45.904170748914204" lon="11.566029776034119"><ele>1274.0</ele><time>2026-04-08T06:06:30Z</time></trkpt><trkpt lat="45.9042960533885" lon="11.5661173641006"><ele>1274.0</ele><time>2026-04-08T06:06:31Z</time></trkpt><trkpt lat="45.904421436423675" lon="11.56621793774569"><ele>1274.0</ele><time>2026-04-08T06:06:32Z</time></trkpt><trkpt lat="45.90454516541501" lon="11.566314100073248"><ele>1275.0</ele><time>2026-04-08T06:06:33Z</time></trkpt><trkpt lat="45.904665059602756" lon="11.566397637620234"><ele>1276.0</ele><time>2026-04-08T06:06:34Z</time></trkpt><trkpt lat="45.90478082141413" lon="11.566497999388131"><ele>1277.0</ele><time>2026-04-08T06:06:35Z</time></trkpt><trkpt lat="45.90489693710112" lon="11.566586976545974"><ele>1278.0</ele><time>2026-04-08T06:06:36Z</time></trkpt><trkpt lat="45.90500883349081" lon="11.566674899664752"><ele>1279.25</ele><time>2026-04-08T06:06:37Z</time></trkpt><trkpt lat="45.905124725262944" lon="11.566764440640279"><ele>1280.5</ele><time>2026-04-08T06:06:38Z</time></trkpt><trkpt lat="45.9052376566053" lon="11.566864265311661"><ele>1281.75</ele><time>2026-04-08T06:06:39Z</time></trkpt><trkpt lat="45.905351179614875" lon="11.566962393735698"><ele>1283.0</ele><time>2026-04-08T06:06:40Z</time></trkpt><trkpt lat="45.90546232322514" lon="11.56706490040475"><ele>1283.0</ele><time>2026-04-08T06:06:41Z</time></trkpt><trkpt lat="45.90557706636917" lon="11.567165308272681"><ele>1283.0</ele><time>2026-04-08T06:06:42Z</time></trkpt><trkpt lat="45.90569298000984" lon="11.567271634915059"><ele>1283.0</ele><time>2026-04-08T06:06:43Z</time></trkpt><trkpt lat="45.90581317254067" lon="11.567382751867205"><ele>1283.0</ele><time>2026-04-08T06:06:44Z</time></trkpt><trkpt lat="45.9059286760881" lon="11.567491893203039"><ele>1284.25</ele><time>2026-04-08T06:06:45Z</time></trkpt><trkpt lat="45.906051053003715" lon="11.567591641998675"><ele>1285.5</ele><time>2026-04-08T06:06:46Z</time></trkpt><trkpt lat="45.906177088169" lon="11.567683381248363"><ele>1286.75</ele><time>2026-04-08T06:06:47Z</time></trkpt><trkpt lat="45.90629915012383" lon="11.567771013719296"><ele>1288.0</ele><time>2026-04-08T06:06:48Z</time></trkpt><trkpt lat="45.90642241070644" lon="11.56786178004503"><ele>1288.0</ele><time>2026-04-08T06:06:49Z</time></trkpt><trkpt lat="45.90654491361275" lon="11.567955296764941"><ele>1288.0</ele><time>2026-04-08T06:06:50Z</time></trkpt><trkpt lat="45.90667206570371" lon="11.568038175342103"><ele>1288.0</ele><time>2026-04-08T06:06:51Z</time></trkpt><trkpt lat="45.90679758090854" lon="11.568112684760756"><ele>1288.0</ele><time>2026-04-08T06:06:52Z</time></trkpt><trkpt lat="45.90692448170281" lon="11.568181306177564"><ele>1293.75</ele><time>2026-04-08T06:06:53Z</time></trkpt><trkpt lat="45.907053091706906" lon="11.568244110628457"><ele>1299.5</ele><time>2026-04-08T06:06:54Z</time></trkpt><trkpt lat="45.907179600279086" lon="11.568313741561434"><ele>1305.25</ele><time>2026-04-08T06:06:55Z</time></trkpt><trkpt lat="45.90731033538048" lon="11.56837152611918"><ele>1311.0</ele><time>2026-04-08T06:06:56Z</time></trkpt><trkpt lat="45.90744103316516" lon="11.56841300583789"><ele>1314.75</ele><time>2026-04-08T06:06:57Z</time></trkpt><trkpt lat="45.90758107320319" lon="11.568432013657533"><ele>1318.5</ele><time>2026-04-08T06:06:58Z</time></trkpt><trkpt lat="45.90771592318211" lon="11.568431571566306"><ele>1322.25</ele><time>2026-04-08T06:06:59Z</time></trkpt><trkpt lat="45.907854038195374" lon="11.568423943439454"><ele>1326.0</ele><time>2026-04-08T06:07:00Z</time></trkpt><trkpt lat="45.90799625160596" lon="11.568433828768496"><ele>1326.0</ele><time>2026-04-08T06:07:01Z</time></trkpt><trkpt lat="45.90813737633618" lon="11.568422855427583"><ele>1326.0</ele><time>2026-04-08T06:07:02Z</time></trkpt><trkpt lat="45.90828030197612" lon="11.568409537342243"><ele>1326.0</ele><time>2026-04-08T06:07:03Z</time></trkpt><trkpt lat="45.90841952120377" lon="11.568395591940794"><ele>1326.0</ele><time>2026-04-08T06:07:04Z</time></trkpt><trkpt lat="45.90856119171966" lon="11.568381403176613"><ele>1329.25</ele><time>2026-04-08T06:07:05Z</time></trkpt><trkpt lat="45.90870419855148" lon="11.568365114893815"><ele>1332.5</ele><time>2026-04-08T06:07:06Z</time></trkpt><trkpt lat="45.90884743777168" lon="11.568347078003788"><ele>1335.75</ele><time>2026-04-08T06:07:07.001Z</time></trkpt><trkpt lat="45.90898809602536" lon="11.568306025033637"><ele>1339.0</ele><time>2026-04-08T06:07:08Z</time></trkpt><trkpt lat="45.90913293211946" lon="11.568294480095716"><ele>1340.25</ele><time>2026-04-08T06:07:09Z</time></trkpt><trkpt lat="45.90927664369533" lon="11.56826996852992"><ele>1341.5</ele><time>2026-04-08T06:07:10Z</time></trkpt><trkpt lat="45.90942173598962" lon="11.568251356521529"><ele>1342.75</ele><time>2026-04-08T06:07:11.001Z</time></trkpt><trkpt lat="45.909569789716805" lon="11.568238750647657"><ele>1344.0</ele><time>2026-04-08T06:07:12.001Z</time></trkpt><trkpt lat="45.90971726909738" lon="11.568236862231586"><ele>1344.0</ele><time>2026-04-08T06:07:13.001Z</time></trkpt><trkpt lat="45.909860249177356" lon="11.568210018598922"><ele>1344.0</ele><time>2026-04-08T06:07:14.001Z</time></trkpt><trkpt lat="45.909997112714265" lon="11.568162460227379"><ele>1344.0</ele><time>2026-04-08T06:07:15.001Z</time></trkpt><trkpt lat="45.91013439374433" lon="11.568107607904192"><ele>1344.0</ele><time>2026-04-08T06:07:16Z</time></trkpt><trkpt lat="45.91027625570088" lon="11.568061243659676"><ele>1346.25</ele><time>2026-04-08T06:07:17.001Z</time></trkpt><trkpt lat="45.9104156278115" lon="11.568028995208842"><ele>1348.5</ele><time>2026-04-08T06:07:18.001Z</time></trkpt><trkpt lat="45.91055972805182" lon="11.567997838281203"><ele>1350.75</ele><time>2026-04-08T06:07:19Z</time></trkpt><trkpt lat="45.91069828832323" lon="11.567957042729628"><ele>1353.0</ele><time>2026-04-08T06:07:20.001Z</time></trkpt><trkpt lat="45.910840657712676" lon="11.567925498641769"><ele>1360.75</ele><time>2026-04-08T06:07:21.001Z</time></trkpt><trkpt lat="45.91097343101647" lon="11.567850443734992"><ele>1368.5</ele><time>2026-04-08T06:07:22.001Z</time></trkpt><trkpt lat="45.91110136766693" lon="11.567774691195323"><ele>1376.25</ele><time>2026-04-08T06:07:23.001Z</time></trkpt><trkpt lat="45.91124059815357" lon="11.567740903109971"><ele>1384.0</ele><time>2026-04-08T06:07:24.001Z</time></trkpt><trkpt lat="45.91137527525227" lon="11.567714091513265"><ele>1384.0</ele><time>2026-04-08T06:07:25.001Z</time></trkpt><trkpt lat="45.911511527036744" lon="11.567714949063262"><ele>1384.0</ele><time>2026-04-08T06:07:26.001Z</time></trkpt><trkpt lat="45.91164264682872" lon="11.56769188790968"><ele>1384.0</ele><time>2026-04-08T06:07:27.001Z</time></trkpt><trkpt lat="45.911765621493146" lon="11.567725934498057"><ele>1384.0</ele><time>2026-04-08T06:07:28.001Z</time></trkpt><trkpt lat="45.9118904434506" lon="11.56778603553064"><ele>1385.75</ele><time>2026-04-08T06:07:29Z</time></trkpt><trkpt lat="45.91201356775247" lon="11.567878779388769"><ele>1387.5</ele><time>2026-04-08T06:07:30Z</time></trkpt><trkpt lat="45.91214727715775" lon="11.567902891905538"><ele>1389.25</ele><time>2026-04-08T06:07:31Z</time></trkpt><trkpt lat="45.912274130420215" lon="11.567927210333247"><ele>1391.0</ele><time>2026-04-08T06:07:32Z</time></trkpt><trkpt lat="45.91240352266687" lon="11.567911751705365"><ele>1391.0</ele><time>2026-04-08T06:07:33Z</time></trkpt><trkpt lat="45.91254398822485" lon="11.567861445812078"><ele>1391.0</ele><time>2026-04-08T06:07:34Z</time></trkpt><trkpt lat="45.91267281876374" lon="11.56778513465798"><ele>1391.0</ele><time>2026-04-08T06:07:35Z</time></trkpt><trkpt lat="45.91280040336314" lon="11.567698147650708"><ele>1391.0</ele><time>2026-04-08T06:07:36Z</time></trkpt><trkpt lat="45.91293718053184" lon="11.567639240137694"><ele>1391.75</ele><time>2026-04-08T06:07:37Z</time></trkpt><trkpt lat="45.913065200570195" lon="11.567566236870132"><ele>1392.5</ele><time>2026-04-08T06:07:38Z</time></trkpt><trkpt lat="45.91320490311926" lon="11.567527734478858"><ele>1393.25</ele><time>2026-04-08T06:07:39Z</time></trkpt><trkpt lat="45.913342594217" lon="11.567503602795599"><ele>1394.0</ele><time>2026-04-08T06:07:40Z</time></trkpt><trkpt lat="45.9134703655659" lon="11.567483387894654"><ele>1396.25</ele><time>2026-04-08T06:07:41Z</time></trkpt><trkpt lat="45.913603485938424" lon="11.56743208454846"><ele>1398.5</ele><time>2026-04-08T06:07:42Z</time></trkpt><trkpt lat="45.91373222025822" lon="11.56736110392601"><ele>1400.75</ele><time>2026-04-08T06:07:43Z</time></trkpt><trkpt lat="45.9138680631267" lon="11.567296135631267"><ele>1403.0</ele><time>2026-04-08T06:07:44Z</time></trkpt><trkpt lat="45.91400252366148" lon="11.567232539544658"><ele>1403.0</ele><time>2026-04-08T06:07:45Z</time></trkpt><trkpt lat="45.91413913986606" lon="11.567163597268209"><ele>1403.0</ele><time>2026-04-08T06:07:46Z</time></trkpt><trkpt lat="45.91427662168515" lon="11.567082544816246"><ele>1403.0</ele><time>2026-04-08T06:07:47Z</time></trkpt><trkpt lat="45.91441689536144" lon="11.567017725430246"><ele>1403.0</ele><time>2026-04-08T06:07:48Z</time></trkpt><trkpt lat="45.914562613428664" lon="11.566953029925491"><ele>1405.0</ele><time>2026-04-08T06:07:49Z</time></trkpt><trkpt lat="45.9147132309314" lon="11.566906907832896"><ele>1407.0</ele><time>2026-04-08T06:07:50Z</time></trkpt><trkpt lat="45.914857244082654" lon="11.56684103523591"><ele>1409.0</ele><time>2026-04-08T06:07:51Z</time></trkpt><trkpt lat="45.914997057157386" lon="11.56677349288321"><ele>1410.25</ele><time>2026-04-08T06:07:52Z</time></trkpt><trkpt lat="45.915135700406" lon="11.566703299828635"><ele>1411.5</ele><time>2026-04-08T06:07:53Z</time></trkpt><trkpt lat="45.91526453524207" lon="11.56661044406422"><ele>1412.75</ele><time>2026-04-08T06:07:54Z</time></trkpt><trkpt lat="45.91539492648679" lon="11.566523257931896"><ele>1414.0</ele><time>2026-04-08T06:07:55Z</time></trkpt><trkpt lat="45.91551876339824" lon="11.56642616228592"><ele>1414.0</ele><time>2026-04-08T06:07:56Z</time></trkpt><trkpt lat="45.91564287287051" lon="11.566339510058086"><ele>1414.0</ele><time>2026-04-08T06:07:57Z</time></trkpt><trkpt lat="45.915761966434545" lon="11.566242560592968"><ele>1414.0</ele><time>2026-04-08T06:07:58Z</time></trkpt><trkpt lat="45.91588304520995" lon="11.566141744981863"><ele>1414.0</ele><time>2026-04-08T06:07:59Z</time></trkpt><trkpt lat="45.91600102388414" lon="11.566031228656396"><ele>1413.5</ele><time>2026-04-08T06:08:00Z</time></trkpt><trkpt lat="45.916119379273475" lon="11.565912647733052"><ele>1413.0</ele><time>2026-04-08T06:08:01Z</time></trkpt><trkpt lat="45.91624104850961" lon="11.565791080827875"><ele>1412.5</ele><time>2026-04-08T06:08:02Z</time></trkpt><trkpt lat="45.916361879754646" lon="11.565667492334612"><ele>1412.0</ele><time>2026-04-08T06:08:03Z</time></trkpt><trkpt lat="45.91647983533113" lon="11.565541215597488"><ele>1412.0</ele><time>2026-04-08T06:08:04Z</time></trkpt><trkpt lat="45.91660057409727" lon="11.565412242258608"><ele>1412.0</ele><time>2026-04-08T06:08:05Z</time></trkpt><trkpt lat="45.91672263015163" lon="11.565284055993883"><ele>1412.0</ele><time>2026-04-08T06:08:06Z</time></trkpt><trkpt lat="45.91684429912355" lon="11.565159499972733"><ele>1415.25</ele><time>2026-04-08T06:08:07Z</time></trkpt><trkpt lat="45.91696081935266" lon="11.56503427781225"><ele>1418.5</ele><time>2026-04-08T06:08:08Z</time></trkpt><trkpt lat="45.917077064979104" lon="11.564904470203588"><ele>1421.75</ele><time>2026-04-08T06:08:09Z</time></trkpt><trkpt lat="45.917183690156676" lon="11.564763391196664"><ele>1425.0</ele><time>2026-04-08T06:08:10Z</time></trkpt><trkpt lat="45.917285865938744" lon="11.564617673263356"><ele>1425.25</ele><time>2026-04-08T06:08:11Z</time></trkpt><trkpt lat="45.91738666756585" lon="11.564467985658332"><ele>1425.5</ele><time>2026-04-08T06:08:12Z</time></trkpt><trkpt lat="45.91748176125297" lon="11.564316932694412"><ele>1425.75</ele><time>2026-04-08T06:08:13Z</time></trkpt><trkpt lat="45.917573396905254" lon="11.564171203792489"><ele>1426.0</ele><time>2026-04-08T06:08:14Z</time></trkpt><trkpt lat="45.91765219769197" lon="11.564017764456262"><ele>1427.0</ele><time>2026-04-08T06:08:15Z</time></trkpt><trkpt lat="45.91771398803306" lon="11.563853810043936"><ele>1428.0</ele><time>2026-04-08T06:08:16Z</time></trkpt><trkpt lat="45.91776382049536" lon="11.563683139240204"><ele>1429.0</ele><time>2026-04-08T06:08:17Z</time></trkpt><trkpt lat="45.91780451286104" lon="11.563507413818382"><ele>1430.0</ele><time>2026-04-08T06:08:18Z</time></trkpt><trkpt lat="45.917830429675604" lon="11.563329536890462"><ele>1430.0</ele><time>2026-04-08T06:08:19Z</time></trkpt><trkpt lat="45.917844027541086" lon="11.563150277798396"><ele>1430.0</ele><time>2026-04-08T06:08:20Z</time></trkpt><trkpt lat="45.91785823194433" lon="11.562977659681808"><ele>1430.0</ele><time>2026-04-08T06:08:21Z</time></trkpt><trkpt lat="45.9178832196378" lon="11.562807613822729"><ele>1430.0</ele><time>2026-04-08T06:08:22Z</time></trkpt><trkpt lat="45.91792492002162" lon="11.56264262657476"><ele>1429.25</ele><time>2026-04-08T06:08:23Z</time></trkpt><trkpt lat="45.9179783954125" lon="11.562480717408203"><ele>1428.5</ele><time>2026-04-08T06:08:24Z</time></trkpt><trkpt lat="45.91804615623052" lon="11.562330792275318"><ele>1427.75</ele><time>2026-04-08T06:08:25Z</time></trkpt><trkpt lat="45.91813018857392" lon="11.562186396577767"><ele>1427.0</ele><time>2026-04-08T06:08:26Z</time></trkpt><trkpt lat="45.9182203833429" lon="11.56205109624035"><ele>1427.25</ele><time>2026-04-08T06:08:27Z</time></trkpt><trkpt lat="45.91831761312447" lon="11.561936748458816"><ele>1427.5</ele><time>2026-04-08T06:08:28Z</time></trkpt><trkpt lat="45.918421334317046" lon="11.561842711192156"><ele>1427.75</ele><time>2026-04-08T06:08:29Z</time></trkpt><trkpt lat="45.91853576569355" lon="11.561772341900426"><ele>1428.0</ele><time>2026-04-08T06:08:30Z</time></trkpt><trkpt lat="45.918655997514485" lon="11.56172011849554"><ele>1428.0</ele><time>2026-04-08T06:08:31Z</time></trkpt><trkpt lat="45.91878073885584" lon="11.561664984858705"><ele>1428.0</ele><time>2026-04-08T06:08:32Z</time></trkpt><trkpt lat="45.91890621236654" lon="11.561609601494139"><ele>1428.0</ele><time>2026-04-08T06:08:33Z</time></trkpt><trkpt lat="45.919033470190385" lon="11.561555496979548"><ele>1428.0</ele><time>2026-04-08T06:08:34Z</time></trkpt><trkpt lat="45.91915864199613" lon="11.56149770267552"><ele>1428.5</ele><time>2026-04-08T06:08:35Z</time></trkpt><trkpt lat="45.91928394184493" lon="11.561443124004171"><ele>1429.0</ele><time>2026-04-08T06:08:36Z</time></trkpt><trkpt lat="45.919406284078256" lon="11.561388194272203"><ele>1429.5</ele><time>2026-04-08T06:08:37Z</time></trkpt><trkpt lat="45.91952766729821" lon="11.561336453663753"><ele>1430.0</ele><time>2026-04-08T06:08:38Z</time></trkpt><trkpt lat="45.919648025763614" lon="11.561283333358723"><ele>1430.0</ele><time>2026-04-08T06:08:39Z</time></trkpt><trkpt lat="45.91976615632318" lon="11.561230999301559"><ele>1430.0</ele><time>2026-04-08T06:08:40Z</time></trkpt><trkpt lat="45.91988526685484" lon="11.56118235826933"><ele>1430.0</ele><time>2026-04-08T06:08:41Z</time></trkpt><trkpt lat="45.91999617369359" lon="11.56113546785845"><ele>1430.0</ele><time>2026-04-08T06:08:42Z</time></trkpt><trkpt lat="45.92010680225693" lon="11.561087311460467"><ele>1432.4</ele><time>2026-04-08T06:08:43Z</time></trkpt><trkpt lat="45.92021273447416" lon="11.56105216765251"><ele>1434.8</ele><time>2026-04-08T06:08:44Z</time></trkpt><trkpt lat="45.92032179672442" lon="11.561035987455055"><ele>1437.1999999999998</ele><time>2026-04-08T06:08:45Z</time></trkpt><trkpt lat="45.92042948048578" lon="11.56103436992921"><ele>1439.6</ele><time>2026-04-08T06:08:46Z</time></trkpt><trkpt lat="45.92053800539549" lon="11.561047520428472"><ele>1442.0</ele><time>2026-04-08T06:08:47Z</time></trkpt><trkpt lat="45.92064849192113" lon="11.561063182013207"><ele>1442.0</ele><time>2026-04-08T06:08:48Z</time></trkpt><trkpt lat="45.920758239381826" lon="11.561079668907137"><ele>1442.0</ele><time>2026-04-08T06:08:49Z</time></trkpt><trkpt lat="45.92086727118101" lon="11.561083665690491"><ele>1442.0</ele><time>2026-04-08T06:08:50Z</time></trkpt><trkpt lat="45.92097347912768" lon="11.561071247438536"><ele>1442.0</ele><time>2026-04-08T06:08:51Z</time></trkpt><trkpt lat="45.92107975137844" lon="11.561058341962163"><ele>1442.0</ele><time>2026-04-08T06:08:52Z</time></trkpt><trkpt lat="45.92119682989876" lon="11.561042007868416"><ele>1443.25</ele><time>2026-04-08T06:08:53Z</time></trkpt><trkpt lat="45.92131493513935" lon="11.561018999036316"><ele>1444.5</ele><time>2026-04-08T06:08:54Z</time></trkpt><trkpt lat="45.921438977169366" lon="11.560993886560658"><ele>1445.75</ele><time>2026-04-08T06:08:55Z</time></trkpt><trkpt lat="45.921562865084816" lon="11.560969673827927"><ele>1447.0</ele><time>2026-04-08T06:08:56Z</time></trkpt><trkpt lat="45.9216865427397" lon="11.560943541711605"><ele>1449.25</ele><time>2026-04-08T06:08:57Z</time></trkpt><trkpt lat="45.92181020682043" lon="11.560919872334981"><ele>1451.5</ele><time>2026-04-08T06:08:58Z</time></trkpt><trkpt lat="45.92193381843845" lon="11.560910504891595"><ele>1453.75</ele><time>2026-04-08T06:08:59Z</time></trkpt><trkpt lat="45.922054773201985" lon="11.560916371151155"><ele>1456.0</ele><time>2026-04-08T06:09:00Z</time></trkpt><trkpt lat="45.922172134081364" lon="11.560957324356297"><ele>1456.0</ele><time>2026-04-08T06:09:01Z</time></trkpt><trkpt lat="45.92228725557123" lon="11.561009125385098"><ele>1456.0</ele><time>2026-04-08T06:09:01.999Z</time></trkpt><trkpt lat="45.922397153399224" lon="11.561068422385963"><ele>1456.0</ele><time>2026-04-08T06:09:02.999Z</time></trkpt><trkpt lat="45.92251525845623" lon="11.561053389655505"><ele>1456.0</ele><time>2026-04-08T06:09:03.999Z</time></trkpt><trkpt lat="45.922627925830675" lon="11.561021580991476"><ele>1458.0</ele><time>2026-04-08T06:09:04.999Z</time></trkpt><trkpt lat="45.92273787187552" lon="11.560966138351223"><ele>1460.0</ele><time>2026-04-08T06:09:05.999Z</time></trkpt><trkpt lat="45.92284768660871" lon="11.560908101168794"><ele>1462.0</ele><time>2026-04-08T06:09:06.999Z</time></trkpt><trkpt lat="45.92296286989417" lon="11.560852402789655"><ele>1464.0</ele><time>2026-04-08T06:09:07.999Z</time></trkpt><trkpt lat="45.9230753848914" lon="11.560796856172226"><ele>1464.0</ele><time>2026-04-08T06:09:08.999Z</time></trkpt><trkpt lat="45.92318691356531" lon="11.560746366982993"><ele>1464.0</ele><time>2026-04-08T06:09:09.999Z</time></trkpt><trkpt lat="45.92329669908201" lon="11.560702742417392"><ele>1464.0</ele><time>2026-04-08T06:09:10.999Z</time></trkpt><trkpt lat="45.923402802634214" lon="11.560657939348767"><ele>1464.0</ele><time>2026-04-08T06:09:11.999Z</time></trkpt><trkpt lat="45.92350745651954" lon="11.560614875780217"><ele>1464.6</ele><time>2026-04-08T06:09:13.001Z</time></trkpt><trkpt lat="45.923604169181296" lon="11.560570467153278"><ele>1465.2</ele><time>2026-04-08T06:09:14Z</time></trkpt><trkpt lat="45.92370151303799" lon="11.560530749410338"><ele>1465.8</ele><time>2026-04-08T06:09:15Z</time></trkpt><trkpt lat="45.923799386443235" lon="11.560497423621804"><ele>1466.3999999999999</ele><time>2026-04-08T06:09:16Z</time></trkpt><trkpt lat="45.923892853096" lon="11.560480431556643"><ele>1467.0</ele><time>2026-04-08T06:09:17Z</time></trkpt><trkpt lat="45.92398914912187" lon="11.560491289112983"><ele>1467.0</ele><time>2026-04-08T06:09:18Z</time></trkpt><trkpt lat="45.92406161173997" lon="11.560548095816845"><ele>1467.0</ele><time>2026-04-08T06:09:19.001Z</time></trkpt><trkpt lat="45.92413773036744" lon="11.56059046433857"><ele>1467.0</ele><time>2026-04-08T06:09:20.001Z</time></trkpt><trkpt lat="45.92422176856153" lon="11.560608016350715"><ele>1467.0</ele><time>2026-04-08T06:09:21.001Z</time></trkpt><trkpt lat="45.924286352937436" lon="11.560639685516286"><ele>1467.0</ele><time>2026-04-08T06:09:22.001Z</time></trkpt><trkpt lat="45.92440388189257" lon="11.560653355143703"><ele>1467.0</ele><time>2026-04-08T06:09:24.001Z</time></trkpt><trkpt lat="45.92448325810939" lon="11.560628669069644"><ele>1466.6666666666667</ele><time>2026-04-08T06:09:26Z</time></trkpt><trkpt lat="45.92453701995023" lon="11.560487439960477"><ele>1466.3333333333333</ele><time>2026-04-08T06:09:30Z</time></trkpt><trkpt lat="45.92453759286161" lon="11.560383392015858"><ele>1466.0</ele><time>2026-04-08T06:11:33Z</time></trkpt><trkpt lat="45.92453861288392" lon="11.560289112916625"><ele>1465.6666666666665</ele><time>2026-04-08T06:11:37Z</time></trkpt><trkpt lat="45.92455085135998" lon="11.560196737826324"><ele>1465.3333333333333</ele><time>2026-04-08T06:11:42Z</time></trkpt><trkpt lat="45.924521527973596" lon="11.560090573625263"><ele>1465.0</ele><time>2026-04-08T06:11:49Z</time></trkpt><trkpt lat="45.92451339189677" lon="11.559988571354204"><ele>1464.7142857142858</ele><time>2026-04-08T06:11:57.999Z</time></trkpt><trkpt lat="45.92451899740032" lon="11.559897415734943"><ele>1464.4285714285713</ele><time>2026-04-08T06:12:02.999Z</time></trkpt><trkpt lat="45.9245192084795" lon="11.559799994945726"><ele>1464.142857142857</ele><time>2026-04-08T06:12:06.999Z</time></trkpt><trkpt lat="45.924534844471786" lon="11.559693433278964"><ele>1463.857142857143</ele><time>2026-04-08T06:12:11.999Z</time></trkpt><trkpt lat="45.924569875713445" lon="11.559605849877505"><ele>1463.5714285714284</ele><time>2026-04-08T06:12:16.999Z</time></trkpt><trkpt lat="45.924618671886435" lon="11.559532844285725"><ele>1463.2857142857142</ele><time>2026-04-08T06:12:21.999Z</time></trkpt><trkpt lat="45.92468065296121" lon="11.559486919974917"><ele>1463.0</ele><time>2026-04-08T06:12:26.999Z</time></trkpt><trkpt lat="45.92475083464294" lon="11.559465575332771"><ele>1464.857142857143</ele><time>2026-04-08T06:12:31.999Z</time></trkpt><trkpt lat="45.92482619336148" lon="11.559448884916817"><ele>1466.7142857142858</ele><time>2026-04-08T06:12:36.999Z</time></trkpt><trkpt lat="45.92489911479229" lon="11.55944837558628"><ele>1468.5714285714284</ele><time>2026-04-08T06:12:41.999Z</time></trkpt><trkpt lat="45.924964170236436" lon="11.559434747243866"><ele>1470.4285714285716</ele><time>2026-04-08T06:12:46.999Z</time></trkpt><trkpt lat="45.92502985904536" lon="11.559415070134982"><ele>1472.2857142857142</ele><time>2026-04-08T06:12:51.999Z</time></trkpt><trkpt lat="45.92509880325206" lon="11.55939351498568"><ele>1474.142857142857</ele><time>2026-04-08T06:12:57.999Z</time></trkpt><trkpt lat="45.92516462741595" lon="11.559367508830958"><ele>1476.0</ele><time>2026-04-08T06:13:02.999Z</time></trkpt><trkpt lat="45.92522012489298" lon="11.559296390963203"><ele>1477.2857142857142</ele><time>2026-04-08T06:13:08.999Z</time></trkpt><trkpt lat="45.925249258423115" lon="11.559208539940723"><ele>1478.5714285714284</ele><time>2026-04-08T06:13:13.999Z</time></trkpt><trkpt lat="45.925322319307156" lon="11.559187022638278"><ele>1479.857142857143</ele><time>2026-04-08T06:13:35Z</time></trkpt><trkpt lat="45.92537920853731" lon="11.559137459011994"><ele>1481.142857142857</ele><time>2026-04-08T06:13:40.001Z</time></trkpt><trkpt lat="45.92534853371808" lon="11.55905595149726"><ele>1482.4285714285716</ele><time>2026-04-08T06:13:48.001Z</time></trkpt><trkpt lat="45.92528777316616" lon="11.55901818848393"><ele>1483.7142857142858</ele><time>2026-04-08T06:13:53Z</time></trkpt><trkpt lat="45.92532083299598" lon="11.559095376838664"><ele>1485.0</ele><time>2026-04-08T06:14:01Z</time></trkpt><trkpt lat="45.925260146216196" lon="11.559047923130292"><ele>1485.0</ele><time>2026-04-08T06:14:15Z</time></trkpt><trkpt lat="45.92523280296213" lon="11.558946632313608"><ele>1485.0</ele><time>2026-04-08T06:14:21Z</time></trkpt><trkpt lat="45.92521773103432" lon="11.558856885845342"><ele>1485.0</ele><time>2026-04-08T06:14:26Z</time></trkpt><trkpt lat="45.92520203807227" lon="11.558760555716216"><ele>1485.0</ele><time>2026-04-08T06:14:47Z</time></trkpt><trkpt lat="45.92518884452827" lon="11.55866937375784"><ele>1485.0</ele><time>2026-04-08T06:15:01Z</time></trkpt><trkpt lat="45.92524111854117" lon="11.558606449553436"><ele>1485.0</ele><time>2026-04-08T06:15:25.999Z</time></trkpt><trkpt lat="45.92531349240889" lon="11.558584195542982"><ele>1485.0</ele><time>2026-04-08T06:15:29.999Z</time></trkpt><trkpt lat="45.92537885087553" lon="11.55858016162496"><ele>1488.3333333333333</ele><time>2026-04-08T06:15:40Z</time></trkpt><trkpt lat="45.92550844036606" lon="11.558570021032274"><ele>1491.6666666666667</ele><time>2026-04-08T06:17:00Z</time></trkpt><trkpt lat="45.92551111685601" lon="11.558676703927922"><ele>1495.0</ele><time>2026-04-08T06:17:53Z</time></trkpt><trkpt lat="45.92550419049771" lon="11.558582101796933"><ele>1498.3333333333335</ele><time>2026-04-08T06:18:16Z</time></trkpt><trkpt lat="45.92543890248471" lon="11.558537869831262"><ele>1501.6666666666667</ele><time>2026-04-08T06:18:36Z</time></trkpt><trkpt lat="45.9255134736929" lon="11.558588354359477"><ele>1505.0</ele><time>2026-04-08T06:19:14.999Z</time></trkpt><trkpt lat="45.925449617098984" lon="11.558552835932343"><ele>1505.0</ele><time>2026-04-08T06:19:43.999Z</time></trkpt><trkpt lat="45.92551342734501" lon="11.558613160172067"><ele>1505.0</ele><time>2026-04-08T06:21:34.999Z</time></trkpt><trkpt lat="45.92556268323019" lon="11.558683723993031"><ele>1505.0</ele><time>2026-04-08T06:22:32.999Z</time></trkpt><trkpt lat="45.92559610395211" lon="11.558769914543719"><ele>1505.0</ele><time>2026-04-08T06:24:03Z</time></trkpt><trkpt lat="45.92565958081854" lon="11.558757117333384"><ele>1505.0</ele><time>2026-04-08T06:24:42Z</time></trkpt><trkpt lat="45.92572469202198" lon="11.55882312190908"><ele>1505.0</ele><time>2026-04-08T06:25:08.999Z</time></trkpt><trkpt lat="45.92565508502972" lon="11.558800181414302"><ele>1505.0</ele><time>2026-04-08T06:26:07.999Z</time></trkpt><trkpt lat="45.92559185458194" lon="11.558751062320962"><ele>1505.0</ele><time>2026-04-08T06:26:13.999Z</time></trkpt><trkpt lat="45.925551469221894" lon="11.558672551853551"><ele>1505.0</ele><time>2026-04-08T06:26:19.999Z</time></trkpt><trkpt lat="45.92551845242565" lon="11.558587202439035"><ele>1505.0</ele><time>2026-04-08T06:26:24.999Z</time></trkpt><trkpt lat="45.92554718738222" lon="11.558679074052483"><ele>1505.0</ele><time>2026-04-08T06:26:41.999Z</time></trkpt><trkpt lat="45.925587970696654" lon="11.558760793410972"><ele>1505.0</ele><time>2026-04-08T06:26:47.999Z</time></trkpt><trkpt lat="45.92564630570789" lon="11.558803328804727"><ele>1505.0</ele><time>2026-04-08T06:26:53.999Z</time></trkpt><trkpt lat="45.92571498367444" lon="11.55883237616862"><ele>1505.0</ele><time>2026-04-08T06:26:59.999Z</time></trkpt><trkpt lat="45.9257867360622" lon="11.558826948262297"><ele>1503.142857142857</ele><time>2026-04-08T06:27:10.999Z</time></trkpt><trkpt lat="45.92584867485043" lon="11.558880510234605"><ele>1501.2857142857142</ele><time>2026-04-08T06:29:19.999Z</time></trkpt><trkpt lat="45.92581346096185" lon="11.558801173078697"><ele>1499.4285714285716</ele><time>2026-04-08T06:30:01.998Z</time></trkpt><trkpt lat="45.92576305997829" lon="11.558719065921663"><ele>1497.5714285714284</ele><time>2026-04-08T06:30:43.999Z</time></trkpt><trkpt lat="45.92580638924972" lon="11.558791991658815"><ele>1495.7142857142858</ele><time>2026-04-08T06:34:07.998Z</time></trkpt><trkpt lat="45.92586875888493" lon="11.558822419675229"><ele>1493.857142857143</ele><time>2026-04-08T06:34:12.998Z</time></trkpt><trkpt lat="45.92592869647528" lon="11.55885417618137"><ele>1492.0</ele><time>2026-04-08T06:34:20.998Z</time></trkpt><trkpt lat="45.92585916078681" lon="11.558812496719021"><ele>1491.0</ele><time>2026-04-08T06:34:41Z</time></trkpt><trkpt lat="45.92579354016446" lon="11.558802509429995"><ele>1490.0</ele><time>2026-04-08T06:34:47Z</time></trkpt><trkpt lat="45.92572415930624" lon="11.558790111089483"><ele>1489.0</ele><time>2026-04-08T06:34:54Z</time></trkpt><trkpt lat="45.92565817053201" lon="11.558772483704143"><ele>1488.0</ele><time>2026-04-08T06:35:02Z</time></trkpt><trkpt lat="45.92560492757046" lon="11.558694130892171"><ele>1487.0</ele><time>2026-04-08T06:35:11Z</time></trkpt><trkpt lat="45.92555390700374" lon="11.55864073632047"><ele>1486.0</ele><time>2026-04-08T06:35:19.999Z</time></trkpt><trkpt lat="45.92551887197438" lon="11.558561234283882"><ele>1485.0</ele><time>2026-04-08T06:35:26.999Z</time></trkpt><trkpt lat="45.92550446896978" lon="11.55846928327962"><ele>1487.857142857143</ele><time>2026-04-08T06:35:33.999Z</time></trkpt><trkpt lat="45.92548457569801" lon="11.558366095376323"><ele>1490.7142857142858</ele><time>2026-04-08T06:35:41.999Z</time></trkpt><trkpt lat="45.925432247116575" lon="11.558292704145266"><ele>1493.5714285714284</ele><time>2026-04-08T06:35:51.999Z</time></trkpt><trkpt lat="45.92537312483399" lon="11.558244551067094"><ele>1496.4285714285716</ele><time>2026-04-08T06:36:01.999Z</time></trkpt><trkpt lat="45.92534641526242" lon="11.558150141953595"><ele>1499.2857142857142</ele><time>2026-04-08T06:36:48Z</time></trkpt><trkpt lat="45.925397676586876" lon="11.558088869271295"><ele>1502.142857142857</ele><time>2026-04-08T06:36:59.999Z</time></trkpt><trkpt lat="45.92535240278686" lon="11.558023457503655"><ele>1505.0</ele><time>2026-04-08T06:37:34.998Z</time></trkpt><trkpt lat="45.925264805622675" lon="11.55803348879739"><ele>1505.0</ele><time>2026-04-08T06:42:14.998Z</time></trkpt><trkpt lat="45.92521318055625" lon="11.558108768568763"><ele>1505.0</ele><time>2026-04-08T06:42:25.998Z</time></trkpt><trkpt lat="45.92514706985899" lon="11.558162755024956"><ele>1505.0</ele><time>2026-04-08T06:42:34.998Z</time></trkpt><trkpt lat="45.92514190733202" lon="11.558263864806865"><ele>1505.0</ele><time>2026-04-08T06:42:39.997Z</time></trkpt><trkpt lat="45.925145594611024" lon="11.558370899768857"><ele>1505.0</ele><time>2026-04-08T06:42:45.997Z</time></trkpt><trkpt lat="45.92516896771271" lon="11.558511948186005"><ele>1505.0</ele><time>2026-04-08T06:42:53.999Z</time></trkpt><trkpt lat="45.9251767884896" lon="11.558607987446322"><ele>1502.142857142857</ele><time>2026-04-08T06:43:00.998Z</time></trkpt><trkpt lat="45.925185310613266" lon="11.55870375438862"><ele>1499.2857142857142</ele><time>2026-04-08T06:43:07.998Z</time></trkpt><trkpt lat="45.92520522121142" lon="11.558807713677197"><ele>1496.4285714285716</ele><time>2026-04-08T06:43:12.998Z</time></trkpt><trkpt lat="45.925221581146495" lon="11.55890488957999"><ele>1493.5714285714284</ele><time>2026-04-08T06:43:17.998Z</time></trkpt><trkpt lat="45.925233589693086" lon="11.559006405776373"><ele>1490.7142857142858</ele><time>2026-04-08T06:43:22.998Z</time></trkpt><trkpt lat="45.925248482020244" lon="11.559102961136068"><ele>1487.857142857143</ele><time>2026-04-08T06:43:27.998Z</time></trkpt><trkpt lat="45.92525024967548" lon="11.55919948243675"><ele>1485.0</ele><time>2026-04-08T06:43:32.998Z</time></trkpt><trkpt lat="45.925225767877784" lon="11.559298202795924"><ele>1485.0</ele><time>2026-04-08T06:43:37.998Z</time></trkpt><trkpt lat="45.92516140664861" lon="11.559360521211259"><ele>1485.0</ele><time>2026-04-08T06:43:43.998Z</time></trkpt><trkpt lat="45.92510031365319" lon="11.559384893598175"><ele>1485.0</ele><time>2026-04-08T06:43:47.997Z</time></trkpt><trkpt lat="45.92502901220236" lon="11.559404578668648"><ele>1485.0</ele><time>2026-04-08T06:43:52.997Z</time></trkpt><trkpt lat="45.924957482488445" lon="11.559423241220994"><ele>1485.0</ele><time>2026-04-08T06:43:57.997Z</time></trkpt><trkpt lat="45.92488514813695" lon="11.559437861097559"><ele>1485.0</ele><time>2026-04-08T06:44:02.997Z</time></trkpt><trkpt lat="45.9248196839823" lon="11.559449449473448"><ele>1485.0</ele><time>2026-04-08T06:44:06.997Z</time></trkpt><trkpt lat="45.92474454689305" lon="11.559467242603647"><ele>1483.7142857142858</ele><time>2026-04-08T06:44:11.997Z</time></trkpt><trkpt lat="45.924675755515054" lon="11.559489520876458"><ele>1482.4285714285716</ele><time>2026-04-08T06:44:16.997Z</time></trkpt><trkpt lat="45.92461596820309" lon="11.559535898828582"><ele>1481.142857142857</ele><time>2026-04-08T06:44:21.997Z</time></trkpt><trkpt lat="45.92456891577432" lon="11.559607718459633"><ele>1479.857142857143</ele><time>2026-04-08T06:44:26.997Z</time></trkpt><trkpt lat="45.92453486881873" lon="11.559693355599196"><ele>1478.5714285714284</ele><time>2026-04-08T06:44:31.997Z</time></trkpt><trkpt lat="45.92451546756736" lon="11.55978420380768"><ele>1477.2857142857142</ele><time>2026-04-08T06:44:36.997Z</time></trkpt><trkpt lat="45.92451000259816" lon="11.559879511172932"><ele>1476.0</ele><time>2026-04-08T06:44:41.997Z</time></trkpt><trkpt lat="45.924517279181465" lon="11.559982738504297"><ele>1474.4285714285713</ele><time>2026-04-08T06:44:46.997Z</time></trkpt><trkpt lat="45.92452302405251" lon="11.560087947081348"><ele>1472.8571428571427</ele><time>2026-04-08T06:44:51.996Z</time></trkpt><trkpt lat="45.92452669743778" lon="11.56018336180512"><ele>1471.2857142857142</ele><time>2026-04-08T06:44:57.997Z</time></trkpt><trkpt lat="45.92451753647935" lon="11.56028320399543"><ele>1469.7142857142858</ele><time>2026-04-08T06:45:03.996Z</time></trkpt><trkpt lat="45.92451640637596" lon="11.560387657693918"><ele>1468.142857142857</ele><time>2026-04-08T06:45:08.996Z</time></trkpt><trkpt lat="45.92451581506366" lon="11.560481526720258"><ele>1466.5714285714287</ele><time>2026-04-08T06:45:13.995Z</time></trkpt><trkpt lat="45.92445629728039" lon="11.56055070485988"><ele>1465.0</ele><time>2026-04-08T06:45:40.995Z</time></trkpt><trkpt lat="45.92438312180012" lon="11.560602736937332"><ele>1465.0</ele><time>2026-04-08T06:45:42.995Z</time></trkpt><trkpt lat="45.92426880184073" lon="11.560595976216018"><ele>1465.0</ele><time>2026-04-08T06:45:44.995Z</time></trkpt><trkpt lat="45.92420906763385" lon="11.560566972426807"><ele>1465.0</ele><time>2026-04-08T06:45:45.995Z</time></trkpt><trkpt lat="45.924103758055615" lon="11.560511657080665"><ele>1465.0</ele><time>2026-04-08T06:45:46.995Z</time></trkpt><trkpt lat="45.924027725995025" lon="11.560473846907358"><ele>1465.0</ele><time>2026-04-08T06:45:47.995Z</time></trkpt><trkpt lat="45.923950600454084" lon="11.560445452558156"><ele>1465.4</ele><time>2026-04-08T06:45:48.995Z</time></trkpt><trkpt lat="45.92385806963289" lon="11.560435141227476"><ele>1465.8</ele><time>2026-04-08T06:45:49.995Z</time></trkpt><trkpt lat="45.92376668230877" lon="11.560457818517879"><ele>1466.1999999999998</ele><time>2026-04-08T06:45:50.995Z</time></trkpt><trkpt lat="45.92365998361339" lon="11.56049230997875"><ele>1466.6</ele><time>2026-04-08T06:45:51.995Z</time></trkpt><trkpt lat="45.923554871953876" lon="11.560546495362049"><ele>1467.0</ele><time>2026-04-08T06:45:52.995Z</time></trkpt><trkpt lat="45.92343999673764" lon="11.5606030729204"><ele>1466.25</ele><time>2026-04-08T06:45:53.995Z</time></trkpt><trkpt lat="45.9233251378091" lon="11.560653100179518"><ele>1465.5</ele><time>2026-04-08T06:45:54.995Z</time></trkpt><trkpt lat="45.923206192596844" lon="11.560701364183654"><ele>1464.75</ele><time>2026-04-08T06:45:55.995Z</time></trkpt><trkpt lat="45.92308420905478" lon="11.560752468529252"><ele>1464.0</ele><time>2026-04-08T06:45:56.995Z</time></trkpt><trkpt lat="45.9229535407368" lon="11.560792864256854"><ele>1464.0</ele><time>2026-04-08T06:45:57.995Z</time></trkpt><trkpt lat="45.92283559400961" lon="11.560858204518091"><ele>1464.0</ele><time>2026-04-08T06:45:58.995Z</time></trkpt><trkpt lat="45.92271961621129" lon="11.560929061691983"><ele>1464.0</ele><time>2026-04-08T06:45:59.995Z</time></trkpt><trkpt lat="45.922607638370046" lon="11.560982289600823"><ele>1464.0</ele><time>2026-04-08T06:46:00.995Z</time></trkpt><trkpt lat="45.92249579869187" lon="11.561015361693897"><ele>1462.4</ele><time>2026-04-08T06:46:01.995Z</time></trkpt><trkpt lat="45.922382343563655" lon="11.561011104861446"><ele>1460.8000000000002</ele><time>2026-04-08T06:46:02.994Z</time></trkpt><trkpt lat="45.922271962837016" lon="11.560966669806804"><ele>1459.1999999999998</ele><time>2026-04-08T06:46:03.994Z</time></trkpt><trkpt lat="45.92217683429513" lon="11.56090653572251"><ele>1457.6</ele><time>2026-04-08T06:46:04.994Z</time></trkpt><trkpt lat="45.92207979602322" lon="11.56085782033634"><ele>1456.0</ele><time>2026-04-08T06:46:05.994Z</time></trkpt><trkpt lat="45.92197645104921" lon="11.560844455778355"><ele>1456.0</ele><time>2026-04-08T06:46:06.994Z</time></trkpt><trkpt lat="45.92187193786538" lon="11.560852479713835"><ele>1456.0</ele><time>2026-04-08T06:46:07.994Z</time></trkpt><trkpt lat="45.9217652465492" lon="11.56087241638416"><ele>1456.0</ele><time>2026-04-08T06:46:08.994Z</time></trkpt><trkpt lat="45.92165301919055" lon="11.56089851783991"><ele>1456.0</ele><time>2026-04-08T06:46:09.994Z</time></trkpt><trkpt lat="45.92153957151215" lon="11.560929931696606"><ele>1456.0</ele><time>2026-04-08T06:46:10.994Z</time></trkpt><trkpt lat="45.92142015555206" lon="11.560958764729094"><ele>1453.75</ele><time>2026-04-08T06:46:11.994Z</time></trkpt><trkpt lat="45.92129583595692" lon="11.560982289316149"><ele>1451.5</ele><time>2026-04-08T06:46:12.994Z</time></trkpt><trkpt lat="45.92117116122281" lon="11.561007412116965"><ele>1449.25</ele><time>2026-04-08T06:46:13.994Z</time></trkpt><trkpt lat="45.92104411552368" lon="11.561036426709268"><ele>1447.0</ele><time>2026-04-08T06:46:14.994Z</time></trkpt><trkpt lat="45.92091883162612" lon="11.56105103920973"><ele>1445.75</ele><time>2026-04-08T06:46:15.994Z</time></trkpt><trkpt lat="45.920792061433836" lon="11.561047633440943"><ele>1444.5</ele><time>2026-04-08T06:46:16.994Z</time></trkpt><trkpt lat="45.92065831412177" lon="11.561029047911331"><ele>1443.25</ele><time>2026-04-08T06:46:17.994Z</time></trkpt><trkpt lat="45.92052348736644" lon="11.560994975466006"><ele>1442.0</ele><time>2026-04-08T06:46:18.994Z</time></trkpt><trkpt lat="45.920386812372556" lon="11.560975536617576"><ele>1442.0</ele><time>2026-04-08T06:46:19.994Z</time></trkpt><trkpt lat="45.92024835158342" lon="11.560986595956857"><ele>1442.0</ele><time>2026-04-08T06:46:20.994Z</time></trkpt><trkpt lat="45.920118220079985" lon="11.56101613231082"><ele>1442.0</ele><time>2026-04-08T06:46:21.994Z</time></trkpt><trkpt lat="45.91998437148813" lon="11.561067570568007"><ele>1442.0</ele><time>2026-04-08T06:46:22.994Z</time></trkpt><trkpt lat="45.9198575280061" lon="11.561126054881761"><ele>1441.5</ele><time>2026-04-08T06:46:23.994Z</time></trkpt><trkpt lat="45.91972767927946" lon="11.561187443208112"><ele>1441.0</ele><time>2026-04-08T06:46:24.994Z</time></trkpt><trkpt lat="45.91959681766717" lon="11.561249103071788"><ele>1440.5</ele><time>2026-04-08T06:46:25.994Z</time></trkpt><trkpt lat="45.919462345991406" lon="11.561314129861477"><ele>1440.0</ele><time>2026-04-08T06:46:26.994Z</time></trkpt><trkpt lat="45.91932936400105" lon="11.561382163114189"><ele>1437.0</ele><time>2026-04-08T06:46:27.994Z</time></trkpt><trkpt lat="45.91919022559644" lon="11.561442777102108"><ele>1434.0</ele><time>2026-04-08T06:46:28.994Z</time></trkpt><trkpt lat="45.919059295017696" lon="11.561501962236784"><ele>1431.0</ele><time>2026-04-08T06:46:29.994Z</time></trkpt><trkpt lat="45.91892759828541" lon="11.561561037633385"><ele>1428.0</ele><time>2026-04-08T06:46:30.994Z</time></trkpt><trkpt lat="45.918797378684104" lon="11.56161607259991"><ele>1428.0</ele><time>2026-04-08T06:46:31.994Z</time></trkpt><trkpt lat="45.9186721956843" lon="11.561676005423372"><ele>1428.0</ele><time>2026-04-08T06:46:32.994Z</time></trkpt><trkpt lat="45.91853895706579" lon="11.561740408240547"><ele>1428.0</ele><time>2026-04-08T06:46:33.994Z</time></trkpt><trkpt lat="45.91842553694672" lon="11.561811508877337"><ele>1428.0</ele><time>2026-04-08T06:46:34.994Z</time></trkpt><trkpt lat="45.9183209606912" lon="11.56190297760397"><ele>1427.75</ele><time>2026-04-08T06:46:35.994Z</time></trkpt><trkpt lat="45.918213941721966" lon="11.562018525951025"><ele>1427.5</ele><time>2026-04-08T06:46:36.994Z</time></trkpt><trkpt lat="45.918117198444975" lon="11.562156241084198"><ele>1427.25</ele><time>2026-04-08T06:46:37.994Z</time></trkpt><trkpt lat="45.91802716197125" lon="11.56230525235841"><ele>1427.0</ele><time>2026-04-08T06:46:38.994Z</time></trkpt><trkpt lat="45.91795159254909" lon="11.562467470247954"><ele>1427.0</ele><time>2026-04-08T06:46:39.994Z</time></trkpt><trkpt lat="45.917888669678646" lon="11.56264277391447"><ele>1427.0</ele><time>2026-04-08T06:46:40.994Z</time></trkpt><trkpt lat="45.91784611944228" lon="11.562822985543141"><ele>1427.0</ele><time>2026-04-08T06:46:41.994Z</time></trkpt><trkpt lat="45.91782776753397" lon="11.563003579028981"><ele>1427.0</ele><time>2026-04-08T06:46:42.994Z</time></trkpt><trkpt lat="45.917816711958125" lon="11.563180918337347"><ele>1427.75</ele><time>2026-04-08T06:46:43.994Z</time></trkpt><trkpt lat="45.91779887208926" lon="11.563365436064668"><ele>1428.5</ele><time>2026-04-08T06:46:44.994Z</time></trkpt><trkpt lat="45.917750899298994" lon="11.563540525671884"><ele>1429.25</ele><time>2026-04-08T06:46:45.994Z</time></trkpt><trkpt lat="45.91771468721656" lon="11.563716154256182"><ele>1430.0</ele><time>2026-04-08T06:46:46.994Z</time></trkpt><trkpt lat="45.91766318637001" lon="11.563884602296675"><ele>1429.0</ele><time>2026-04-08T06:46:47.994Z</time></trkpt><trkpt lat="45.91760009255135" lon="11.564039954342874"><ele>1428.0</ele><time>2026-04-08T06:46:48.994Z</time></trkpt><trkpt lat="45.9175216188524" lon="11.564180304651991"><ele>1427.0</ele><time>2026-04-08T06:46:49.994Z</time></trkpt><trkpt lat="45.91744232324981" lon="11.564316677582394"><ele>1426.0</ele><time>2026-04-08T06:46:50.994Z</time></trkpt><trkpt lat="45.917356662002724" lon="11.564449251925872"><ele>1425.75</ele><time>2026-04-08T06:46:51.994Z</time></trkpt><trkpt lat="45.91726858482985" lon="11.56458705434764"><ele>1425.5</ele><time>2026-04-08T06:46:52.994Z</time></trkpt><trkpt lat="45.9171780663399" lon="11.56472370620746"><ele>1425.25</ele><time>2026-04-08T06:46:53.994Z</time></trkpt><trkpt lat="45.917080776004454" lon="11.564853074999224"><ele>1425.0</ele><time>2026-04-08T06:46:54.994Z</time></trkpt><trkpt lat="45.916974259263945" lon="11.56497104988916"><ele>1425.0</ele><time>2026-04-08T06:46:55.994Z</time></trkpt><trkpt lat="45.91686285067095" lon="11.56508358439181"><ele>1425.0</ele><time>2026-04-08T06:46:56.994Z</time></trkpt><trkpt lat="45.91674898140039" lon="11.565196237864416"><ele>1425.0</ele><time>2026-04-08T06:46:57.994Z</time></trkpt><trkpt lat="45.916635076744214" lon="11.56531390553147"><ele>1425.0</ele><time>2026-04-08T06:46:58.994Z</time></trkpt><trkpt lat="45.91652582943411" lon="11.565429566546179"><ele>1421.75</ele><time>2026-04-08T06:46:59.995Z</time></trkpt><trkpt lat="45.91641447760378" lon="11.565546704956368"><ele>1418.5</ele><time>2026-04-08T06:47:00.995Z</time></trkpt><trkpt lat="45.916303193102124" lon="11.565662431889562"><ele>1415.25</ele><time>2026-04-08T06:47:01.995Z</time></trkpt><trkpt lat="45.91619354891934" lon="11.565781616157969"><ele>1412.0</ele><time>2026-04-08T06:47:02.995Z</time></trkpt><trkpt lat="45.91608455000576" lon="11.56589760168057"><ele>1412.0</ele><time>2026-04-08T06:47:03.995Z</time></trkpt><trkpt lat="45.915970735051204" lon="11.566003834335191"><ele>1412.0</ele><time>2026-04-08T06:47:04.995Z</time></trkpt><trkpt lat="45.91586268539935" lon="11.566105495095046"><ele>1412.0</ele><time>2026-04-08T06:47:05.996Z</time></trkpt><trkpt lat="45.91575906030606" lon="11.566197148276633"><ele>1412.0</ele><time>2026-04-08T06:47:06.995Z</time></trkpt><trkpt lat="45.91565059612788" lon="11.566285096976854"><ele>1412.5</ele><time>2026-04-08T06:47:07.995Z</time></trkpt><trkpt lat="45.91553918968447" lon="11.56637394146771"><ele>1413.0</ele><time>2026-04-08T06:47:08.995Z</time></trkpt><trkpt lat="45.915432057690445" lon="11.566458698543823"><ele>1413.5</ele><time>2026-04-08T06:47:09.995Z</time></trkpt><trkpt lat="45.915324865044056" lon="11.566538949415017"><ele>1414.0</ele><time>2026-04-08T06:47:10.995Z</time></trkpt><trkpt lat="45.9152133534925" lon="11.566610349900134"><ele>1414.0</ele><time>2026-04-08T06:47:11.995Z</time></trkpt><trkpt lat="45.91508751969577" lon="11.566674494893462"><ele>1414.0</ele><time>2026-04-08T06:47:12.995Z</time></trkpt><trkpt lat="45.91495729547762" lon="11.566742932910254"><ele>1414.0</ele><time>2026-04-08T06:47:13.995Z</time></trkpt><trkpt lat="45.91482518094929" lon="11.56680585614801"><ele>1414.0</ele><time>2026-04-08T06:47:14.995Z</time></trkpt><trkpt lat="45.914688666289344" lon="11.566869965517645"><ele>1412.3333333333333</ele><time>2026-04-08T06:47:15.995Z</time></trkpt><trkpt lat="45.91454418335105" lon="11.56693508846425"><ele>1410.6666666666667</ele><time>2026-04-08T06:47:16.995Z</time></trkpt><trkpt lat="45.91439391844742" lon="11.567005610042042"><ele>1409.0</ele><time>2026-04-08T06:47:17.995Z</time></trkpt><trkpt lat="45.91424622065095" lon="11.567079927408813"><ele>1407.0</ele><time>2026-04-08T06:47:18.995Z</time></trkpt><trkpt lat="45.91409230158588" lon="11.56715668570918"><ele>1405.0</ele><time>2026-04-08T06:47:19.995Z</time></trkpt><trkpt lat="45.913931697738455" lon="11.567235205491956"><ele>1403.0</ele><time>2026-04-08T06:47:20.995Z</time></trkpt><trkpt lat="45.91377455424333" lon="11.567308771115774"><ele>1403.0</ele><time>2026-04-08T06:47:21.995Z</time></trkpt><trkpt lat="45.913619621243015" lon="11.56739604739337"><ele>1403.0</ele><time>2026-04-08T06:47:22.995Z</time></trkpt><trkpt lat="45.91346168050764" lon="11.567437382856554"><ele>1403.0</ele><time>2026-04-08T06:47:23.995Z</time></trkpt><trkpt lat="45.91331786677501" lon="11.56747734126646"><ele>1400.75</ele><time>2026-04-08T06:47:24.995Z</time></trkpt><trkpt lat="45.91317666500489" lon="11.56750798845164"><ele>1398.5</ele><time>2026-04-08T06:47:25.995Z</time></trkpt><trkpt lat="45.913044583810475" lon="11.567546717140525"><ele>1396.25</ele><time>2026-04-08T06:47:26.995Z</time></trkpt><trkpt lat="45.91291247492252" lon="11.567600552395145"><ele>1394.0</ele><time>2026-04-08T06:47:27.995Z</time></trkpt><trkpt lat="45.91279947397795" lon="11.567687393521567"><ele>1394.0</ele><time>2026-04-08T06:47:28.995Z</time></trkpt><trkpt lat="45.91269296219405" lon="11.567756244394907"><ele>1394.0</ele><time>2026-04-08T06:47:29.995Z</time></trkpt><trkpt lat="45.91258318083068" lon="11.567827642271906"><ele>1394.0</ele><time>2026-04-08T06:47:30.995Z</time></trkpt><trkpt lat="45.91246607735912" lon="11.567854275702112"><ele>1394.0</ele><time>2026-04-08T06:47:31.995Z</time></trkpt><trkpt lat="45.912360248839484" lon="11.567881940478555"><ele>1393.6</ele><time>2026-04-08T06:47:32.995Z</time></trkpt><trkpt lat="45.91225067870259" lon="11.567892359887763"><ele>1393.2</ele><time>2026-04-08T06:47:33.995Z</time></trkpt><trkpt lat="45.91214585844743" lon="11.567878730768435"><ele>1392.8</ele><time>2026-04-08T06:47:34.995Z</time></trkpt><trkpt lat="45.912034612867124" lon="11.567837741625077"><ele>1392.3999999999999</ele><time>2026-04-08T06:47:35.995Z</time></trkpt><trkpt lat="45.91192564031687" lon="11.56777487834759"><ele>1392.0</ele><time>2026-04-08T06:47:36.995Z</time></trkpt><trkpt lat="45.91180138562076" lon="11.567734997536828"><ele>1390.0</ele><time>2026-04-08T06:47:37.995Z</time></trkpt><trkpt lat="45.91168483054124" lon="11.567680627019783"><ele>1388.0</ele><time>2026-04-08T06:47:38.995Z</time></trkpt><trkpt lat="45.911562322797764" lon="11.567651595998969"><ele>1386.0</ele><time>2026-04-08T06:47:39.995Z</time></trkpt><trkpt lat="45.911432461466475" lon="11.567681483727334"><ele>1384.0</ele><time>2026-04-08T06:47:40.995Z</time></trkpt><trkpt lat="45.91128560643239" lon="11.567712218145743"><ele>1384.0</ele><time>2026-04-08T06:47:41.995Z</time></trkpt><trkpt lat="45.911146302810224" lon="11.567744974851056"><ele>1384.0</ele><time>2026-04-08T06:47:42.995Z</time></trkpt><trkpt lat="45.91101152429297" lon="11.56778527233587"><ele>1384.0</ele><time>2026-04-08T06:47:43.995Z</time></trkpt><trkpt lat="45.91087574355862" lon="11.567860497283485"><ele>1384.0</ele><time>2026-04-08T06:47:44.995Z</time></trkpt><trkpt lat="45.910745331416386" lon="11.567934617930995"><ele>1376.25</ele><time>2026-04-08T06:47:45.995Z</time></trkpt><trkpt lat="45.910606842984876" lon="11.567949378279167"><ele>1368.5</ele><time>2026-04-08T06:47:46.995Z</time></trkpt><trkpt lat="45.91047154785756" lon="11.567975167944391"><ele>1360.75</ele><time>2026-04-08T06:47:47.995Z</time></trkpt><trkpt lat="45.91032571667837" lon="11.56800572534772"><ele>1353.0</ele><time>2026-04-08T06:47:48.995Z</time></trkpt><trkpt lat="45.910176975074805" lon="11.568073678808826"><ele>1350.75</ele><time>2026-04-08T06:47:49.995Z</time></trkpt><trkpt lat="45.91004232345754" lon="11.568115364998734"><ele>1348.5</ele><time>2026-04-08T06:47:50.995Z</time></trkpt><trkpt lat="45.909905373751734" lon="11.56816975284916"><ele>1346.25</ele><time>2026-04-08T06:47:51.995Z</time></trkpt><trkpt lat="45.90975863351206" lon="11.568204581218486"><ele>1344.0</ele><time>2026-04-08T06:47:52.995Z</time></trkpt><trkpt lat="45.90961370434409" lon="11.568217619944896"><ele>1344.0</ele><time>2026-04-08T06:47:53.995Z</time></trkpt><trkpt lat="45.909465224807235" lon="11.568224561559804"><ele>1344.0</ele><time>2026-04-08T06:47:54.995Z</time></trkpt><trkpt lat="45.90930985287337" lon="11.568245360402589"><ele>1344.0</ele><time>2026-04-08T06:47:55.995Z</time></trkpt><trkpt lat="45.909162299085004" lon="11.568249560428466"><ele>1342.3333333333333</ele><time>2026-04-08T06:47:56.995Z</time></trkpt><trkpt lat="45.90900670929186" lon="11.568271160861352"><ele>1340.6666666666665</ele><time>2026-04-08T06:47:57.995Z</time></trkpt><trkpt lat="45.908851912274564" lon="11.56829973879259"><ele>1339.0</ele><time>2026-04-08T06:47:58.994Z</time></trkpt><trkpt lat="45.9087015798242" lon="11.568320986926313"><ele>1339.0</ele><time>2026-04-08T06:47:59.994Z</time></trkpt><trkpt lat="45.90854949843873" lon="11.568351122742035"><ele>1339.0</ele><time>2026-04-08T06:48:00.994Z</time></trkpt><trkpt lat="45.90840184767329" lon="11.56836935811137"><ele>1339.0</ele><time>2026-04-08T06:48:01.994Z</time></trkpt><trkpt lat="45.908243056364135" lon="11.568365476386294"><ele>1334.6666666666665</ele><time>2026-04-08T06:48:02.994Z</time></trkpt><trkpt lat="45.90808184497815" lon="11.568379427748624"><ele>1330.3333333333333</ele><time>2026-04-08T06:48:03.994Z</time></trkpt><trkpt lat="45.90792063976214" lon="11.568414930785988"><ele>1326.0</ele><time>2026-04-08T06:48:04.994Z</time></trkpt><trkpt lat="45.907765444751185" lon="11.568398076772597"><ele>1326.0</ele><time>2026-04-08T06:48:05.994Z</time></trkpt><trkpt lat="45.90762850817329" lon="11.568401260670472"><ele>1326.0</ele><time>2026-04-08T06:48:06.994Z</time></trkpt><trkpt lat="45.90748462359923" lon="11.56838123296972"><ele>1326.0</ele><time>2026-04-08T06:48:07.994Z</time></trkpt><trkpt lat="45.90734374409354" lon="11.568334265878901"><ele>1326.0</ele><time>2026-04-08T06:48:08.994Z</time></trkpt><trkpt lat="45.90720006706386" lon="11.568286589173672"><ele>1322.25</ele><time>2026-04-08T06:48:09.994Z</time></trkpt><trkpt lat="45.907058649966785" lon="11.568216887801592"><ele>1318.5</ele><time>2026-04-08T06:48:10.994Z</time></trkpt><trkpt lat="45.90692141136248" lon="11.56814114039687"><ele>1314.75</ele><time>2026-04-08T06:48:11.994Z</time></trkpt><trkpt lat="45.906784479181894" lon="11.568069309429909"><ele>1311.0</ele><time>2026-04-08T06:48:12.994Z</time></trkpt><trkpt lat="45.90665151278794" lon="11.567983559181013"><ele>1313.0</ele><time>2026-04-08T06:48:13.994Z</time></trkpt><trkpt lat="45.90651603169749" lon="11.567885332725547"><ele>1315.0</ele><time>2026-04-08T06:48:14.994Z</time></trkpt><trkpt lat="45.9063783601604" lon="11.567784281195838"><ele>1317.0</ele><time>2026-04-08T06:48:15.994Z</time></trkpt><trkpt lat="45.90624088890493" lon="11.567678924991416"><ele>1317.0</ele><time>2026-04-08T06:48:16.994Z</time></trkpt><trkpt lat="45.90610379503152" lon="11.567570150618321"><ele>1317.0</ele><time>2026-04-08T06:48:17.994Z</time></trkpt><trkpt lat="45.90596648941052" lon="11.567456312590782"><ele>1317.0</ele><time>2026-04-08T06:48:18.994Z</time></trkpt><trkpt lat="45.9058246546093" lon="11.567335672923667"><ele>1315.0</ele><time>2026-04-08T06:48:19.994Z</time></trkpt><trkpt lat="45.905677139438765" lon="11.56720623653451"><ele>1313.0</ele><time>2026-04-08T06:48:20.994Z</time></trkpt><trkpt lat="45.90553304392609" lon="11.56707756418288"><ele>1311.0</ele><time>2026-04-08T06:48:21.994Z</time></trkpt><trkpt lat="45.90539536650939" lon="11.566950575627573"><ele>1311.0</ele><time>2026-04-08T06:48:22.994Z</time></trkpt><trkpt lat="45.90525343088426" lon="11.5668215754537"><ele>1311.0</ele><time>2026-04-08T06:48:23.994Z</time></trkpt><trkpt lat="45.9051125936426" lon="11.566698657941796"><ele>1311.0</ele><time>2026-04-08T06:48:24.994Z</time></trkpt><trkpt lat="45.90497392050849" lon="11.566583007851571"><ele>1300.0</ele><time>2026-04-08T06:48:25.994Z</time></trkpt><trkpt lat="45.9048320329748" lon="11.56646598869486"><ele>1289.0</ele><time>2026-04-08T06:48:26.994Z</time></trkpt><trkpt lat="45.904666995636674" lon="11.566354316995776"><ele>1278.0</ele><time>2026-04-08T06:48:27.994Z</time></trkpt><trkpt lat="45.904530097211456" lon="11.566250419315264"><ele>1277.0</ele><time>2026-04-08T06:48:28.994Z</time></trkpt><trkpt lat="45.90440023583696" lon="11.56614824348458"><ele>1276.0</ele><time>2026-04-08T06:48:29.994Z</time></trkpt><trkpt lat="45.90426637112762" lon="11.56604798907636"><ele>1275.0</ele><time>2026-04-08T06:48:30.994Z</time></trkpt><trkpt lat="45.90412869189581" lon="11.565971539240651"><ele>1274.0</ele><time>2026-04-08T06:48:31.994Z</time></trkpt><trkpt lat="45.90397581822036" lon="11.56590576636216"><ele>1274.0</ele><time>2026-04-08T06:48:32.994Z</time></trkpt><trkpt lat="45.90383854655462" lon="11.56584072086366"><ele>1274.0</ele><time>2026-04-08T06:48:33.994Z</time></trkpt><trkpt lat="45.903660570122994" lon="11.5657608266888"><ele>1274.0</ele><time>2026-04-08T06:48:34.994Z</time></trkpt><trkpt lat="45.90349536946044" lon="11.565683611747692"><ele>1264.6666666666667</ele><time>2026-04-08T06:48:35.994Z</time></trkpt><trkpt lat="45.90336438594819" lon="11.565578744381673"><ele>1255.3333333333333</ele><time>2026-04-08T06:48:36.994Z</time></trkpt><trkpt lat="45.90321313864696" lon="11.565481930577109"><ele>1246.0</ele><time>2026-04-08T06:48:37.994Z</time></trkpt><trkpt lat="45.90306433611113" lon="11.565394580741804"><ele>1256.3333333333333</ele><time>2026-04-08T06:48:38.994Z</time></trkpt><trkpt lat="45.90293872492059" lon="11.565268757113959"><ele>1266.6666666666667</ele><time>2026-04-08T06:48:39.994Z</time></trkpt><trkpt lat="45.902800816269085" lon="11.56515903032033"><ele>1277.0</ele><time>2026-04-08T06:48:40.994Z</time></trkpt><trkpt lat="45.90266576563354" lon="11.565050701290815"><ele>1268.5</ele><time>2026-04-08T06:48:41.994Z</time></trkpt><trkpt lat="45.902535730449046" lon="11.564958740056314"><ele>1260.0</ele><time>2026-04-08T06:48:42.994Z</time></trkpt><trkpt lat="45.90240415550325" lon="11.564890166302009"><ele>1251.5</ele><time>2026-04-08T06:48:43.994Z</time></trkpt><trkpt lat="45.90228022837015" lon="11.564815127561527"><ele>1243.0</ele><time>2026-04-08T06:48:44.994Z</time></trkpt><trkpt lat="45.902164289357316" lon="11.564734610881246"><ele>1243.0</ele><time>2026-04-08T06:48:45.994Z</time></trkpt><trkpt lat="45.90204896997305" lon="11.564647249351637"><ele>1243.0</ele><time>2026-04-08T06:48:46.994Z</time></trkpt><trkpt lat="45.90196463978709" lon="11.56452334987133"><ele>1243.0</ele><time>2026-04-08T06:48:47.994Z</time></trkpt><trkpt lat="45.901901091346936" lon="11.564395870255602"><ele>1243.0</ele><time>2026-04-08T06:48:48.994Z</time></trkpt><trkpt lat="45.9018151275678" lon="11.564237037536625"><ele>1242.25</ele><time>2026-04-08T06:48:49.994Z</time></trkpt><trkpt lat="45.901729280448116" lon="11.564078977438726"><ele>1241.5</ele><time>2026-04-08T06:48:50.994Z</time></trkpt><trkpt lat="45.90164434346988" lon="11.563923462518574"><ele>1240.75</ele><time>2026-04-08T06:48:51.994Z</time></trkpt><trkpt lat="45.901549400030795" lon="11.563791673884676"><ele>1240.0</ele><time>2026-04-08T06:48:52.994Z</time></trkpt><trkpt lat="45.901471381647326" lon="11.56365243544052"><ele>1240.0</ele><time>2026-04-08T06:48:53.994Z</time></trkpt><trkpt lat="45.90141961383926" lon="11.563512448910306"><ele>1240.0</ele><time>2026-04-08T06:48:54.994Z</time></trkpt><trkpt lat="45.90138408240611" lon="11.563374438167214"><ele>1240.0</ele><time>2026-04-08T06:48:55.994Z</time></trkpt><trkpt lat="45.90139661545816" lon="11.563228512263558"><ele>1240.0</ele><time>2026-04-08T06:48:56.994Z</time></trkpt><trkpt lat="45.90142189956509" lon="11.563071229812655"><ele>1240.0</ele><time>2026-04-08T06:48:57.994Z</time></trkpt><trkpt lat="45.901433117476614" lon="11.562905374332182"><ele>1239.75</ele><time>2026-04-08T06:48:58.994Z</time></trkpt><trkpt lat="45.90144493311548" lon="11.562723889150284"><ele>1239.5</ele><time>2026-04-08T06:48:59.994Z</time></trkpt><trkpt lat="45.90143858363213" lon="11.562534781306612"><ele>1239.25</ele><time>2026-04-08T06:49:00.994Z</time></trkpt><trkpt lat="45.90142511474373" lon="11.562365665362783"><ele>1239.0</ele><time>2026-04-08T06:49:01.994Z</time></trkpt><trkpt lat="45.90141258858641" lon="11.562199490731507"><ele>1239.0</ele><time>2026-04-08T06:49:02.994Z</time></trkpt><trkpt lat="45.90140157914272" lon="11.562059001737952"><ele>1239.0</ele><time>2026-04-08T06:49:03.994Z</time></trkpt><trkpt lat="45.90138678290056" lon="11.561943803084866"><ele>1239.0</ele><time>2026-04-08T06:49:04.994Z</time></trkpt><trkpt lat="45.901324737342144" lon="11.561831125494434"><ele>1239.0</ele><time>2026-04-08T06:49:05.995Z</time></trkpt><trkpt lat="45.90123964143873" lon="11.561753533019942"><ele>1239.0</ele><time>2026-04-08T06:49:06.995Z</time></trkpt><trkpt lat="45.90113898254208" lon="11.561685553871778"><ele>1239.0</ele><time>2026-04-08T06:49:07.994Z</time></trkpt><trkpt lat="45.901054476191376" lon="11.561584770920113"><ele>1239.0</ele><time>2026-04-08T06:49:08.995Z</time></trkpt><trkpt lat="45.90099178544896" lon="11.561471685886024"><ele>1239.0</ele><time>2026-04-08T06:49:09.995Z</time></trkpt><trkpt lat="45.90093316779144" lon="11.561336204726652"><ele>1239.0</ele><time>2026-04-08T06:49:10.995Z</time></trkpt><trkpt lat="45.90087023282142" lon="11.561173498008634"><ele>1234.8</ele><time>2026-04-08T06:49:11.995Z</time></trkpt><trkpt lat="45.9007961802033" lon="11.56103808080183"><ele>1230.6000000000001</ele><time>2026-04-08T06:49:12.995Z</time></trkpt><trkpt lat="45.90073675465245" lon="11.560898254416765"><ele>1226.4</ele><time>2026-04-08T06:49:13.995Z</time></trkpt><trkpt lat="45.900696569446396" lon="11.560762648862035"><ele>1222.2</ele><time>2026-04-08T06:49:14.995Z</time></trkpt><trkpt lat="45.90067313584916" lon="11.560632640686604"><ele>1218.0</ele><time>2026-04-08T06:49:15.995Z</time></trkpt><trkpt lat="45.90066072071954" lon="11.560506864022889"><ele>1218.0</ele><time>2026-04-08T06:49:16.995Z</time></trkpt><trkpt lat="45.900649865436336" lon="11.560410443562189"><ele>1218.0</ele><time>2026-04-08T06:49:17.995Z</time></trkpt><trkpt lat="45.900601060064176" lon="11.56033215501376"><ele>1218.0</ele><time>2026-04-08T06:49:18.995Z</time></trkpt><trkpt lat="45.90053228644228" lon="11.560267909058064"><ele>1218.0</ele><time>2026-04-08T06:49:19.995Z</time></trkpt><trkpt lat="45.90043688012589" lon="11.560298811420061"><ele>1218.0</ele><time>2026-04-08T06:49:20.995Z</time></trkpt><trkpt lat="45.90036229669072" lon="11.560417795558319"><ele>1218.0</ele><time>2026-04-08T06:49:21.995Z</time></trkpt><trkpt lat="45.9002621266255" lon="11.560523080973026"><ele>1218.0</ele><time>2026-04-08T06:49:22.995Z</time></trkpt><trkpt lat="45.900162773360684" lon="11.560618111161558"><ele>1218.0</ele><time>2026-04-08T06:49:23.995Z</time></trkpt><trkpt lat="45.90006251670616" lon="11.560706280078946"><ele>1218.0</ele><time>2026-04-08T06:49:24.995Z</time></trkpt><trkpt lat="45.899964726391715" lon="11.560792455805894"><ele>1218.0</ele><time>2026-04-08T06:49:25.995Z</time></trkpt><trkpt lat="45.89985679079531" lon="11.560867344466775"><ele>1214.6</ele><time>2026-04-08T06:49:26.995Z</time></trkpt><trkpt lat="45.899778729781836" lon="11.560977058543298"><ele>1211.1999999999998</ele><time>2026-04-08T06:49:27.995Z</time></trkpt><trkpt lat="45.899723384633575" lon="11.561094992291864"><ele>1207.8</ele><time>2026-04-08T06:49:28.995Z</time></trkpt><trkpt lat="45.89967052702471" lon="11.561186949844025"><ele>1204.3999999999999</ele><time>2026-04-08T06:49:29.995Z</time></trkpt><trkpt lat="45.89959464812556" lon="11.561244423585453"><ele>1201.0</ele><time>2026-04-08T06:49:30.995Z</time></trkpt><trkpt lat="45.8995144514533" lon="11.561235310304996"><ele>1201.0</ele><time>2026-04-08T06:49:31.995Z</time></trkpt><trkpt lat="45.89941199940025" lon="11.56120394418245"><ele>1201.0</ele><time>2026-04-08T06:49:32.995Z</time></trkpt><trkpt lat="45.899308444044046" lon="11.561128524967513"><ele>1201.0</ele><time>2026-04-08T06:49:33.995Z</time></trkpt><trkpt lat="45.899199726376146" lon="11.56104573171321"><ele>1201.0</ele><time>2026-04-08T06:49:34.995Z</time></trkpt><trkpt lat="45.89908842582326" lon="11.560959424187793"><ele>1199.5</ele><time>2026-04-08T06:49:35.995Z</time></trkpt><trkpt lat="45.89897361950844" lon="11.560874478842711"><ele>1198.0</ele><time>2026-04-08T06:49:36.995Z</time></trkpt><trkpt lat="45.8988548927437" lon="11.560792527521503"><ele>1196.5</ele><time>2026-04-08T06:49:37.995Z</time></trkpt><trkpt lat="45.89874462357185" lon="11.560704765257306"><ele>1195.0</ele><time>2026-04-08T06:49:38.995Z</time></trkpt><trkpt lat="45.898644641015814" lon="11.560599631217848"><ele>1195.0</ele><time>2026-04-08T06:49:39.995Z</time></trkpt><trkpt lat="45.89855852184658" lon="11.560471271561035"><ele>1195.0</ele><time>2026-04-08T06:49:40.995Z</time></trkpt><trkpt lat="45.89848670603135" lon="11.560317503645335"><ele>1195.0</ele><time>2026-04-08T06:49:41.995Z</time></trkpt><trkpt lat="45.89840398660376" lon="11.560163302441254"><ele>1195.0</ele><time>2026-04-08T06:49:42.995Z</time></trkpt><trkpt lat="45.898314988491364" lon="11.560010470308914"><ele>1196.5</ele><time>2026-04-08T06:49:43.995Z</time></trkpt><trkpt lat="45.898216742874006" lon="11.559861542694632"><ele>1198.0</ele><time>2026-04-08T06:49:44.995Z</time></trkpt><trkpt lat="45.89811759503959" lon="11.559714358534446"><ele>1199.5</ele><time>2026-04-08T06:49:45.995Z</time></trkpt><trkpt lat="45.89802182818984" lon="11.559572220351495"><ele>1201.0</ele><time>2026-04-08T06:49:46.995Z</time></trkpt><trkpt lat="45.89792737298374" lon="11.559438208099323"><ele>1201.0</ele><time>2026-04-08T06:49:47.995Z</time></trkpt><trkpt lat="45.89784455549532" lon="11.559307090285442"><ele>1201.0</ele><time>2026-04-08T06:49:48.995Z</time></trkpt><trkpt lat="45.89775326212978" lon="11.559196327048893"><ele>1201.0</ele><time>2026-04-08T06:49:49.995Z</time></trkpt><trkpt lat="45.897663709076255" lon="11.559084467662409"><ele>1201.0</ele><time>2026-04-08T06:49:50.995Z</time></trkpt><trkpt lat="45.89757828105165" lon="11.558985495297833"><ele>1196.8</ele><time>2026-04-08T06:49:51.995Z</time></trkpt><trkpt lat="45.89748416052766" lon="11.558919142335734"><ele>1192.6</ele><time>2026-04-08T06:49:52.995Z</time></trkpt><trkpt lat="45.89737435998588" lon="11.558873202468577"><ele>1188.4</ele><time>2026-04-08T06:49:53.995Z</time></trkpt><trkpt lat="45.897260517820406" lon="11.558867557622392"><ele>1184.2</ele><time>2026-04-08T06:49:54.995Z</time></trkpt><trkpt lat="45.89714767550676" lon="11.558894859382098"><ele>1180.0</ele><time>2026-04-08T06:49:55.995Z</time></trkpt><trkpt lat="45.89703716046508" lon="11.55894678048143"><ele>1180.0</ele><time>2026-04-08T06:49:56.995Z</time></trkpt><trkpt lat="45.89691611972968" lon="11.55899309662344"><ele>1180.0</ele><time>2026-04-08T06:49:57.995Z</time></trkpt><trkpt lat="45.8967907939826" lon="11.55901234440533"><ele>1180.0</ele><time>2026-04-08T06:49:58.995Z</time></trkpt><trkpt lat="45.896657546213774" lon="11.559000203806802"><ele>1180.0</ele><time>2026-04-08T06:49:59.995Z</time></trkpt><trkpt lat="45.89651706897831" lon="11.55898053069287"><ele>1178.4</ele><time>2026-04-08T06:50:00.994Z</time></trkpt><trkpt lat="45.8963994683682" lon="11.558954481533394"><ele>1176.8</ele><time>2026-04-08T06:50:01.994Z</time></trkpt><trkpt lat="45.89628413707876" lon="11.558955585503405"><ele>1175.2</ele><time>2026-04-08T06:50:02.994Z</time></trkpt><trkpt lat="45.89618930479227" lon="11.558991937071395"><ele>1173.6</ele><time>2026-04-08T06:50:03.994Z</time></trkpt><trkpt lat="45.89609029359362" lon="11.55906153108171"><ele>1172.0</ele><time>2026-04-08T06:50:04.994Z</time></trkpt><trkpt lat="45.89601710596704" lon="11.559198154410641"><ele>1172.0</ele><time>2026-04-08T06:50:05.994Z</time></trkpt><trkpt lat="45.89600907460525" lon="11.55938364516239"><ele>1172.0</ele><time>2026-04-08T06:50:06.994Z</time></trkpt><trkpt lat="45.89596996647272" lon="11.559544257252345"><ele>1172.0</ele><time>2026-04-08T06:50:07.994Z</time></trkpt><trkpt lat="45.89596203680353" lon="11.559720589731638"><ele>1172.0</ele><time>2026-04-08T06:50:08.994Z</time></trkpt><trkpt lat="45.895923398013466" lon="11.559879127803473"><ele>1169.4</ele><time>2026-04-08T06:50:09.994Z</time></trkpt><trkpt lat="45.89589822491659" lon="11.560036149562565"><ele>1166.8000000000002</ele><time>2026-04-08T06:50:10.994Z</time></trkpt><trkpt lat="45.895859487124824" lon="11.560178120316694"><ele>1164.2</ele><time>2026-04-08T06:50:11.994Z</time></trkpt><trkpt lat="45.89580628544567" lon="11.560307707637497"><ele>1161.6000000000001</ele><time>2026-04-08T06:50:12.994Z</time></trkpt><trkpt lat="45.89574577670656" lon="11.560434088565243"><ele>1159.0</ele><time>2026-04-08T06:50:13.994Z</time></trkpt><trkpt lat="45.895674552156095" lon="11.56054218206706"><ele>1154.6000000000001</ele><time>2026-04-08T06:50:14.994Z</time></trkpt><trkpt lat="45.895583081323025" lon="11.560638346147584"><ele>1150.2</ele><time>2026-04-08T06:50:15.994Z</time></trkpt><trkpt lat="45.89549885864641" lon="11.560647120567017"><ele>1145.8000000000002</ele><time>2026-04-08T06:50:16.994Z</time></trkpt><trkpt lat="45.89542576560292" lon="11.560646519418665"><ele>1141.4</ele><time>2026-04-08T06:50:17.994Z</time></trkpt><trkpt lat="45.895362051945966" lon="11.56059344651377"><ele>1137.0</ele><time>2026-04-08T06:50:18.994Z</time></trkpt><trkpt lat="45.895285152706236" lon="11.560486021855587"><ele>1138.25</ele><time>2026-04-08T06:50:19.994Z</time></trkpt><trkpt lat="45.89520705269396" lon="11.560365993263659"><ele>1139.5</ele><time>2026-04-08T06:50:20.994Z</time></trkpt><trkpt lat="45.8951152104667" lon="11.56024633883581"><ele>1140.75</ele><time>2026-04-08T06:50:21.994Z</time></trkpt><trkpt lat="45.89502608966297" lon="11.560104585647887"><ele>1142.0</ele><time>2026-04-08T06:50:22.994Z</time></trkpt><trkpt lat="45.894937351907316" lon="11.55996557747646"><ele>1142.0</ele><time>2026-04-08T06:50:23.994Z</time></trkpt><trkpt lat="45.89484207020133" lon="11.559829360933248"><ele>1142.0</ele><time>2026-04-08T06:50:24.994Z</time></trkpt><trkpt lat="45.8947485330733" lon="11.559687129082896"><ele>1142.0</ele><time>2026-04-08T06:50:25.994Z</time></trkpt><trkpt lat="45.89465369132554" lon="11.559553608178755"><ele>1142.0</ele><time>2026-04-08T06:50:26.994Z</time></trkpt><trkpt lat="45.89455418654806" lon="11.559426161930993"><ele>1138.75</ele><time>2026-04-08T06:50:27.994Z</time></trkpt><trkpt lat="45.89444338398635" lon="11.559304501253258"><ele>1135.5</ele><time>2026-04-08T06:50:28.994Z</time></trkpt><trkpt lat="45.894326380902804" lon="11.559200894207951"><ele>1132.25</ele><time>2026-04-08T06:50:29.994Z</time></trkpt><trkpt lat="45.89420682485582" lon="11.559108470996481"><ele>1129.0</ele><time>2026-04-08T06:50:30.994Z</time></trkpt><trkpt lat="45.89408686105153" lon="11.559015840969865"><ele>1129.0</ele><time>2026-04-08T06:50:31.994Z</time></trkpt><trkpt lat="45.89396435320419" lon="11.558907084120372"><ele>1129.0</ele><time>2026-04-08T06:50:32.994Z</time></trkpt><trkpt lat="45.893851515921234" lon="11.558783951786612"><ele>1129.0</ele><time>2026-04-08T06:50:33.994Z</time></trkpt><trkpt lat="45.89374178359066" lon="11.558650368385216"><ele>1129.0</ele><time>2026-04-08T06:50:34.994Z</time></trkpt><trkpt lat="45.89363500185016" lon="11.55850705000614"><ele>1132.0</ele><time>2026-04-08T06:50:35.994Z</time></trkpt><trkpt lat="45.89352910857927" lon="11.55835625801312"><ele>1135.0</ele><time>2026-04-08T06:50:36.994Z</time></trkpt><trkpt lat="45.89342099126464" lon="11.558210819434006"><ele>1138.0</ele><time>2026-04-08T06:50:37.994Z</time></trkpt><trkpt lat="45.89331148857879" lon="11.558061483373379"><ele>1141.0</ele><time>2026-04-08T06:50:38.994Z</time></trkpt><trkpt lat="45.893213307685635" lon="11.557914906352199"><ele>1137.0</ele><time>2026-04-08T06:50:39.994Z</time></trkpt><trkpt lat="45.89312239142011" lon="11.557761382602372"><ele>1133.0</ele><time>2026-04-08T06:50:40.994Z</time></trkpt><trkpt lat="45.893029050202756" lon="11.557615845690034"><ele>1129.0</ele><time>2026-04-08T06:50:41.994Z</time></trkpt><trkpt lat="45.89292724981523" lon="11.557471426383488"><ele>1125.0</ele><time>2026-04-08T06:50:42.994Z</time></trkpt><trkpt lat="45.89284676070243" lon="11.557338880479081"><ele>1125.0</ele><time>2026-04-08T06:50:43.994Z</time></trkpt><trkpt lat="45.892778176280274" lon="11.557210174849432"><ele>1125.0</ele><time>2026-04-08T06:50:44.994Z</time></trkpt><trkpt lat="45.892714584087706" lon="11.557093721583497"><ele>1125.0</ele><time>2026-04-08T06:50:45.994Z</time></trkpt><trkpt lat="45.89267409098533" lon="11.556959452615725"><ele>1125.0</ele><time>2026-04-08T06:50:46.994Z</time></trkpt><trkpt lat="45.892614306612785" lon="11.556829709764283"><ele>1125.0</ele><time>2026-04-08T06:50:47.994Z</time></trkpt><trkpt lat="45.892552864144214" lon="11.556700087504241"><ele>1122.6</ele><time>2026-04-08T06:50:48.994Z</time></trkpt><trkpt lat="45.892493546114544" lon="11.556564387063942"><ele>1120.2</ele><time>2026-04-08T06:50:49.994Z</time></trkpt><trkpt lat="45.89244120433868" lon="11.556426117491105"><ele>1117.8</ele><time>2026-04-08T06:50:50.994Z</time></trkpt><trkpt lat="45.89239750820444" lon="11.556278383126605"><ele>1115.4</ele><time>2026-04-08T06:50:51.994Z</time></trkpt><trkpt lat="45.89236297080725" lon="11.556125878282327"><ele>1113.0</ele><time>2026-04-08T06:50:52.994Z</time></trkpt><trkpt lat="45.892306898966886" lon="11.555804979845446"><ele>1113.0</ele><time>2026-04-08T06:50:54.994Z</time></trkpt><trkpt lat="45.89229139250242" lon="11.55563104191065"><ele>1113.0</ele><time>2026-04-08T06:50:55.994Z</time></trkpt><trkpt lat="45.89227496207949" lon="11.555447635585043"><ele>1113.0</ele><time>2026-04-08T06:50:56.994Z</time></trkpt><trkpt lat="45.89225060124498" lon="11.555262894377655"><ele>1113.0</ele><time>2026-04-08T06:50:57.994Z</time></trkpt><trkpt lat="45.89221502066849" lon="11.55507982135317"><ele>1113.0</ele><time>2026-04-08T06:50:58.994Z</time></trkpt><trkpt lat="45.8921688108067" lon="11.554898303031171"><ele>1113.0</ele><time>2026-04-08T06:50:59.994Z</time></trkpt><trkpt lat="45.89212911839087" lon="11.554714058914774"><ele>1113.0</ele><time>2026-04-08T06:51:00.994Z</time></trkpt><trkpt lat="45.8921022738814" lon="11.554520288504474"><ele>1113.0</ele><time>2026-04-08T06:51:01.994Z</time></trkpt><trkpt lat="45.89208528982035" lon="11.554324516918413"><ele>1112.25</ele><time>2026-04-08T06:51:02.994Z</time></trkpt><trkpt lat="45.89207618953" lon="11.55412621729666"><ele>1111.5</ele><time>2026-04-08T06:51:03.994Z</time></trkpt><trkpt lat="45.89207755716518" lon="11.553932071240613"><ele>1110.75</ele><time>2026-04-08T06:51:04.994Z</time></trkpt><trkpt lat="45.892082578414545" lon="11.553750705628481"><ele>1110.0</ele><time>2026-04-08T06:51:05.994Z</time></trkpt><trkpt lat="45.8920885382513" lon="11.553585325633764"><ele>1108.4</ele><time>2026-04-08T06:51:06.994Z</time></trkpt><trkpt lat="45.89209098736194" lon="11.553429159760423"><ele>1106.8</ele><time>2026-04-08T06:51:07.994Z</time></trkpt><trkpt lat="45.892090534324204" lon="11.553291995309554"><ele>1105.2</ele><time>2026-04-08T06:51:08.994Z</time></trkpt><trkpt lat="45.89209453158619" lon="11.5531541548366"><ele>1103.6</ele><time>2026-04-08T06:51:09.994Z</time></trkpt><trkpt lat="45.89211492737845" lon="11.55301205906334"><ele>1102.0</ele><time>2026-04-08T06:51:10.994Z</time></trkpt><trkpt lat="45.89209758077034" lon="11.55285873016774"><ele>1101.6666666666665</ele><time>2026-04-08T06:51:11.994Z</time></trkpt><trkpt lat="45.892073021648365" lon="11.55271341844341"><ele>1101.3333333333333</ele><time>2026-04-08T06:51:12.994Z</time></trkpt><trkpt lat="45.89204627617324" lon="11.552588301543436"><ele>1101.0</ele><time>2026-04-08T06:51:13.994Z</time></trkpt><trkpt lat="45.892030275694" lon="11.552489948885636"><ele>1100.6666666666667</ele><time>2026-04-08T06:51:14.994Z</time></trkpt><trkpt lat="45.8920046393516" lon="11.552390974635482"><ele>1100.3333333333335</ele><time>2026-04-08T06:51:15.994Z</time></trkpt><trkpt lat="45.89195623350333" lon="11.55230349688002"><ele>1100.0</ele><time>2026-04-08T06:51:16.994Z</time></trkpt><trkpt lat="45.89198680803623" lon="11.552140690056314"><ele>1099.5</ele><time>2026-04-08T06:51:17.994Z</time></trkpt><trkpt lat="45.8920004800071" lon="11.551985110943479"><ele>1099.0</ele><time>2026-04-08T06:51:18.994Z</time></trkpt><trkpt lat="45.892019356712325" lon="11.551798450989748"><ele>1098.5</ele><time>2026-04-08T06:51:19.994Z</time></trkpt><trkpt lat="45.89204490408888" lon="11.55159521053373"><ele>1098.0</ele><time>2026-04-08T06:51:20.995Z</time></trkpt><trkpt lat="45.892077133008755" lon="11.551395010610088"><ele>1097.5</ele><time>2026-04-08T06:51:21.995Z</time></trkpt><trkpt lat="45.892104096264674" lon="11.551192689017869"><ele>1097.0</ele><time>2026-04-08T06:51:22.995Z</time></trkpt><trkpt lat="45.89213474553514" lon="11.550980850205066"><ele>1096.5</ele><time>2026-04-08T06:51:23.995Z</time></trkpt><trkpt lat="45.892158836885805" lon="11.550767669793016"><ele>1096.0</ele><time>2026-04-08T06:51:24.995Z</time></trkpt><trkpt lat="45.89218165887607" lon="11.550558095108494"><ele>1094.5</ele><time>2026-04-08T06:51:25.995Z</time></trkpt><trkpt lat="45.89220345876711" lon="11.550350071256714"><ele>1093.0</ele><time>2026-04-08T06:51:26.995Z</time></trkpt><trkpt lat="45.89222656597524" lon="11.550145282275079"><ele>1091.5</ele><time>2026-04-08T06:51:27.995Z</time></trkpt><trkpt lat="45.892249534667215" lon="11.54994110865629"><ele>1090.0</ele><time>2026-04-08T06:51:28.995Z</time></trkpt><trkpt lat="45.892274990748135" lon="11.549741327297928"><ele>1090.0</ele><time>2026-04-08T06:51:29.995Z</time></trkpt><trkpt lat="45.89232733433136" lon="11.549545276270614"><ele>1090.0</ele><time>2026-04-08T06:51:30.995Z</time></trkpt><trkpt lat="45.89235342487199" lon="11.549346735203462"><ele>1090.0</ele><time>2026-04-08T06:51:31.995Z</time></trkpt><trkpt lat="45.892377671364606" lon="11.549155634862498"><ele>1090.0</ele><time>2026-04-08T06:51:32.995Z</time></trkpt><trkpt lat="45.89240156589296" lon="11.548969554421275"><ele>1089.0</ele><time>2026-04-08T06:51:33.995Z</time></trkpt><trkpt lat="45.892421335284446" lon="11.548787219144135"><ele>1088.0</ele><time>2026-04-08T06:51:34.995Z</time></trkpt><trkpt lat="45.892444528921196" lon="11.548612253672793"><ele>1087.0</ele><time>2026-04-08T06:51:35.995Z</time></trkpt><trkpt lat="45.89246697785193" lon="11.548448320086749"><ele>1086.0</ele><time>2026-04-08T06:51:36.995Z</time></trkpt><trkpt lat="45.89248468501828" lon="11.548293805857602"><ele>1086.0</ele><time>2026-04-08T06:51:37.995Z</time></trkpt><trkpt lat="45.892496028229914" lon="11.54815847660979"><ele>1086.0</ele><time>2026-04-08T06:51:38.995Z</time></trkpt><trkpt lat="45.892502482730436" lon="11.548065379188348"><ele>1086.0</ele><time>2026-04-08T06:51:39.995Z</time></trkpt><trkpt lat="45.89252309905508" lon="11.547906200117739"><ele>1086.0</ele><time>2026-04-08T06:51:41.995Z</time></trkpt><trkpt lat="45.89249968936198" lon="11.547794843734264"><ele>1086.0</ele><time>2026-04-08T06:51:43.995Z</time></trkpt><trkpt lat="45.892344455149285" lon="11.547767629290512"><ele>1086.2</ele><time>2026-04-08T06:51:44.995Z</time></trkpt><trkpt lat="45.89225812717224" lon="11.547756616230018"><ele>1086.3999999999999</ele><time>2026-04-08T06:51:45.995Z</time></trkpt><trkpt lat="45.89216986699984" lon="11.547735536335317"><ele>1086.6</ele><time>2026-04-08T06:51:46.995Z</time></trkpt><trkpt lat="45.892073757736846" lon="11.54772859470264"><ele>1086.8</ele><time>2026-04-08T06:51:47.995Z</time></trkpt><trkpt lat="45.891969071401924" lon="11.547747093310957"><ele>1087.0</ele><time>2026-04-08T06:51:48.995Z</time></trkpt><trkpt lat="45.8918622429961" lon="11.547783685383337"><ele>1087.5</ele><time>2026-04-08T06:51:49.995Z</time></trkpt><trkpt lat="45.89174311109442" lon="11.547846689730335"><ele>1088.0</ele><time>2026-04-08T06:51:50.995Z</time></trkpt><trkpt lat="45.89162080731769" lon="11.547912382763677"><ele>1088.5</ele><time>2026-04-08T06:51:51.995Z</time></trkpt><trkpt lat="45.89149248269119" lon="11.547965176677376"><ele>1089.0</ele><time>2026-04-08T06:51:52.995Z</time></trkpt><trkpt lat="45.89136019343227" lon="11.548013588692356"><ele>1087.75</ele><time>2026-04-08T06:51:53.995Z</time></trkpt><trkpt lat="45.89121965436961" lon="11.548067015679369"><ele>1086.5</ele><time>2026-04-08T06:51:54.995Z</time></trkpt><trkpt lat="45.891080118965846" lon="11.548091222405695"><ele>1085.25</ele><time>2026-04-08T06:51:55.995Z</time></trkpt><trkpt lat="45.89094243695739" lon="11.548088800051515"><ele>1084.0</ele><time>2026-04-08T06:51:56.995Z</time></trkpt><trkpt lat="45.89080271733809" lon="11.548049406046923"><ele>1083.5</ele><time>2026-04-08T06:51:57.995Z</time></trkpt><trkpt lat="45.89066446813064" lon="11.54800188573933"><ele>1083.0</ele><time>2026-04-08T06:51:58.995Z</time></trkpt><trkpt lat="45.890523377725664" lon="11.547948144793562"><ele>1082.5</ele><time>2026-04-08T06:51:59.994Z</time></trkpt><trkpt lat="45.89038256476768" lon="11.547887666661381"><ele>1082.0</ele><time>2026-04-08T06:52:00.994Z</time></trkpt><trkpt lat="45.89024304629191" lon="11.54780011541024"><ele>1082.0</ele><time>2026-04-08T06:52:01.994Z</time></trkpt><trkpt lat="45.89010064326535" lon="11.547759689722817"><ele>1082.0</ele><time>2026-04-08T06:52:02.994Z</time></trkpt><trkpt lat="45.889955669918486" lon="11.54773642162019"><ele>1082.0</ele><time>2026-04-08T06:52:03.994Z</time></trkpt><trkpt lat="45.889813685075445" lon="11.547729711801733"><ele>1082.0</ele><time>2026-04-08T06:52:04.994Z</time></trkpt><trkpt lat="45.88966773133739" lon="11.547720661164332"><ele>1081.25</ele><time>2026-04-08T06:52:05.994Z</time></trkpt><trkpt lat="45.88952172691298" lon="11.547713718538184"><ele>1080.5</ele><time>2026-04-08T06:52:06.994Z</time></trkpt><trkpt lat="45.889375803642885" lon="11.547709105206755"><ele>1079.75</ele><time>2026-04-08T06:52:07.994Z</time></trkpt><trkpt lat="45.88923371259033" lon="11.54770285244654"><ele>1079.0</ele><time>2026-04-08T06:52:08.994Z</time></trkpt><trkpt lat="45.88908757699384" lon="11.547699986758014"><ele>1079.0</ele><time>2026-04-08T06:52:09.994Z</time></trkpt><trkpt lat="45.88894419797205" lon="11.547708649621363"><ele>1079.0</ele><time>2026-04-08T06:52:10.994Z</time></trkpt><trkpt lat="45.888803829999574" lon="11.547736218438073"><ele>1079.0</ele><time>2026-04-08T06:52:11.994Z</time></trkpt><trkpt lat="45.88866635918185" lon="11.547785266501268"><ele>1079.0</ele><time>2026-04-08T06:52:12.994Z</time></trkpt><trkpt lat="45.88853844312724" lon="11.547844569913199"><ele>1079.75</ele><time>2026-04-08T06:52:13.994Z</time></trkpt><trkpt lat="45.88841926540785" lon="11.547927537637202"><ele>1080.5</ele><time>2026-04-08T06:52:14.994Z</time></trkpt><trkpt lat="45.888310036459806" lon="11.54802723038688"><ele>1081.25</ele><time>2026-04-08T06:52:15.994Z</time></trkpt><trkpt lat="45.88820382326" lon="11.548140404919899"><ele>1082.0</ele><time>2026-04-08T06:52:16.994Z</time></trkpt><trkpt lat="45.888103497440895" lon="11.548261652433172"><ele>1082.0</ele><time>2026-04-08T06:52:17.994Z</time></trkpt><trkpt lat="45.887999884637765" lon="11.54837789363626"><ele>1082.0</ele><time>2026-04-08T06:52:18.994Z</time></trkpt><trkpt lat="45.88789190989603" lon="11.548470139063609"><ele>1082.0</ele><time>2026-04-08T06:52:19.994Z</time></trkpt><trkpt lat="45.88777519318864" lon="11.548536008986881"><ele>1082.0</ele><time>2026-04-08T06:52:20.994Z</time></trkpt><trkpt lat="45.88763155908009" lon="11.548568399734293"><ele>1082.0</ele><time>2026-04-08T06:52:21.994Z</time></trkpt><trkpt lat="45.88747744693296" lon="11.548586472946107"><ele>1082.0</ele><time>2026-04-08T06:52:22.994Z</time></trkpt><trkpt lat="45.8873281505541" lon="11.548595782386904"><ele>1082.0</ele><time>2026-04-08T06:52:23.994Z</time></trkpt><trkpt lat="45.887173703180565" lon="11.548594175411385"><ele>1082.0</ele><time>2026-04-08T06:52:24.994Z</time></trkpt><trkpt lat="45.88701867387047" lon="11.54858326822247"><ele>1082.0</ele><time>2026-04-08T06:52:25.994Z</time></trkpt><trkpt lat="45.886881140916174" lon="11.548562699005615"><ele>1082.0</ele><time>2026-04-08T06:52:26.994Z</time></trkpt><trkpt lat="45.88676155266033" lon="11.548530656152938"><ele>1082.0</ele><time>2026-04-08T06:52:27.994Z</time></trkpt><trkpt lat="45.886657668740206" lon="11.548503445266366"><ele>1081.1666666666667</ele><time>2026-04-08T06:52:28.994Z</time></trkpt><trkpt lat="45.886575598427186" lon="11.548463914939363"><ele>1080.3333333333335</ele><time>2026-04-08T06:52:29.994Z</time></trkpt><trkpt lat="45.88650426039664" lon="11.548410336291624"><ele>1079.5</ele><time>2026-04-08T06:52:30.994Z</time></trkpt><trkpt lat="45.88643725393338" lon="11.548392889562074"><ele>1078.6666666666667</ele><time>2026-04-08T06:52:31.994Z</time></trkpt><trkpt lat="45.88636705079619" lon="11.548371720260356"><ele>1077.8333333333333</ele><time>2026-04-08T06:52:32.994Z</time></trkpt><trkpt lat="45.88629183016902" lon="11.548350052600668"><ele>1077.0</ele><time>2026-04-08T06:52:33.994Z</time></trkpt><trkpt lat="45.88621446387265" lon="11.548315779019719"><ele>1077.0</ele><time>2026-04-08T06:52:34.994Z</time></trkpt><trkpt lat="45.886117318165034" lon="11.548350614845786"><ele>1077.0</ele><time>2026-04-08T06:52:35.994Z</time></trkpt><trkpt lat="45.8860145944848" lon="11.54834341025039"><ele>1077.0</ele><time>2026-04-08T06:52:36.994Z</time></trkpt><trkpt lat="45.88590134754424" lon="11.548307553534324"><ele>1077.0</ele><time>2026-04-08T06:52:37.994Z</time></trkpt><trkpt lat="45.885782143380844" lon="11.548270297900498"><ele>1077.0</ele><time>2026-04-08T06:52:38.994Z</time></trkpt><trkpt lat="45.885652080434966" lon="11.548231177970484"><ele>1076.75</ele><time>2026-04-08T06:52:39.994Z</time></trkpt><trkpt lat="45.88551334019599" lon="11.548192839077291"><ele>1076.5</ele><time>2026-04-08T06:52:40.994Z</time></trkpt><trkpt lat="45.88536796128565" lon="11.548155446085106"><ele>1076.25</ele><time>2026-04-08T06:52:41.994Z</time></trkpt><trkpt lat="45.885219857511615" lon="11.548114706294974"><ele>1076.0</ele><time>2026-04-08T06:52:42.994Z</time></trkpt><trkpt lat="45.88506384197353" lon="11.548073777245468"><ele>1075.3333333333335</ele><time>2026-04-08T06:52:43.994Z</time></trkpt><trkpt lat="45.88490404321868" lon="11.548030641855057"><ele>1074.6666666666667</ele><time>2026-04-08T06:52:44.994Z</time></trkpt><trkpt lat="45.88474107390628" lon="11.547994457122998"><ele>1074.0</ele><time>2026-04-08T06:52:45.994Z</time></trkpt><trkpt lat="45.884574158582076" lon="11.547970214827629"><ele>1074.0</ele><time>2026-04-08T06:52:46.994Z</time></trkpt><trkpt lat="45.88440311407871" lon="11.547953064756074"><ele>1074.0</ele><time>2026-04-08T06:52:47.994Z</time></trkpt><trkpt lat="45.884231324709724" lon="11.547947889919033"><ele>1074.0</ele><time>2026-04-08T06:52:48.994Z</time></trkpt><trkpt lat="45.884056547011795" lon="11.547938459624731"><ele>1075.0</ele><time>2026-04-08T06:52:49.994Z</time></trkpt><trkpt lat="45.88387695936977" lon="11.547943441763968"><ele>1076.0</ele><time>2026-04-08T06:52:50.994Z</time></trkpt><trkpt lat="45.883693944395155" lon="11.547961683504784"><ele>1077.0</ele><time>2026-04-08T06:52:51.994Z</time></trkpt><trkpt lat="45.88351255452311" lon="11.5479911402992"><ele>1080.0</ele><time>2026-04-08T06:52:52.994Z</time></trkpt><trkpt lat="45.88332765592868" lon="11.54802307153383"><ele>1083.0</ele><time>2026-04-08T06:52:53.994Z</time></trkpt><trkpt lat="45.88314273339915" lon="11.548052188886725"><ele>1086.0</ele><time>2026-04-08T06:52:54.994Z</time></trkpt><trkpt lat="45.88295701116348" lon="11.548079305787914"><ele>1086.0</ele><time>2026-04-08T06:52:55.994Z</time></trkpt><trkpt lat="45.882771313933404" lon="11.548108036928591"><ele>1086.0</ele><time>2026-04-08T06:52:56.994Z</time></trkpt><trkpt lat="45.882588617904005" lon="11.548137469851143"><ele>1086.0</ele><time>2026-04-08T06:52:57.994Z</time></trkpt><trkpt lat="45.8824070308857" lon="11.548163961605956"><ele>1084.6666666666667</ele><time>2026-04-08T06:52:58.994Z</time></trkpt><trkpt lat="45.882225462084236" lon="11.548189298032865"><ele>1083.3333333333335</ele><time>2026-04-08T06:52:59.994Z</time></trkpt><trkpt lat="45.882043268981484" lon="11.548214371758105"><ele>1082.0</ele><time>2026-04-08T06:53:00.994Z</time></trkpt><trkpt lat="45.88185989075441" lon="11.548239499650103"><ele>1081.6666666666667</ele><time>2026-04-08T06:53:01.994Z</time></trkpt><trkpt lat="45.8816751748722" lon="11.548265459846817"><ele>1081.3333333333333</ele><time>2026-04-08T06:53:02.994Z</time></trkpt><trkpt lat="45.88148581193911" lon="11.548290082283044"><ele>1081.0</ele><time>2026-04-08T06:53:03.994Z</time></trkpt><trkpt lat="45.88129560036454" lon="11.548318816448974"><ele>1081.0</ele><time>2026-04-08T06:53:04.994Z</time></trkpt><trkpt lat="45.88110387043717" lon="11.54835528630545"><ele>1081.0</ele><time>2026-04-08T06:53:05.994Z</time></trkpt><trkpt lat="45.88091316173369" lon="11.54838606021936"><ele>1081.0</ele><time>2026-04-08T06:53:06.994Z</time></trkpt><trkpt lat="45.880721698757974" lon="11.54841872301791"><ele>1078.3333333333333</ele><time>2026-04-08T06:53:07.994Z</time></trkpt><trkpt lat="45.88052941702027" lon="11.548449835116077"><ele>1075.6666666666667</ele><time>2026-04-08T06:53:08.994Z</time></trkpt><trkpt lat="45.88033337175793" lon="11.54847878602171"><ele>1073.0</ele><time>2026-04-08T06:53:09.994Z</time></trkpt><trkpt lat="45.88013447265863" lon="11.548503858029239"><ele>1073.0</ele><time>2026-04-08T06:53:10.994Z</time></trkpt><trkpt lat="45.87993381059997" lon="11.548529582745799"><ele>1073.0</ele><time>2026-04-08T06:53:11.994Z</time></trkpt><trkpt lat="45.879732797281896" lon="11.54854163052804"><ele>1073.0</ele><time>2026-04-08T06:53:12.994Z</time></trkpt><trkpt lat="45.87953169522458" lon="11.548540506146708"><ele>1073.0</ele><time>2026-04-08T06:53:13.994Z</time></trkpt><trkpt lat="45.87933918379109" lon="11.548509886187912"><ele>1073.0</ele><time>2026-04-08T06:53:14.994Z</time></trkpt><trkpt lat="45.879145008427955" lon="11.548474907040056"><ele>1073.0</ele><time>2026-04-08T06:53:15.994Z</time></trkpt><trkpt lat="45.8789509212317" lon="11.548436879685177"><ele>1073.0</ele><time>2026-04-08T06:53:16.994Z</time></trkpt><trkpt lat="45.87875965575108" lon="11.548391022862226"><ele>1073.0</ele><time>2026-04-08T06:53:17.994Z</time></trkpt><trkpt lat="45.87856983377545" lon="11.548347519689035"><ele>1073.0</ele><time>2026-04-08T06:53:18.995Z</time></trkpt><trkpt lat="45.8783804812006" lon="11.548304336412775"><ele>1073.6666666666667</ele><time>2026-04-08T06:53:19.995Z</time></trkpt><trkpt lat="45.878193214311686" lon="11.548264300578635"><ele>1074.3333333333333</ele><time>2026-04-08T06:53:20.994Z</time></trkpt><trkpt lat="45.8780040072674" lon="11.548226293212755"><ele>1075.0</ele><time>2026-04-08T06:53:21.994Z</time></trkpt><trkpt lat="45.87781985421722" lon="11.548178827706645"><ele>1075.0</ele><time>2026-04-08T06:53:22.994Z</time></trkpt><trkpt lat="45.877639349732334" lon="11.548126242809888"><ele>1075.0</ele><time>2026-04-08T06:53:23.995Z</time></trkpt><trkpt lat="45.87745865933615" lon="11.548053965071915"><ele>1075.0</ele><time>2026-04-08T06:53:24.994Z</time></trkpt><trkpt lat="45.877282223143425" lon="11.54796524745459"><ele>1072.6666666666665</ele><time>2026-04-08T06:53:25.994Z</time></trkpt><trkpt lat="45.8771119124397" lon="11.547865294959763"><ele>1070.3333333333333</ele><time>2026-04-08T06:53:26.994Z</time></trkpt><trkpt lat="45.876945052376" lon="11.547759676417453"><ele>1068.0</ele><time>2026-04-08T06:53:27.994Z</time></trkpt><trkpt lat="45.87678166144643" lon="11.547647368247492"><ele>1068.0</ele><time>2026-04-08T06:53:28.994Z</time></trkpt><trkpt lat="45.87664284571769" lon="11.547517888684663"><ele>1068.0</ele><time>2026-04-08T06:53:29.994Z</time></trkpt><trkpt lat="45.87650244167032" lon="11.547421103326606"><ele>1068.0</ele><time>2026-04-08T06:53:30.994Z</time></trkpt><trkpt lat="45.87636351933834" lon="11.547327376928534"><ele>1068.0</ele><time>2026-04-08T06:53:31.994Z</time></trkpt><trkpt lat="45.87622482718753" lon="11.547227366018822"><ele>1068.0</ele><time>2026-04-08T06:53:32.994Z</time></trkpt><trkpt lat="45.87608231286602" lon="11.5471257245226"><ele>1068.0</ele><time>2026-04-08T06:53:33.994Z</time></trkpt><trkpt lat="45.875932405635275" lon="11.547029362884166"><ele>1067.3333333333333</ele><time>2026-04-08T06:53:34.994Z</time></trkpt><trkpt lat="45.87577329151942" lon="11.54694443916594"><ele>1066.6666666666665</ele><time>2026-04-08T06:53:35.994Z</time></trkpt><trkpt lat="45.87560425832912" lon="11.546876393093422"><ele>1066.0</ele><time>2026-04-08T06:53:36.994Z</time></trkpt><trkpt lat="45.875429732753375" lon="11.546803590204336"><ele>1066.0</ele><time>2026-04-08T06:53:37.994Z</time></trkpt><trkpt lat="45.87524836803411" lon="11.546735433210218"><ele>1066.0</ele><time>2026-04-08T06:53:38.994Z</time></trkpt><trkpt lat="45.87506717734888" lon="11.546660042489183"><ele>1066.0</ele><time>2026-04-08T06:53:39.994Z</time></trkpt><trkpt lat="45.87488053317312" lon="11.546587298885948"><ele>1066.3333333333333</ele><time>2026-04-08T06:53:40.994Z</time></trkpt><trkpt lat="45.87469230566284" lon="11.546516642503128"><ele>1066.6666666666667</ele><time>2026-04-08T06:53:41.994Z</time></trkpt><trkpt lat="45.87450127894798" lon="11.546449215963667"><ele>1067.0</ele><time>2026-04-08T06:53:42.994Z</time></trkpt><trkpt lat="45.87431023094519" lon="11.54638146106234"><ele>1067.6666666666667</ele><time>2026-04-08T06:53:43.994Z</time></trkpt><trkpt lat="45.87412541364901" lon="11.546312431900114"><ele>1068.3333333333333</ele><time>2026-04-08T06:53:44.994Z</time></trkpt><trkpt lat="45.87394855471765" lon="11.546244338361989"><ele>1069.0</ele><time>2026-04-08T06:53:45.994Z</time></trkpt><trkpt lat="45.87377328568722" lon="11.54618219515847"><ele>1069.0</ele><time>2026-04-08T06:53:46.994Z</time></trkpt><trkpt lat="45.87360017984841" lon="11.546134145613696"><ele>1069.0</ele><time>2026-04-08T06:53:47.994Z</time></trkpt><trkpt lat="45.87343263418137" lon="11.546108106343528"><ele>1069.0</ele><time>2026-04-08T06:53:48.994Z</time></trkpt><trkpt lat="45.873268983243634" lon="11.546110327487959"><ele>1072.0</ele><time>2026-04-08T06:53:49.994Z</time></trkpt><trkpt lat="45.873108171228964" lon="11.546143408368264"><ele>1075.0</ele><time>2026-04-08T06:53:50.994Z</time></trkpt><trkpt lat="45.87294978412401" lon="11.546201359492034"><ele>1078.0</ele><time>2026-04-08T06:53:51.994Z</time></trkpt><trkpt lat="45.872797520084916" lon="11.546288659226676"><ele>1078.0</ele><time>2026-04-08T06:53:52.994Z</time></trkpt><trkpt lat="45.87265147176968" lon="11.546405749856696"><ele>1078.0</ele><time>2026-04-08T06:53:53.994Z</time></trkpt><trkpt lat="45.872507875230184" lon="11.546537632098454"><ele>1078.0</ele><time>2026-04-08T06:53:54.994Z</time></trkpt><trkpt lat="45.87236877585771" lon="11.546683305118119"><ele>1079.0</ele><time>2026-04-08T06:53:55.994Z</time></trkpt><trkpt lat="45.87223019169083" lon="11.546834712851584"><ele>1080.0</ele><time>2026-04-08T06:53:56.994Z</time></trkpt><trkpt lat="45.87208630105932" lon="11.546982975152108"><ele>1081.0</ele><time>2026-04-08T06:53:57.994Z</time></trkpt><trkpt lat="45.871939340695405" lon="11.547134944910042"><ele>1081.6666666666665</ele><time>2026-04-08T06:53:58.994Z</time></trkpt><trkpt lat="45.87179344650624" lon="11.547289975288109"><ele>1082.3333333333333</ele><time>2026-04-08T06:53:59.994Z</time></trkpt><trkpt lat="45.871645437554555" lon="11.547443074901134"><ele>1083.0</ele><time>2026-04-08T06:54:00.994Z</time></trkpt><trkpt lat="45.87149990389571" lon="11.54759573177197"><ele>1083.0</ele><time>2026-04-08T06:54:01.994Z</time></trkpt><trkpt lat="45.8713588384431" lon="11.54774752113882"><ele>1083.0</ele><time>2026-04-08T06:54:02.994Z</time></trkpt><trkpt lat="45.871208004074326" lon="11.547882843620224"><ele>1083.0</ele><time>2026-04-08T06:54:03.994Z</time></trkpt><trkpt lat="45.87104201616902" lon="11.547983738960975"><ele>1085.0</ele><time>2026-04-08T06:54:04.994Z</time></trkpt><trkpt lat="45.87086948054468" lon="11.548063774693302"><ele>1087.0</ele><time>2026-04-08T06:54:05.994Z</time></trkpt><trkpt lat="45.87068833487772" lon="11.548125890825833"><ele>1089.0</ele><time>2026-04-08T06:54:06.994Z</time></trkpt><trkpt lat="45.87050849381059" lon="11.548185898612987"><ele>1089.0</ele><time>2026-04-08T06:54:07.994Z</time></trkpt><trkpt lat="45.8703255470563" lon="11.54824485176829"><ele>1089.0</ele><time>2026-04-08T06:54:08.994Z</time></trkpt><trkpt lat="45.870137363701375" lon="11.548303991493023"><ele>1089.0</ele><time>2026-04-08T06:54:09.994Z</time></trkpt><trkpt lat="45.86994762477383" lon="11.548366363507709"><ele>1087.6666666666667</ele><time>2026-04-08T06:54:10.994Z</time></trkpt><trkpt lat="45.86975666583524" lon="11.548431802853312"><ele>1086.3333333333335</ele><time>2026-04-08T06:54:11.994Z</time></trkpt><trkpt lat="45.869566335980686" lon="11.548497149970292"><ele>1085.0</ele><time>2026-04-08T06:54:12.994Z</time></trkpt><trkpt lat="45.86938172526861" lon="11.548560867252663"><ele>1085.3333333333335</ele><time>2026-04-08T06:54:13.994Z</time></trkpt><trkpt lat="45.869198510282764" lon="11.548616768233423"><ele>1085.6666666666667</ele><time>2026-04-08T06:54:14.994Z</time></trkpt><trkpt lat="45.86901338553101" lon="11.548677149549999"><ele>1086.0</ele><time>2026-04-08T06:54:15.994Z</time></trkpt><trkpt lat="45.86883024172582" lon="11.548733135351013"><ele>1090.3333333333333</ele><time>2026-04-08T06:54:16.994Z</time></trkpt><trkpt lat="45.86864761065246" lon="11.548795066384127"><ele>1094.6666666666665</ele><time>2026-04-08T06:54:17.994Z</time></trkpt><trkpt lat="45.86846566998356" lon="11.548856502375568"><ele>1099.0</ele><time>2026-04-08T06:54:18.994Z</time></trkpt><trkpt lat="45.86828516543589" lon="11.548915191114194"><ele>1099.0</ele><time>2026-04-08T06:54:19.994Z</time></trkpt><trkpt lat="45.86810635407291" lon="11.548969463214355"><ele>1099.0</ele><time>2026-04-08T06:54:20.994Z</time></trkpt><trkpt lat="45.867929446610596" lon="11.549022545763664"><ele>1099.0</ele><time>2026-04-08T06:54:21.994Z</time></trkpt><trkpt lat="45.867754063106204" lon="11.549074979562816"><ele>1097.6666666666665</ele><time>2026-04-08T06:54:22.994Z</time></trkpt><trkpt lat="45.86758305255505" lon="11.549134467878012"><ele>1096.3333333333333</ele><time>2026-04-08T06:54:23.994Z</time></trkpt><trkpt lat="45.86742150668073" lon="11.549220190898245"><ele>1095.0</ele><time>2026-04-08T06:54:24.994Z</time></trkpt><trkpt lat="45.86727330724315" lon="11.549348729583794"><ele>1095.0</ele><time>2026-04-08T06:54:25.994Z</time></trkpt><trkpt lat="45.8671468243108" lon="11.549508680927975"><ele>1095.0</ele><time>2026-04-08T06:54:26.994Z</time></trkpt><trkpt lat="45.86703737678071" lon="11.549701071924234"><ele>1095.0</ele><time>2026-04-08T06:54:27.994Z</time></trkpt><trkpt lat="45.866927903454375" lon="11.549903816080716"><ele>1093.6666666666667</ele><time>2026-04-08T06:54:28.994Z</time></trkpt><trkpt lat="45.866809910769405" lon="11.550104417248521"><ele>1092.3333333333335</ele><time>2026-04-08T06:54:29.994Z</time></trkpt><trkpt lat="45.86668253395909" lon="11.550297561304815"><ele>1091.0</ele><time>2026-04-08T06:54:30.994Z</time></trkpt><trkpt lat="45.86655693301623" lon="11.550489977000884"><ele>1094.3333333333335</ele><time>2026-04-08T06:54:31.994Z</time></trkpt><trkpt lat="45.86642997581774" lon="11.550677573202023"><ele>1097.6666666666667</ele><time>2026-04-08T06:54:32.994Z</time></trkpt><trkpt lat="45.866301311382536" lon="11.550860629007438"><ele>1101.0</ele><time>2026-04-08T06:54:33.994Z</time></trkpt><trkpt lat="45.866169723765715" lon="11.551029537777637"><ele>1101.0</ele><time>2026-04-08T06:54:34.994Z</time></trkpt><trkpt lat="45.866037671783076" lon="11.551192207437477"><ele>1101.0</ele><time>2026-04-08T06:54:35.994Z</time></trkpt><trkpt lat="45.86589885102885" lon="11.551338761938913"><ele>1101.0</ele><time>2026-04-08T06:54:36.994Z</time></trkpt><trkpt lat="45.86575915914348" lon="11.551476648658404"><ele>1101.0</ele><time>2026-04-08T06:54:37.994Z</time></trkpt><trkpt lat="45.86562081943668" lon="11.551609007156008"><ele>1101.0</ele><time>2026-04-08T06:54:38.994Z</time></trkpt><trkpt lat="45.86549189763026" lon="11.551732987895425"><ele>1101.0</ele><time>2026-04-08T06:54:39.994Z</time></trkpt><trkpt lat="45.86536520100809" lon="11.551846398731826"><ele>1101.0</ele><time>2026-04-08T06:54:40.994Z</time></trkpt><trkpt lat="45.86524913825471" lon="11.5519516805163"><ele>1101.0</ele><time>2026-04-08T06:54:41.994Z</time></trkpt><trkpt lat="45.86515241138616" lon="11.552039327775292"><ele>1101.0</ele><time>2026-04-08T06:54:42.994Z</time></trkpt><trkpt lat="45.8650729933812" lon="11.552111421542374"><ele>1101.0</ele><time>2026-04-08T06:54:43.994Z</time></trkpt><trkpt lat="45.86500887007653" lon="11.552166877959706"><ele>1101.0</ele><time>2026-04-08T06:54:44.994Z</time></trkpt><trkpt lat="45.86492656748678" lon="11.552236959495374"><ele>1100.3999999999999</ele><time>2026-04-08T06:54:46.994Z</time></trkpt><trkpt lat="45.86496438822715" lon="11.552382935905731"><ele>1099.8</ele><time>2026-04-08T06:54:47.994Z</time></trkpt><trkpt lat="45.86500175936959" lon="11.55247475816879"><ele>1099.1999999999998</ele><time>2026-04-08T06:54:48.994Z</time></trkpt><trkpt lat="45.865039443193524" lon="11.552576454846244"><ele>1098.6</ele><time>2026-04-08T06:54:49.993Z</time></trkpt><trkpt lat="45.86507904462211" lon="11.552693782457544"><ele>1098.0</ele><time>2026-04-08T06:54:50.993Z</time></trkpt><trkpt lat="45.86511916045844" lon="11.552839428318828"><ele>1100.5</ele><time>2026-04-08T06:54:51.993Z</time></trkpt><trkpt lat="45.86516336539835" lon="11.553009198411216"><ele>1103.0</ele><time>2026-04-08T06:54:52.993Z</time></trkpt><trkpt lat="45.86522652161591" lon="11.55319817242514"><ele>1105.5</ele><time>2026-04-08T06:54:53.993Z</time></trkpt><trkpt lat="45.86528901296513" lon="11.553391337470076"><ele>1108.0</ele><time>2026-04-08T06:54:54.993Z</time></trkpt><trkpt lat="45.86534783524364" lon="11.55357692957777"><ele>1106.5</ele><time>2026-04-08T06:54:55.993Z</time></trkpt><trkpt lat="45.86540868989926" lon="11.553757239502444"><ele>1105.0</ele><time>2026-04-08T06:54:56.993Z</time></trkpt><trkpt lat="45.865480585358426" lon="11.553925737508704"><ele>1103.5</ele><time>2026-04-08T06:54:57.993Z</time></trkpt><trkpt lat="45.86556241718756" lon="11.554075224915767"><ele>1102.0</ele><time>2026-04-08T06:54:58.993Z</time></trkpt><trkpt lat="45.865654956252854" lon="11.554206435114146"><ele>1102.0</ele><time>2026-04-08T06:54:59.993Z</time></trkpt><trkpt lat="45.86575946583238" lon="11.554322038530977"><ele>1102.0</ele><time>2026-04-08T06:55:00.993Z</time></trkpt><trkpt lat="45.865861502423954" lon="11.554442448223256"><ele>1102.0</ele><time>2026-04-08T06:55:01.993Z</time></trkpt><trkpt lat="45.865956121322576" lon="11.554578210469053"><ele>1102.0</ele><time>2026-04-08T06:55:02.993Z</time></trkpt><trkpt lat="45.8660407585209" lon="11.554726538037542"><ele>1103.75</ele><time>2026-04-08T06:55:03.993Z</time></trkpt><trkpt lat="45.866108568446634" lon="11.554890336018735"><ele>1105.5</ele><time>2026-04-08T06:55:04.993Z</time></trkpt><trkpt lat="45.86617280089257" lon="11.555048163345395"><ele>1107.25</ele><time>2026-04-08T06:55:05.993Z</time></trkpt><trkpt lat="45.866241827953345" lon="11.555205584211343"><ele>1109.0</ele><time>2026-04-08T06:55:06.993Z</time></trkpt><trkpt lat="45.86631701463369" lon="11.555354381841472"><ele>1107.75</ele><time>2026-04-08T06:55:07.993Z</time></trkpt><trkpt lat="45.86639808380631" lon="11.555500922593605"><ele>1106.5</ele><time>2026-04-08T06:55:08.993Z</time></trkpt><trkpt lat="45.86648611209817" lon="11.55563753665345"><ele>1105.25</ele><time>2026-04-08T06:55:09.993Z</time></trkpt><trkpt lat="45.86657074631967" lon="11.555769564005072"><ele>1104.0</ele><time>2026-04-08T06:55:10.993Z</time></trkpt><trkpt lat="45.866650065711376" lon="11.55591065418454"><ele>1104.0</ele><time>2026-04-08T06:55:11.993Z</time></trkpt><trkpt lat="45.86671494304034" lon="11.556066191621806"><ele>1104.0</ele><time>2026-04-08T06:55:12.993Z</time></trkpt><trkpt lat="45.866769090924656" lon="11.556223259232196"><ele>1104.0</ele><time>2026-04-08T06:55:13.993Z</time></trkpt><trkpt lat="45.86681941666582" lon="11.556367395053904"><ele>1104.0</ele><time>2026-04-08T06:55:14.993Z</time></trkpt><trkpt lat="45.866870073760374" lon="11.556503753601094"><ele>1104.2</ele><time>2026-04-08T06:55:15.993Z</time></trkpt><trkpt lat="45.86693004839147" lon="11.556626130589159"><ele>1104.4</ele><time>2026-04-08T06:55:16.993Z</time></trkpt><trkpt lat="45.86699516538466" lon="11.556740622678348"><ele>1104.6</ele><time>2026-04-08T06:55:17.993Z</time></trkpt><trkpt lat="45.86707643536951" lon="11.556838630878788"><ele>1104.8</ele><time>2026-04-08T06:55:18.993Z</time></trkpt><trkpt lat="45.86716228166559" lon="11.556933686261761"><ele>1105.0</ele><time>2026-04-08T06:55:19.993Z</time></trkpt><trkpt lat="45.867254215304854" lon="11.557022004623722"><ele>1104.2</ele><time>2026-04-08T06:55:20.993Z</time></trkpt><trkpt lat="45.86732207495073" lon="11.557131387498142"><ele>1103.4</ele><time>2026-04-08T06:55:21.993Z</time></trkpt><trkpt lat="45.867394352967644" lon="11.557222747702568"><ele>1102.6</ele><time>2026-04-08T06:55:22.993Z</time></trkpt><trkpt lat="45.86742582144581" lon="11.557353449554519"><ele>1101.8</ele><time>2026-04-08T06:55:23.995Z</time></trkpt><trkpt lat="45.867447985881576" lon="11.557484258179837"><ele>1101.0</ele><time>2026-04-08T06:55:24.994Z</time></trkpt><trkpt lat="45.86745742931229" lon="11.557625249450043"><ele>1101.0</ele><time>2026-04-08T06:55:25.994Z</time></trkpt><trkpt lat="45.86746004178898" lon="11.55777169735691"><ele>1101.0</ele><time>2026-04-08T06:55:26.995Z</time></trkpt><trkpt lat="45.86748496598116" lon="11.557915384084614"><ele>1101.0</ele><time>2026-04-08T06:55:27.995Z</time></trkpt><trkpt lat="45.86751712179412" lon="11.55804748101267"><ele>1101.0</ele><time>2026-04-08T06:55:28.995Z</time></trkpt><trkpt lat="45.867580015572564" lon="11.55815697794723"><ele>1101.0</ele><time>2026-04-08T06:55:29.994Z</time></trkpt><trkpt lat="45.867663557979135" lon="11.558240050360807"><ele>1101.5</ele><time>2026-04-08T06:55:30.995Z</time></trkpt><trkpt lat="45.86776647665201" lon="11.558312839912581"><ele>1102.0</ele><time>2026-04-08T06:55:31.995Z</time></trkpt><trkpt lat="45.867876555377585" lon="11.55839371687879"><ele>1102.5</ele><time>2026-04-08T06:55:32.994Z</time></trkpt><trkpt lat="45.86799057988824" lon="11.558477803387404"><ele>1103.0</ele><time>2026-04-08T06:55:33.994Z</time></trkpt><trkpt lat="45.86809986703769" lon="11.558584952810318"><ele>1103.5</ele><time>2026-04-08T06:55:34.994Z</time></trkpt><trkpt lat="45.86819754926608" lon="11.55872285118153"><ele>1104.0</ele><time>2026-04-08T06:55:35.994Z</time></trkpt><trkpt lat="45.868284883255484" lon="11.558886577090568"><ele>1104.5</ele><time>2026-04-08T06:55:36.995Z</time></trkpt><trkpt lat="45.868355297065705" lon="11.559074517133014"><ele>1105.0</ele><time>2026-04-08T06:55:37.995Z</time></trkpt><trkpt lat="45.8684378729689" lon="11.559258865744725"><ele>1105.0</ele><time>2026-04-08T06:55:38.995Z</time></trkpt><trkpt lat="45.8685275754606" lon="11.559449326119129"><ele>1105.0</ele><time>2026-04-08T06:55:39.995Z</time></trkpt><trkpt lat="45.86862970601417" lon="11.559631371101842"><ele>1105.0</ele><time>2026-04-08T06:55:40.995Z</time></trkpt><trkpt lat="45.868754349755335" lon="11.559794860675986"><ele>1105.0</ele><time>2026-04-08T06:55:41.995Z</time></trkpt><trkpt lat="45.86889093987976" lon="11.559939247106808"><ele>1105.0</ele><time>2026-04-08T06:55:42.995Z</time></trkpt><trkpt lat="45.869039176102454" lon="11.56006543760182"><ele>1105.0</ele><time>2026-04-08T06:55:43.995Z</time></trkpt><trkpt lat="45.86918271721153" lon="11.560213536781038"><ele>1106.0</ele><time>2026-04-08T06:55:44.995Z</time></trkpt><trkpt lat="45.869328777750624" lon="11.560365080047395"><ele>1107.0</ele><time>2026-04-08T06:55:45.995Z</time></trkpt><trkpt lat="45.869478161585114" lon="11.56051244643343"><ele>1108.0</ele><time>2026-04-08T06:55:46.995Z</time></trkpt><trkpt lat="45.869630904032064" lon="11.560654196564773"><ele>1108.0</ele><time>2026-04-08T06:55:47.995Z</time></trkpt><trkpt lat="45.869770843756825" lon="11.560807311774756"><ele>1108.0</ele><time>2026-04-08T06:55:48.994Z</time></trkpt><trkpt lat="45.86993486427303" lon="11.560921788036843"><ele>1108.0</ele><time>2026-04-08T06:55:49.994Z</time></trkpt><trkpt lat="45.87009676122887" lon="11.561036773846409"><ele>1108.6666666666665</ele><time>2026-04-08T06:55:50.994Z</time></trkpt><trkpt lat="45.87025515143068" lon="11.56114903948345"><ele>1109.3333333333333</ele><time>2026-04-08T06:55:51.994Z</time></trkpt><trkpt lat="45.870410032646724" lon="11.56126318818113"><ele>1110.0</ele><time>2026-04-08T06:55:52.994Z</time></trkpt><trkpt lat="45.87056221630437" lon="11.561380685177701"><ele>1110.0</ele><time>2026-04-08T06:55:53.994Z</time></trkpt><trkpt lat="45.87070670993487" lon="11.561505809854802"><ele>1110.0</ele><time>2026-04-08T06:55:54.994Z</time></trkpt><trkpt lat="45.87084428589316" lon="11.561648781174474"><ele>1110.0</ele><time>2026-04-08T06:55:55.994Z</time></trkpt><trkpt lat="45.87096458574534" lon="11.561811667961704"><ele>1110.6666666666667</ele><time>2026-04-08T06:55:56.994Z</time></trkpt><trkpt lat="45.87107003572925" lon="11.561999120556257"><ele>1111.3333333333335</ele><time>2026-04-08T06:55:57.994Z</time></trkpt><trkpt lat="45.87115971107446" lon="11.56220342747348"><ele>1112.0</ele><time>2026-04-08T06:55:58.994Z</time></trkpt><trkpt lat="45.87125799362709" lon="11.562393428650362"><ele>1112.0</ele><time>2026-04-08T06:55:59.994Z</time></trkpt><trkpt lat="45.87137800543549" lon="11.562560581270034"><ele>1112.0</ele><time>2026-04-08T06:56:00.994Z</time></trkpt><trkpt lat="45.87151240146629" lon="11.56270433397268"><ele>1112.0</ele><time>2026-04-08T06:56:01.994Z</time></trkpt><trkpt lat="45.87164873500507" lon="11.562843672951646"><ele>1113.0</ele><time>2026-04-08T06:56:02.994Z</time></trkpt><trkpt lat="45.871786745886716" lon="11.562981653556385"><ele>1114.0</ele><time>2026-04-08T06:56:03.994Z</time></trkpt><trkpt lat="45.87192607300102" lon="11.563118438820071"><ele>1115.0</ele><time>2026-04-08T06:56:04.994Z</time></trkpt><trkpt lat="45.87206080909117" lon="11.563260105363279"><ele>1115.0</ele><time>2026-04-08T06:56:05.994Z</time></trkpt><trkpt lat="45.87219713251887" lon="11.563404971871547"><ele>1115.0</ele><time>2026-04-08T06:56:06.994Z</time></trkpt><trkpt lat="45.87233247374716" lon="11.563547563427457"><ele>1115.0</ele><time>2026-04-08T06:56:07.994Z</time></trkpt><trkpt lat="45.872465263227795" lon="11.56368776275377"><ele>1115.0</ele><time>2026-04-08T06:56:08.994Z</time></trkpt><trkpt lat="45.87259845758288" lon="11.563830517593345"><ele>1115.0</ele><time>2026-04-08T06:56:09.994Z</time></trkpt><trkpt lat="45.87273203294842" lon="11.563976295687063"><ele>1115.0</ele><time>2026-04-08T06:56:10.994Z</time></trkpt><trkpt lat="45.87285829671113" lon="11.564117321092084"><ele>1116.6666666666667</ele><time>2026-04-08T06:56:11.994Z</time></trkpt><trkpt lat="45.87297883568654" lon="11.564257510613622"><ele>1118.3333333333333</ele><time>2026-04-08T06:56:12.994Z</time></trkpt><trkpt lat="45.873095535081255" lon="11.564392120723978"><ele>1120.0</ele><time>2026-04-08T06:56:13.994Z</time></trkpt><trkpt lat="45.87320670554458" lon="11.564525539146041"><ele>1121.0</ele><time>2026-04-08T06:56:14.994Z</time></trkpt><trkpt lat="45.87330656666194" lon="11.564634615487224"><ele>1122.0</ele><time>2026-04-08T06:56:15.994Z</time></trkpt><trkpt lat="45.87352734882414" lon="11.564765499482856"><ele>1123.0</ele><time>2026-04-08T06:56:17.994Z</time></trkpt><trkpt lat="45.873648127576075" lon="11.564786326459187"><ele>1123.0</ele><time>2026-04-08T06:56:18.994Z</time></trkpt><trkpt lat="45.8737615939016" lon="11.564805587193813"><ele>1123.0</ele><time>2026-04-08T06:56:19.994Z</time></trkpt><trkpt lat="45.87386746090196" lon="11.564822762560375"><ele>1123.0</ele><time>2026-04-08T06:56:20.994Z</time></trkpt><trkpt lat="45.87396581306153" lon="11.564840909109279"><ele>1123.0</ele><time>2026-04-08T06:56:21.994Z</time></trkpt><trkpt lat="45.87405929838703" lon="11.564879646485863"><ele>1123.0</ele><time>2026-04-08T06:56:22.994Z</time></trkpt><trkpt lat="45.87415079405733" lon="11.56494670763787"><ele>1123.0</ele><time>2026-04-08T06:56:23.994Z</time></trkpt><trkpt lat="45.87424462918209" lon="11.565030091718725"><ele>1123.0</ele><time>2026-04-08T06:56:24.994Z</time></trkpt><trkpt lat="45.87434621369165" lon="11.565134173392819"><ele>1123.0</ele><time>2026-04-08T06:56:25.994Z</time></trkpt><trkpt lat="45.874441836457315" lon="11.565232822004058"><ele>1123.0</ele><time>2026-04-08T06:56:26.994Z</time></trkpt><trkpt lat="45.87452406961076" lon="11.565336193590428"><ele>1123.75</ele><time>2026-04-08T06:56:27.994Z</time></trkpt><trkpt lat="45.87460107368678" lon="11.565459223726366"><ele>1124.5</ele><time>2026-04-08T06:56:28.994Z</time></trkpt><trkpt lat="45.87467459753099" lon="11.56558956745473"><ele>1125.25</ele><time>2026-04-08T06:56:29.994Z</time></trkpt><trkpt lat="45.87473889397316" lon="11.565735765640154"><ele>1126.0</ele><time>2026-04-08T06:56:30.994Z</time></trkpt><trkpt lat="45.874819198886314" lon="11.565863721750484"><ele>1126.0</ele><time>2026-04-08T06:56:31.994Z</time></trkpt><trkpt lat="45.87490369170336" lon="11.565987126647014"><ele>1126.0</ele><time>2026-04-08T06:56:32.994Z</time></trkpt><trkpt lat="45.874989278480946" lon="11.566103251545996"><ele>1126.0</ele><time>2026-04-08T06:56:33.994Z</time></trkpt><trkpt lat="45.87507297993862" lon="11.56622120120474"><ele>1126.0</ele><time>2026-04-08T06:56:34.994Z</time></trkpt><trkpt lat="45.87516367125257" lon="11.56634636131779"><ele>1126.0</ele><time>2026-04-08T06:56:35.994Z</time></trkpt><trkpt lat="45.875258812606866" lon="11.566469758444757"><ele>1126.0</ele><time>2026-04-08T06:56:36.994Z</time></trkpt><trkpt lat="45.875350749730735" lon="11.566592592605831"><ele>1126.0</ele><time>2026-04-08T06:56:37.994Z</time></trkpt><trkpt lat="45.87543976625034" lon="11.566715638334022"><ele>1126.0</ele><time>2026-04-08T06:56:38.994Z</time></trkpt><trkpt lat="45.8755310284515" lon="11.566828628370756"><ele>1126.0</ele><time>2026-04-08T06:56:39.994Z</time></trkpt><trkpt lat="45.87562175080955" lon="11.566947465611152"><ele>1126.0</ele><time>2026-04-08T06:56:40.994Z</time></trkpt><trkpt lat="45.87570008512365" lon="11.567056637669461"><ele>1126.0</ele><time>2026-04-08T06:56:41.994Z</time></trkpt><trkpt lat="45.8757767605298" lon="11.567168228780952"><ele>1126.0</ele><time>2026-04-08T06:56:42.994Z</time></trkpt><trkpt lat="45.8758485345402" lon="11.567282504221408"><ele>1126.0</ele><time>2026-04-08T06:56:43.994Z</time></trkpt><trkpt lat="45.87590980002695" lon="11.567383420498949"><ele>1126.6666666666665</ele><time>2026-04-08T06:56:44.994Z</time></trkpt><trkpt lat="45.87596645712718" lon="11.567484468872818"><ele>1127.3333333333333</ele><time>2026-04-08T06:56:45.994Z</time></trkpt><trkpt lat="45.87602439360822" lon="11.567575015963223"><ele>1128.0</ele><time>2026-04-08T06:56:46.994Z</time></trkpt><trkpt lat="45.87606676033487" lon="11.56765593245067"><ele>1128.6666666666667</ele><time>2026-04-08T06:56:47.994Z</time></trkpt><trkpt lat="45.876107582253844" lon="11.567735882346263"><ele>1129.3333333333335</ele><time>2026-04-08T06:56:48.994Z</time></trkpt><trkpt lat="45.876146862112655" lon="11.567813719856478"><ele>1130.0</ele><time>2026-04-08T06:56:49.994Z</time></trkpt><trkpt lat="45.876207382094705" lon="11.567952058580278"><ele>1129.9999999999998</ele><time>2026-04-08T06:56:51.994Z</time></trkpt><trkpt lat="45.87622874961869" lon="11.56804448147229"><ele>1130.0</ele><time>2026-04-08T06:56:55.994Z</time></trkpt><trkpt lat="45.876309699751694" lon="11.568010041419077"><ele>1130.0</ele><time>2026-04-08T06:57:42.994Z</time></trkpt><trkpt lat="45.87636865352431" lon="11.56796251802482"><ele>1130.0</ele><time>2026-04-08T06:57:48.994Z</time></trkpt><trkpt lat="45.87640458551758" lon="11.567887411736297"><ele>1130.0</ele><time>2026-04-08T06:57:53.994Z</time></trkpt><trkpt lat="45.87643589156195" lon="11.567796854657376"><ele>1129.9999999999998</ele><time>2026-04-08T06:57:59.994Z</time></trkpt><trkpt lat="45.87646195089955" lon="11.567705589978363"><ele>1130.0</ele><time>2026-04-08T06:58:05.994Z</time></trkpt><trkpt lat="45.876478925351556" lon="11.56760859554252"><ele>1129.9999999999998</ele><time>2026-04-08T06:58:10.994Z</time></trkpt><trkpt lat="45.8764958880808" lon="11.567514698874868"><ele>1130.0</ele><time>2026-04-08T06:58:15.994Z</time></trkpt><trkpt lat="45.876510102976276" lon="11.567418593761666"><ele>1130.0</ele><time>2026-04-08T06:58:20.994Z</time></trkpt><trkpt lat="45.876533948476876" lon="11.567328256957776"><ele>1130.0</ele><time>2026-04-08T06:58:25.994Z</time></trkpt><trkpt lat="45.8765497519767" lon="11.56723303000663"><ele>1130.0</ele><time>2026-04-08T06:58:30.994Z</time></trkpt><trkpt lat="45.87656259037557" lon="11.567142114124795"><ele>1129.9999999999998</ele><time>2026-04-08T06:58:35.994Z</time></trkpt><trkpt lat="45.87658300564296" lon="11.567055768928675"><ele>1130.0</ele><time>2026-04-08T06:58:39.994Z</time></trkpt><trkpt lat="45.876608305922076" lon="11.566955779240578"><ele>1129.8571428571427</ele><time>2026-04-08T06:58:44.994Z</time></trkpt><trkpt lat="45.8766333145593" lon="11.566849974864352"><ele>1129.7142857142858</ele><time>2026-04-08T06:58:49.993Z</time></trkpt><trkpt lat="45.876650507031805" lon="11.56675661679064"><ele>1129.5714285714284</ele><time>2026-04-08T06:58:54.993Z</time></trkpt><trkpt lat="45.87667045422767" lon="11.566668108601672"><ele>1129.4285714285713</ele><time>2026-04-08T06:58:59.993Z</time></trkpt><trkpt lat="45.87668217404753" lon="11.566572576110401"><ele>1129.2857142857142</ele><time>2026-04-08T06:59:03.993Z</time></trkpt><trkpt lat="45.876700917994285" lon="11.566476526349975"><ele>1129.142857142857</ele><time>2026-04-08T06:59:08.993Z</time></trkpt><trkpt lat="45.87672597389962" lon="11.566377543584828"><ele>1129.0</ele><time>2026-04-08T06:59:13.993Z</time></trkpt><trkpt lat="45.876751615547306" lon="11.566293303859199"><ele>1128.7142857142858</ele><time>2026-04-08T06:59:18.993Z</time></trkpt><trkpt lat="45.87678236373532" lon="11.566213400981223"><ele>1128.4285714285713</ele><time>2026-04-08T06:59:23.993Z</time></trkpt><trkpt lat="45.8768037142733" lon="11.56612214667016"><ele>1128.142857142857</ele><time>2026-04-08T06:59:29.993Z</time></trkpt><trkpt lat="45.87682958222332" lon="11.566021965803298"><ele>1127.857142857143</ele><time>2026-04-08T06:59:35.994Z</time></trkpt><trkpt lat="45.87685394212943" lon="11.56592560870225"><ele>1127.5714285714284</ele><time>2026-04-08T06:59:41.994Z</time></trkpt><trkpt lat="45.87687426590843" lon="11.565822538451823"><ele>1127.2857142857142</ele><time>2026-04-08T06:59:47.994Z</time></trkpt><trkpt lat="45.8768967647157" lon="11.565732797298793"><ele>1127.0</ele><time>2026-04-08T06:59:52.994Z</time></trkpt><trkpt lat="45.876915908468305" lon="11.565644545728366"><ele>1128.4285714285713</ele><time>2026-04-08T07:00:01.994Z</time></trkpt><trkpt lat="45.87694303240234" lon="11.56554945143226"><ele>1129.857142857143</ele><time>2026-04-08T07:00:08.994Z</time></trkpt><trkpt lat="45.87697021152324" lon="11.56545995696156"><ele>1131.2857142857142</ele><time>2026-04-08T07:00:16.993Z</time></trkpt><trkpt lat="45.87700696588718" lon="11.565373844375834"><ele>1132.7142857142858</ele><time>2026-04-08T07:00:24.993Z</time></trkpt><trkpt lat="45.87704867668982" lon="11.565301959019527"><ele>1134.142857142857</ele><time>2026-04-08T07:00:31.993Z</time></trkpt><trkpt lat="45.87709757661383" lon="11.565235782136766"><ele>1135.5714285714284</ele><time>2026-04-08T07:00:38.993Z</time></trkpt><trkpt lat="45.877157927587305" lon="11.565189832180211"><ele>1137.0</ele><time>2026-04-08T07:00:45.993Z</time></trkpt><trkpt lat="45.87720867124463" lon="11.565129469165534"><ele>1138.7142857142856</ele><time>2026-04-08T07:00:52.993Z</time></trkpt><trkpt lat="45.87727580214081" lon="11.565128278894784"><ele>1140.4285714285713</ele><time>2026-04-08T07:00:59.993Z</time></trkpt><trkpt lat="45.87732153189775" lon="11.565058993454194"><ele>1142.142857142857</ele><time>2026-04-08T07:01:04.993Z</time></trkpt><trkpt lat="45.877378237960485" lon="11.564995051682708"><ele>1143.8571428571427</ele><time>2026-04-08T07:01:10.993Z</time></trkpt><trkpt lat="45.87742126812122" lon="11.564916651112277"><ele>1145.5714285714284</ele><time>2026-04-08T07:01:16.993Z</time></trkpt><trkpt lat="45.877472541964494" lon="11.564843689261895"><ele>1147.2857142857142</ele><time>2026-04-08T07:01:22.993Z</time></trkpt><trkpt lat="45.87753190704947" lon="11.564787668948634"><ele>1149.0</ele><time>2026-04-08T07:01:52.993Z</time></trkpt><trkpt lat="45.87759766231369" lon="11.564744263398696"><ele>1150.0</ele><time>2026-04-08T07:01:59.993Z</time></trkpt><trkpt lat="45.87766135852285" lon="11.56473922418366"><ele>1151.0</ele><time>2026-04-08T07:02:04.993Z</time></trkpt><trkpt lat="45.87773366007624" lon="11.564751971534946"><ele>1152.0</ele><time>2026-04-08T07:02:10.993Z</time></trkpt><trkpt lat="45.87779788398089" lon="11.564756519989725"><ele>1153.0</ele><time>2026-04-08T07:02:15.993Z</time></trkpt><trkpt lat="45.877861422097425" lon="11.56477558791198"><ele>1154.0</ele><time>2026-04-08T07:02:20.993Z</time></trkpt><trkpt lat="45.877926865226605" lon="11.5647856632569"><ele>1155.0</ele><time>2026-04-08T07:02:25.993Z</time></trkpt><trkpt lat="45.877990711919104" lon="11.564794088623964"><ele>1156.0</ele><time>2026-04-08T07:02:30.993Z</time></trkpt><trkpt lat="45.87805771901187" lon="11.56480829892428"><ele>1156.0</ele><time>2026-04-08T07:02:35.993Z</time></trkpt><trkpt lat="45.878130400254285" lon="11.56480980301925"><ele>1156.0</ele><time>2026-04-08T07:02:41.993Z</time></trkpt><trkpt lat="45.87819377670642" lon="11.5647606713275"><ele>1156.0</ele><time>2026-04-08T07:02:47.993Z</time></trkpt><trkpt lat="45.87825332526152" lon="11.56471417306513"><ele>1156.0</ele><time>2026-04-08T07:02:54.992Z</time></trkpt><trkpt lat="45.87831326438126" lon="11.564666748313812"><ele>1156.0</ele><time>2026-04-08T07:03:01.992Z</time></trkpt><trkpt lat="45.87835166580938" lon="11.564587112786493"><ele>1156.0</ele><time>2026-04-08T07:03:08.992Z</time></trkpt><trkpt lat="45.878406259833405" lon="11.564522872290427"><ele>1156.0</ele><time>2026-04-08T07:03:20.992Z</time></trkpt><trkpt lat="45.87846734785301" lon="11.564473916275064"><ele>1155.4285714285716</ele><time>2026-04-08T07:03:29.992Z</time></trkpt><trkpt lat="45.87853410884201" lon="11.564443597564123"><ele>1154.857142857143</ele><time>2026-04-08T07:03:40.992Z</time></trkpt><trkpt lat="45.87858018166371" lon="11.564377545559873"><ele>1154.2857142857142</ele><time>2026-04-08T07:03:48.993Z</time></trkpt><trkpt lat="45.87853711311788" lon="11.564445914501361"><ele>1153.7142857142858</ele><time>2026-04-08T07:04:01.993Z</time></trkpt><trkpt lat="45.878599212661264" lon="11.564491979395315"><ele>1153.142857142857</ele><time>2026-04-08T07:04:12.993Z</time></trkpt><trkpt lat="45.878641202306746" lon="11.5644044863386"><ele>1152.5714285714287</ele><time>2026-04-08T07:04:38.993Z</time></trkpt><trkpt lat="45.87865232726666" lon="11.564312393983789"><ele>1152.0</ele><time>2026-04-08T07:09:05.992Z</time></trkpt><trkpt lat="45.87873108439378" lon="11.564272378848665"><ele>1152.0000000000002</ele><time>2026-04-08T07:10:19.991Z</time></trkpt><trkpt lat="45.878717246041724" lon="11.56417685304459"><ele>1152.0</ele><time>2026-04-08T07:12:01.99Z</time></trkpt><trkpt lat="45.87881231472055" lon="11.564119043927402"><ele>1152.0</ele><time>2026-04-08T07:14:17.992Z</time></trkpt><trkpt lat="45.87887697353407" lon="11.564083141921035"><ele>1152.0</ele><time>2026-04-08T07:16:40.991Z</time></trkpt><trkpt lat="45.87884106333563" lon="11.564004660035872"><ele>1152.0</ele><time>2026-04-08T07:17:04.991Z</time></trkpt><trkpt lat="45.87878085334785" lon="11.564050319832472"><ele>1152.0000000000002</ele><time>2026-04-08T07:22:29.988Z</time></trkpt><trkpt lat="45.8788383409046" lon="11.564011702082324"><ele>1152.0</ele><time>2026-04-08T07:22:37.987Z</time></trkpt><trkpt lat="45.87888549780981" lon="11.563937562021685"><ele>1152.0000000000002</ele><time>2026-04-08T07:25:10.986Z</time></trkpt><trkpt lat="45.87883923853317" lon="11.563859213837752"><ele>1152.0</ele><time>2026-04-08T07:25:25.986Z</time></trkpt><trkpt lat="45.87877508662568" lon="11.563848407780123"><ele>1152.0</ele><time>2026-04-08T07:26:45.985Z</time></trkpt><trkpt lat="45.878742310189985" lon="11.563937787515387"><ele>1152.0</ele><time>2026-04-08T07:27:15.987Z</time></trkpt><trkpt lat="45.87880730637902" lon="11.563918310552744"><ele>1152.0</ele><time>2026-04-08T07:27:51.986Z</time></trkpt><trkpt lat="45.878871835275106" lon="11.563941706377241"><ele>1152.0000000000002</ele><time>2026-04-08T07:29:15.986Z</time></trkpt><trkpt lat="45.87893727886488" lon="11.563857809534088"><ele>1152.0</ele><time>2026-04-08T07:29:37.986Z</time></trkpt><trkpt lat="45.878881120644635" lon="11.56381558637064"><ele>1152.0000000000002</ele><time>2026-04-08T07:30:18.985Z</time></trkpt><trkpt lat="45.87885645563817" lon="11.563923541863721"><ele>1152.0</ele><time>2026-04-08T07:30:49.985Z</time></trkpt><trkpt lat="45.87880280100317" lon="11.56398843022893"><ele>1152.0</ele><time>2026-04-08T07:32:34.985Z</time></trkpt><trkpt lat="45.878813077694375" lon="11.564089007313589"><ele>1152.0</ele><time>2026-04-08T07:32:50.985Z</time></trkpt><trkpt lat="45.87880130908632" lon="11.564181780137984"><ele>1152.0</ele><time>2026-04-08T07:33:17.986Z</time></trkpt><trkpt lat="45.87888469408209" lon="11.56415272627092"><ele>1152.0000000000002</ele><time>2026-04-08T07:39:40.983Z</time></trkpt><trkpt lat="45.87895465227882" lon="11.564172630019218"><ele>1152.0</ele><time>2026-04-08T07:39:55.983Z</time></trkpt><trkpt lat="45.87904263387502" lon="11.564069662601414"><ele>1152.0000000000002</ele><time>2026-04-08T07:40:25.982Z</time></trkpt><trkpt lat="45.87912032938656" lon="11.564045393559898"><ele>1152.0</ele><time>2026-04-08T07:41:55.983Z</time></trkpt><trkpt lat="45.87916071940226" lon="11.563940117194353"><ele>1152.0</ele><time>2026-04-08T07:43:20.982Z</time></trkpt><trkpt lat="45.87922408691719" lon="11.56390268407042"><ele>1152.0</ele><time>2026-04-08T07:43:35.982Z</time></trkpt><trkpt lat="45.8792746077222" lon="11.56383819681872"><ele>1152.0</ele><time>2026-04-08T07:43:44.983Z</time></trkpt><trkpt lat="45.87929206242787" lon="11.563750190839912"><ele>1152.0000000000002</ele><time>2026-04-08T07:43:55.983Z</time></trkpt><trkpt lat="45.87935504445143" lon="11.563757881717713"><ele>1152.0</ele><time>2026-04-08T07:44:17.982Z</time></trkpt><trkpt lat="45.87940495503837" lon="11.563684246520692"><ele>1152.0</ele><time>2026-04-08T07:44:26.982Z</time></trkpt><trkpt lat="45.879422019474" lon="11.563588250978105"><ele>1152.0</ele><time>2026-04-08T07:44:35.982Z</time></trkpt><trkpt lat="45.8793872926482" lon="11.563511927700818"><ele>1152.0</ele><time>2026-04-08T07:44:51.982Z</time></trkpt><trkpt lat="45.87931704767677" lon="11.563534211963681"><ele>1152.0</ele><time>2026-04-08T07:45:38.981Z</time></trkpt><trkpt lat="45.87925341389626" lon="11.563596169345168"><ele>1152.0</ele><time>2026-04-08T07:45:54.983Z</time></trkpt><trkpt lat="45.87933035363106" lon="11.563462907585082"><ele>1152.0</ele><time>2026-04-08T07:53:01.98Z</time></trkpt><trkpt lat="45.87929856228819" lon="11.563345003398686"><ele>1152.0000000000002</ele><time>2026-04-08T07:53:35.98Z</time></trkpt><trkpt lat="45.87937477003366" lon="11.56332820834421"><ele>1152.0</ele><time>2026-04-08T07:55:52.978Z</time></trkpt><trkpt lat="45.87938572955968" lon="11.563232335948964"><ele>1152.0</ele><time>2026-04-08T07:56:07.978Z</time></trkpt><trkpt lat="45.879425436898124" lon="11.563303456288184"><ele>1152.0</ele><time>2026-04-08T07:56:56.979Z</time></trkpt><trkpt lat="45.87938003223036" lon="11.56323971690584"><ele>1152.0</ele><time>2026-04-08T07:57:35.978Z</time></trkpt><trkpt lat="45.87942597997769" lon="11.563172347527605"><ele>1152.0000000000002</ele><time>2026-04-08T07:57:51.978Z</time></trkpt><trkpt lat="45.87948158312443" lon="11.563122132006768"><ele>1152.0</ele><time>2026-04-08T07:58:04.978Z</time></trkpt><trkpt lat="45.87952640309025" lon="11.563047859502177"><ele>1152.0000000000002</ele><time>2026-04-08T07:58:57.978Z</time></trkpt><trkpt lat="45.879547257112115" lon="11.56295732538207"><ele>1152.0</ele><time>2026-04-08T07:59:12.978Z</time></trkpt><trkpt lat="45.879488047302914" lon="11.562899011779022"><ele>1152.0</ele><time>2026-04-08T07:59:25.978Z</time></trkpt><trkpt lat="45.879425483702285" lon="11.562880973289502"><ele>1152.0</ele><time>2026-04-08T07:59:32.978Z</time></trkpt><trkpt lat="45.87936096516628" lon="11.562839613565302"><ele>1152.0</ele><time>2026-04-08T08:01:31.976Z</time></trkpt><trkpt lat="45.87937526406919" lon="11.562714990206512"><ele>1152.0000000000002</ele><time>2026-04-08T08:02:06.976Z</time></trkpt><trkpt lat="45.87931047913177" lon="11.562725722539948"><ele>1152.0</ele><time>2026-04-08T08:02:49.975Z</time></trkpt><trkpt lat="45.87935986486577" lon="11.56279064040559"><ele>1152.3333333333333</ele><time>2026-04-08T08:03:20.975Z</time></trkpt><trkpt lat="45.87942600533111" lon="11.562805547643064"><ele>1152.6666666666667</ele><time>2026-04-08T08:03:43.975Z</time></trkpt><trkpt lat="45.87953517918206" lon="11.56273011992403"><ele>1153.0</ele><time>2026-04-08T08:04:15.975Z</time></trkpt><trkpt lat="45.87952441878078" lon="11.562625902329952"><ele>1153.3333333333335</ele><time>2026-04-08T08:04:43.974Z</time></trkpt><trkpt lat="45.87955546538543" lon="11.562545501737137"><ele>1153.6666666666667</ele><time>2026-04-08T08:04:50.974Z</time></trkpt><trkpt lat="45.87961054522965" lon="11.562602242682695"><ele>1154.0</ele><time>2026-04-08T08:05:16.974Z</time></trkpt><trkpt lat="45.8796818277708" lon="11.562615700561402"><ele>1154.0</ele><time>2026-04-08T08:09:01.971Z</time></trkpt><trkpt lat="45.879635612421474" lon="11.562688712233262"><ele>1154.0</ele><time>2026-04-08T08:09:20.972Z</time></trkpt><trkpt lat="45.87958926657612" lon="11.562615506688775"><ele>1154.0</ele><time>2026-04-08T08:09:29.972Z</time></trkpt><trkpt lat="45.879660335683816" lon="11.562577331359055"><ele>1154.0</ele><time>2026-04-08T08:09:45.971Z</time></trkpt><trkpt lat="45.879716594131715" lon="11.562635621290742"><ele>1154.0</ele><time>2026-04-08T08:09:52.971Z</time></trkpt><trkpt lat="45.87974494986837" lon="11.562726566032001"><ele>1154.0</ele><time>2026-04-08T08:10:26.971Z</time></trkpt><trkpt lat="45.879797556465" lon="11.562779354075552"><ele>1154.0</ele><time>2026-04-08T08:10:40.973Z</time></trkpt><trkpt lat="45.87982169334654" lon="11.562864066267382"><ele>1153.7142857142858</ele><time>2026-04-08T08:10:46.974Z</time></trkpt><trkpt lat="45.87989023323829" lon="11.562928141893783"><ele>1153.4285714285716</ele><time>2026-04-08T08:10:53.974Z</time></trkpt><trkpt lat="45.87994506494261" lon="11.562989009365747"><ele>1153.1428571428573</ele><time>2026-04-08T08:11:00.975Z</time></trkpt><trkpt lat="45.879957836557644" lon="11.563080142517087"><ele>1152.857142857143</ele><time>2026-04-08T08:11:07.975Z</time></trkpt><trkpt lat="45.880009643803106" lon="11.563132080779447"><ele>1152.5714285714287</ele><time>2026-04-08T08:11:11.975Z</time></trkpt><trkpt lat="45.880078156176815" lon="11.563114242528359"><ele>1152.2857142857144</ele><time>2026-04-08T08:11:18.976Z</time></trkpt><trkpt lat="45.8800793859069" lon="11.563012100157685"><ele>1152.0</ele><time>2026-04-08T08:11:27.974Z</time></trkpt><trkpt lat="45.88012741930046" lon="11.563076753375459"><ele>1149.2857142857144</ele><time>2026-04-08T08:12:04.975Z</time></trkpt><trkpt lat="45.880188258846886" lon="11.563108302589745"><ele>1146.5714285714287</ele><time>2026-04-08T08:12:37.974Z</time></trkpt><trkpt lat="45.880225414426576" lon="11.563033481034008"><ele>1143.857142857143</ele><time>2026-04-08T08:12:47.974Z</time></trkpt><trkpt lat="45.88021498464622" lon="11.562941811158069"><ele>1141.1428571428573</ele><time>2026-04-08T08:12:55.974Z</time></trkpt><trkpt lat="45.88027706794587" lon="11.562991123471448"><ele>1138.4285714285716</ele><time>2026-04-08T08:14:06.973Z</time></trkpt><trkpt lat="45.88029694135369" lon="11.56309227439477"><ele>1135.7142857142858</ele><time>2026-04-08T08:15:26.972Z</time></trkpt><trkpt lat="45.880298744859175" lon="11.563188891989732"><ele>1133.0</ele><time>2026-04-08T08:16:29.972Z</time></trkpt><trkpt lat="45.88030286271384" lon="11.56328088527415"><ele>1133.0</ele><time>2026-04-08T08:16:35.972Z</time></trkpt><trkpt lat="45.88032054332774" lon="11.563419769397047"><ele>1133.0</ele><time>2026-04-08T08:17:05.972Z</time></trkpt><trkpt lat="45.88026571548464" lon="11.563468921161476"><ele>1133.0</ele><time>2026-04-08T08:17:31.972Z</time></trkpt><trkpt lat="45.88028146415734" lon="11.563556517248522"><ele>1133.0</ele><time>2026-04-08T08:17:40.972Z</time></trkpt><trkpt lat="45.880243475093856" lon="11.563631542936534"><ele>1133.0</ele><time>2026-04-08T08:19:12.97Z</time></trkpt><trkpt lat="45.88018249771021" lon="11.563663262192872"><ele>1133.0</ele><time>2026-04-08T08:19:26.97Z</time></trkpt><trkpt lat="45.880120692263745" lon="11.563692151503233"><ele>1133.0</ele><time>2026-04-08T08:19:54.97Z</time></trkpt><trkpt lat="45.88013446567808" lon="11.563780853126316"><ele>1134.8333333333335</ele><time>2026-04-08T08:20:07.97Z</time></trkpt><trkpt lat="45.88018386416821" lon="11.56385102494523"><ele>1136.6666666666667</ele><time>2026-04-08T08:20:27.97Z</time></trkpt><trkpt lat="45.88009460404853" lon="11.56392001539959"><ele>1138.5</ele><time>2026-04-08T08:20:55.97Z</time></trkpt><trkpt lat="45.88012216156277" lon="11.56400684410537"><ele>1140.3333333333333</ele><time>2026-04-08T08:21:06.969Z</time></trkpt><trkpt lat="45.880081618985905" lon="11.564077913229692"><ele>1142.1666666666665</ele><time>2026-04-08T08:21:34.969Z</time></trkpt><trkpt lat="45.88007104971278" lon="11.564171402502195"><ele>1144.0</ele><time>2026-04-08T08:23:36.968Z</time></trkpt><trkpt lat="45.8801402279714" lon="11.564044001008666"><ele>1143.9999999999998</ele><time>2026-04-08T08:25:09.967Z</time></trkpt><trkpt lat="45.88007079301739" lon="11.564047398843966"><ele>1144.0</ele><time>2026-04-08T08:25:33.967Z</time></trkpt><trkpt lat="45.880004533880914" lon="11.56409514270499"><ele>1144.0</ele><time>2026-04-08T08:25:40.967Z</time></trkpt><trkpt lat="45.87994755362624" lon="11.564164335713032"><ele>1144.0</ele><time>2026-04-08T08:25:55.967Z</time></trkpt><trkpt lat="45.879907099820684" lon="11.564245916966675"><ele>1144.0</ele><time>2026-04-08T08:26:12.967Z</time></trkpt><trkpt lat="45.87986722674648" lon="11.56431681206133"><ele>1143.9999999999998</ele><time>2026-04-08T08:26:39.966Z</time></trkpt><trkpt lat="45.87991646203749" lon="11.56438042272359"><ele>1144.0</ele><time>2026-04-08T08:26:59.969Z</time></trkpt><trkpt lat="45.87997524425927" lon="11.564500051205421"><ele>1143.2</ele><time>2026-04-08T08:27:17.97Z</time></trkpt><trkpt lat="45.879966943595505" lon="11.56460329418675"><ele>1142.4</ele><time>2026-04-08T08:27:47.97Z</time></trkpt><trkpt lat="45.88003568468296" lon="11.564809153371584"><ele>1141.6</ele><time>2026-04-08T08:29:00.97Z</time></trkpt><trkpt lat="45.88005529997142" lon="11.564898279787592"><ele>1140.8</ele><time>2026-04-08T08:29:06.97Z</time></trkpt><trkpt lat="45.88009231654518" lon="11.564976497541734"><ele>1140.0</ele><time>2026-04-08T08:29:15.97Z</time></trkpt><trkpt lat="45.880210362093266" lon="11.565011207432656"><ele>1137.857142857143</ele><time>2026-04-08T08:29:37.969Z</time></trkpt><trkpt lat="45.880226019546896" lon="11.565107421743074"><ele>1135.7142857142858</ele><time>2026-04-08T08:29:52.969Z</time></trkpt><trkpt lat="45.8801868493858" lon="11.565179890023895"><ele>1133.5714285714287</ele><time>2026-04-08T08:30:12.97Z</time></trkpt><trkpt lat="45.88023651285936" lon="11.565241250279119"><ele>1131.4285714285716</ele><time>2026-04-08T08:31:38.968Z</time></trkpt><trkpt lat="45.88016039537516" lon="11.565255832271085"><ele>1129.2857142857144</ele><time>2026-04-08T08:31:57.968Z</time></trkpt><trkpt lat="45.880133745448056" lon="11.565351880029839"><ele>1127.142857142857</ele><time>2026-04-08T08:32:08.968Z</time></trkpt><trkpt lat="45.88013893683716" lon="11.56544240103164"><ele>1125.0</ele><time>2026-04-08T08:32:15.968Z</time></trkpt><trkpt lat="45.88015829331291" lon="11.565534949299346"><ele>1125.0</ele><time>2026-04-08T08:32:25.968Z</time></trkpt><trkpt lat="45.8801746817953" lon="11.565626170278287"><ele>1125.0</ele><time>2026-04-08T08:32:34.968Z</time></trkpt><trkpt lat="45.88024696122207" lon="11.565654554377025"><ele>1125.0</ele><time>2026-04-08T08:35:07.967Z</time></trkpt><trkpt lat="45.88030878855355" lon="11.56562911680962"><ele>1125.0</ele><time>2026-04-08T08:35:35.966Z</time></trkpt><trkpt lat="45.88029391521075" lon="11.565538445178088"><ele>1125.0</ele><time>2026-04-08T08:35:49.966Z</time></trkpt><trkpt lat="45.8802651608259" lon="11.565452144879233"><ele>1125.0</ele><time>2026-04-08T08:35:53.966Z</time></trkpt><trkpt lat="45.88025165236474" lon="11.565351506958278"><ele>1125.0</ele><time>2026-04-08T08:35:59.966Z</time></trkpt><trkpt lat="45.88024149175707" lon="11.56525210379544"><ele>1124.7142857142858</ele><time>2026-04-08T08:36:06.966Z</time></trkpt><trkpt lat="45.88027736166939" lon="11.565172099169052"><ele>1124.4285714285716</ele><time>2026-04-08T08:36:23.966Z</time></trkpt><trkpt lat="45.880298153569605" lon="11.565077991230062"><ele>1124.142857142857</ele><time>2026-04-08T08:36:34.966Z</time></trkpt><trkpt lat="45.8802493030026" lon="11.56500460160679"><ele>1123.857142857143</ele><time>2026-04-08T08:36:43.966Z</time></trkpt><trkpt lat="45.88026160632828" lon="11.564880019159054"><ele>1123.5714285714284</ele><time>2026-04-08T08:36:56.966Z</time></trkpt><trkpt lat="45.88028592299099" lon="11.56478844289191"><ele>1123.2857142857142</ele><time>2026-04-08T08:37:02.966Z</time></trkpt><trkpt lat="45.88029267143918" lon="11.564687512604813"><ele>1123.0</ele><time>2026-04-08T08:37:11.966Z</time></trkpt><trkpt lat="45.88021122988209" lon="11.564506251384149"><ele>1122.5714285714284</ele><time>2026-04-08T08:38:02.965Z</time></trkpt><trkpt lat="45.88014355960227" lon="11.564502088700506"><ele>1122.142857142857</ele><time>2026-04-08T08:38:20.965Z</time></trkpt><trkpt lat="45.88008578680995" lon="11.564458207485275"><ele>1121.7142857142858</ele><time>2026-04-08T08:38:35.966Z</time></trkpt><trkpt lat="45.88002267516933" lon="11.564426186019915"><ele>1121.2857142857142</ele><time>2026-04-08T08:38:57.966Z</time></trkpt><trkpt lat="45.87996304067784" lon="11.564374910336738"><ele>1120.857142857143</ele><time>2026-04-08T08:39:06.966Z</time></trkpt><trkpt lat="45.879928146162776" lon="11.564250250009179"><ele>1120.4285714285713</ele><time>2026-04-08T08:39:37.966Z</time></trkpt><trkpt lat="45.87986660546805" lon="11.564211997198623"><ele>1120.0</ele><time>2026-04-08T08:39:48.965Z</time></trkpt><trkpt lat="45.87980208555475" lon="11.564221253859174"><ele>1124.0</ele><time>2026-04-08T08:39:54.965Z</time></trkpt><trkpt lat="45.879745435330264" lon="11.564261200570193"><ele>1128.0</ele><time>2026-04-08T08:40:08.965Z</time></trkpt><trkpt lat="45.879676003635865" lon="11.564233731167974"><ele>1132.0</ele><time>2026-04-08T08:40:21.965Z</time></trkpt><trkpt lat="45.87964892750454" lon="11.564318337652981"><ele>1136.0</ele><time>2026-04-08T08:40:34.965Z</time></trkpt><trkpt lat="45.879637542202666" lon="11.564496158141385"><ele>1140.0</ele><time>2026-04-08T08:41:15.965Z</time></trkpt><trkpt lat="45.879702603153085" lon="11.564505127177116"><ele>1144.0</ele><time>2026-04-08T08:41:54.964Z</time></trkpt><trkpt lat="45.87965415923723" lon="11.56444410030843"><ele>1143.9999999999998</ele><time>2026-04-08T08:42:08.964Z</time></trkpt><trkpt lat="45.8795919398985" lon="11.564466720523994"><ele>1144.0</ele><time>2026-04-08T08:42:17.964Z</time></trkpt><trkpt lat="45.879528944724896" lon="11.564431538580088"><ele>1144.0</ele><time>2026-04-08T08:42:26.964Z</time></trkpt><trkpt lat="45.87944262871833" lon="11.564407203453872"><ele>1144.0</ele><time>2026-04-08T08:44:01.965Z</time></trkpt><trkpt lat="45.879396573805074" lon="11.564534719311638"><ele>1144.0</ele><time>2026-04-08T08:45:18.965Z</time></trkpt><trkpt lat="45.87936010648719" lon="11.564455315651431"><ele>1143.9999999999998</ele><time>2026-04-08T08:49:48.965Z</time></trkpt><trkpt lat="45.87936355904137" lon="11.564365019064885"><ele>1144.0</ele><time>2026-04-08T08:49:54.965Z</time></trkpt><trkpt lat="45.87943327632312" lon="11.564305127947609"><ele>1143.9999999999998</ele><time>2026-04-08T08:51:01.964Z</time></trkpt><trkpt lat="45.87940378836219" lon="11.564221909510353"><ele>1144.0</ele><time>2026-04-08T08:51:42.965Z</time></trkpt><trkpt lat="45.879363518734095" lon="11.56414058290086"><ele>1144.0</ele><time>2026-04-08T08:51:48.965Z</time></trkpt><trkpt lat="45.879391473445246" lon="11.564058302504986"><ele>1144.0</ele><time>2026-04-08T08:52:31.965Z</time></trkpt><trkpt lat="45.879454588988544" lon="11.564085998098914"><ele>1144.0</ele><time>2026-04-08T08:52:41.964Z</time></trkpt><trkpt lat="45.879517368682784" lon="11.564118131970456"><ele>1143.9999999999998</ele><time>2026-04-08T08:52:54.964Z</time></trkpt><trkpt lat="45.87956921378203" lon="11.56405411347271"><ele>1144.0</ele><time>2026-04-08T08:53:04.964Z</time></trkpt><trkpt lat="45.8796232073577" lon="11.563985855018942"><ele>1143.9999999999998</ele><time>2026-04-08T08:53:16.966Z</time></trkpt><trkpt lat="45.879680046383996" lon="11.563943007661408"><ele>1144.0</ele><time>2026-04-08T08:53:27.965Z</time></trkpt><trkpt lat="45.8797290703438" lon="11.5638811405628"><ele>1144.0</ele><time>2026-04-08T08:53:34.965Z</time></trkpt><trkpt lat="45.87978391059407" lon="11.563819712971144"><ele>1144.0</ele><time>2026-04-08T08:53:47.965Z</time></trkpt><trkpt lat="45.87984006801763" lon="11.563772207346792"><ele>1144.0</ele><time>2026-04-08T08:53:59.964Z</time></trkpt><trkpt lat="45.87989503458439" lon="11.563710705569857"><ele>1143.9999999999998</ele><time>2026-04-08T08:54:07.964Z</time></trkpt><trkpt lat="45.87993254828227" lon="11.563635680551007"><ele>1144.0</ele><time>2026-04-08T08:54:13.964Z</time></trkpt><trkpt lat="45.879970604373455" lon="11.563554203870881"><ele>1145.142857142857</ele><time>2026-04-08T08:54:26.964Z</time></trkpt><trkpt lat="45.87997016103571" lon="11.563455931131976"><ele>1146.2857142857142</ele><time>2026-04-08T08:54:33.964Z</time></trkpt><trkpt lat="45.879932690287625" lon="11.563370305236191"><ele>1147.4285714285716</ele><time>2026-04-08T08:54:41.964Z</time></trkpt><trkpt lat="45.87988472083728" lon="11.563305062855695"><ele>1148.5714285714284</ele><time>2026-04-08T08:54:47.964Z</time></trkpt><trkpt lat="45.87982291271611" lon="11.563254466094836"><ele>1149.7142857142858</ele><time>2026-04-08T08:54:53.964Z</time></trkpt><trkpt lat="45.879755121911145" lon="11.563262268060418"><ele>1150.857142857143</ele><time>2026-04-08T08:54:59.964Z</time></trkpt><trkpt lat="45.87968913428268" lon="11.563301556706698"><ele>1152.0</ele><time>2026-04-08T08:55:11.964Z</time></trkpt><trkpt lat="45.87962316875952" lon="11.56331575328281"><ele>1152.0000000000002</ele><time>2026-04-08T08:55:20.964Z</time></trkpt><trkpt lat="45.87955524111023" lon="11.56331443152469"><ele>1152.0</ele><time>2026-04-08T08:55:29.964Z</time></trkpt><trkpt lat="45.8794946465326" lon="11.563285195114943"><ele>1152.0</ele><time>2026-04-08T08:55:40.965Z</time></trkpt><trkpt lat="45.87943072327344" lon="11.563246121135142"><ele>1152.0</ele><time>2026-04-08T08:55:49.965Z</time></trkpt><trkpt lat="45.879367134158585" lon="11.563245572517912"><ele>1152.0</ele><time>2026-04-08T08:55:59.965Z</time></trkpt><trkpt lat="45.879294911898405" lon="11.563224362330669"><ele>1152.0000000000002</ele><time>2026-04-08T08:56:09.965Z</time></trkpt><trkpt lat="45.879231168418656" lon="11.563234089801954"><ele>1152.0</ele><time>2026-04-08T08:56:21.964Z</time></trkpt><trkpt lat="45.879169570715526" lon="11.563261595155437"><ele>1152.0000000000002</ele><time>2026-04-08T08:56:29.964Z</time></trkpt><trkpt lat="45.87913201631166" lon="11.563336624380712"><ele>1152.0</ele><time>2026-04-08T08:56:44.964Z</time></trkpt><trkpt lat="45.879100346288126" lon="11.563424352508106"><ele>1152.0</ele><time>2026-04-08T08:56:54.964Z</time></trkpt><trkpt lat="45.87910195495171" lon="11.563521716274362"><ele>1152.0</ele><time>2026-04-08T08:57:04.964Z</time></trkpt><trkpt lat="45.87914054274731" lon="11.563598656147626"><ele>1152.0</ele><time>2026-04-08T08:57:14.964Z</time></trkpt><trkpt lat="45.879138292563475" lon="11.56368986027368"><ele>1152.0000000000002</ele><time>2026-04-08T08:57:27.964Z</time></trkpt><trkpt lat="45.87912474195582" lon="11.56378447903798"><ele>1152.0</ele><time>2026-04-08T08:57:40.965Z</time></trkpt><trkpt lat="45.8790696317479" lon="11.563707763442396"><ele>1152.0000000000002</ele><time>2026-04-08T08:58:04.964Z</time></trkpt><trkpt lat="45.879006523325884" lon="11.563690563702446"><ele>1152.0</ele><time>2026-04-08T08:58:10.964Z</time></trkpt><trkpt lat="45.87896090455914" lon="11.563755302954117"><ele>1152.0</ele><time>2026-04-08T08:58:24.964Z</time></trkpt><trkpt lat="45.87889790276358" lon="11.563776313332207"><ele>1152.0</ele><time>2026-04-08T08:58:40.964Z</time></trkpt><trkpt lat="45.878855732905684" lon="11.56385549855236"><ele>1152.0</ele><time>2026-04-08T08:58:50.964Z</time></trkpt><trkpt lat="45.878808541855335" lon="11.563795079820736"><ele>1152.0000000000002</ele><time>2026-04-08T08:59:07.964Z</time></trkpt><trkpt lat="45.878750539941635" lon="11.563851717320649"><ele>1152.0</ele><time>2026-04-08T08:59:19.963Z</time></trkpt><trkpt lat="45.87870741865107" lon="11.56392719693611"><ele>1152.0000000000002</ele><time>2026-04-08T08:59:31.963Z</time></trkpt><trkpt lat="45.87869451393781" lon="11.564021909628625"><ele>1152.0</ele><time>2026-04-08T09:01:22.97Z</time></trkpt><trkpt lat="45.878710996333744" lon="11.563931752736229"><ele>1152.0</ele><time>2026-04-08T09:02:03.974Z</time></trkpt><trkpt lat="45.878670308030635" lon="11.56384821401113"><ele>1152.0</ele><time>2026-04-08T09:02:56.974Z</time></trkpt><trkpt lat="45.87872879526394" lon="11.563800464859533"><ele>1152.0</ele><time>2026-04-08T09:03:54.975Z</time></trkpt><trkpt lat="45.87874326667698" lon="11.563701026854087"><ele>1152.0000000000002</ele><time>2026-04-08T09:04:11.975Z</time></trkpt><trkpt lat="45.87879332886891" lon="11.563632507762732"><ele>1152.0</ele><time>2026-04-08T09:04:36.974Z</time></trkpt><trkpt lat="45.878843860445855" lon="11.563565582253744"><ele>1152.0000000000002</ele><time>2026-04-08T09:04:48.974Z</time></trkpt><trkpt lat="45.878787946132604" lon="11.563523196997172"><ele>1152.0</ele><time>2026-04-08T09:05:00.974Z</time></trkpt><trkpt lat="45.878716690039305" lon="11.563514210046135"><ele>1152.0</ele><time>2026-04-08T09:05:09.974Z</time></trkpt><trkpt lat="45.878656170891134" lon="11.563542715157169"><ele>1152.0</ele><time>2026-04-08T09:05:19.974Z</time></trkpt><trkpt lat="45.878584997529636" lon="11.563516431998769"><ele>1152.0</ele><time>2026-04-08T09:07:25.974Z</time></trkpt><trkpt lat="45.87856273300293" lon="11.563605943880885"><ele>1152.0000000000002</ele><time>2026-04-08T09:08:04.975Z</time></trkpt><trkpt lat="45.878564831601054" lon="11.563697984013002"><ele>1152.0</ele><time>2026-04-08T09:08:12.975Z</time></trkpt><trkpt lat="45.87855134169014" lon="11.56378831377813"><ele>1152.0</ele><time>2026-04-08T09:08:33.975Z</time></trkpt><trkpt lat="45.878640410404756" lon="11.563846435126525"><ele>1152.0</ele><time>2026-04-08T09:09:17.974Z</time></trkpt><trkpt lat="45.87870363830605" lon="11.563911182157433"><ele>1152.0</ele><time>2026-04-08T09:09:40.974Z</time></trkpt><trkpt lat="45.87878899369339" lon="11.563969327640988"><ele>1152.0</ele><time>2026-04-08T09:10:53.975Z</time></trkpt><trkpt lat="45.87879390084332" lon="11.564067986374871"><ele>1152.0</ele><time>2026-04-08T09:11:07.974Z</time></trkpt><trkpt lat="45.87877232806671" lon="11.564157830711826"><ele>1152.0</ele><time>2026-04-08T09:12:08.974Z</time></trkpt><trkpt lat="45.878767388794635" lon="11.564256785220074"><ele>1152.0000000000002</ele><time>2026-04-08T09:12:27.975Z</time></trkpt><trkpt lat="45.87872750651525" lon="11.564331893659885"><ele>1152.0</ele><time>2026-04-08T09:12:37.975Z</time></trkpt><trkpt lat="45.87879683600234" lon="11.564321773918895"><ele>1152.0</ele><time>2026-04-08T09:13:32.975Z</time></trkpt><trkpt lat="45.878729611518374" lon="11.564308576947989"><ele>1152.0</ele><time>2026-04-08T09:14:11.974Z</time></trkpt><trkpt lat="45.87867162749812" lon="11.564343809436634"><ele>1152.0</ele><time>2026-04-08T09:14:21.976Z</time></trkpt><trkpt lat="45.8786256141592" lon="11.564416044485968"><ele>1152.0000000000002</ele><time>2026-04-08T09:14:29.975Z</time></trkpt><trkpt lat="45.87855927351882" lon="11.564416452195342"><ele>1152.0</ele><time>2026-04-08T09:14:38.975Z</time></trkpt><trkpt lat="45.878490687634894" lon="11.564389399259616"><ele>1152.0000000000002</ele><time>2026-04-08T09:14:44.975Z</time></trkpt><trkpt lat="45.87843823783994" lon="11.564462933187782"><ele>1152.0</ele><time>2026-04-08T09:14:51.975Z</time></trkpt><trkpt lat="45.87836646277063" lon="11.564484394991586"><ele>1152.0</ele><time>2026-04-08T09:14:58.975Z</time></trkpt><trkpt lat="45.87830809954733" lon="11.56454239068098"><ele>1152.0</ele><time>2026-04-08T09:15:05.975Z</time></trkpt><trkpt lat="45.87824198824032" lon="11.564597577784815"><ele>1152.0</ele><time>2026-04-08T09:15:13.975Z</time></trkpt><trkpt lat="45.878196655240664" lon="11.564669422837849"><ele>1152.0000000000002</ele><time>2026-04-08T09:15:19.975Z</time></trkpt><trkpt lat="45.87815733140614" lon="11.564765961770282"><ele>1152.0</ele><time>2026-04-08T09:16:05.975Z</time></trkpt><trkpt lat="45.87808963678173" lon="11.564782276823166"><ele>1152.5714285714287</ele><time>2026-04-08T09:16:10.974Z</time></trkpt><trkpt lat="45.87801403633236" lon="11.564779902787006"><ele>1153.142857142857</ele><time>2026-04-08T09:16:16.974Z</time></trkpt><trkpt lat="45.87795084632376" lon="11.564743316032677"><ele>1153.7142857142858</ele><time>2026-04-08T09:16:20.974Z</time></trkpt><trkpt lat="45.87788687817754" lon="11.564728938578861"><ele>1154.2857142857142</ele><time>2026-04-08T09:16:25.976Z</time></trkpt><trkpt lat="45.87782338078543" lon="11.564731984219609"><ele>1154.857142857143</ele><time>2026-04-08T09:16:29.975Z</time></trkpt><trkpt lat="45.877751463527545" lon="11.56472553833516"><ele>1155.4285714285716</ele><time>2026-04-08T09:16:34.976Z</time></trkpt><trkpt lat="45.87767757460766" lon="11.564705198128241"><ele>1156.0</ele><time>2026-04-08T09:16:39.975Z</time></trkpt><trkpt lat="45.877605905632606" lon="11.564700387936162"><ele>1155.0</ele><time>2026-04-08T09:16:44.975Z</time></trkpt><trkpt lat="45.8775314682609" lon="11.564723905443577"><ele>1154.0</ele><time>2026-04-08T09:16:49.975Z</time></trkpt><trkpt lat="45.87746284793476" lon="11.564766761815429"><ele>1153.0</ele><time>2026-04-08T09:16:54.975Z</time></trkpt><trkpt lat="45.8774131441213" lon="11.564845581104562"><ele>1152.0</ele><time>2026-04-08T09:16:59.975Z</time></trkpt><trkpt lat="45.877359608666474" lon="11.56492183815351"><ele>1151.0</ele><time>2026-04-08T09:17:04.975Z</time></trkpt><trkpt lat="45.8773122530044" lon="11.565006762062165"><ele>1150.0</ele><time>2026-04-08T09:17:09.975Z</time></trkpt><trkpt lat="45.8772629475617" lon="11.565076805635702"><ele>1149.0</ele><time>2026-04-08T09:17:14.975Z</time></trkpt><trkpt lat="45.87720418169326" lon="11.565146689617078"><ele>1149.0</ele><time>2026-04-08T09:17:19.975Z</time></trkpt><trkpt lat="45.87715383024632" lon="11.565224311728027"><ele>1149.0</ele><time>2026-04-08T09:17:24.974Z</time></trkpt><trkpt lat="45.87709418587395" lon="11.565282566902567"><ele>1149.0</ele><time>2026-04-08T09:17:29.974Z</time></trkpt><trkpt lat="45.87703779554613" lon="11.565345000426298"><ele>1149.0</ele><time>2026-04-08T09:17:34.974Z</time></trkpt><trkpt lat="45.87697482301869" lon="11.565398014691185"><ele>1149.0</ele><time>2026-04-08T09:17:39.974Z</time></trkpt><trkpt lat="45.87694556493461" lon="11.56548976477341"><ele>1149.0</ele><time>2026-04-08T09:17:44.974Z</time></trkpt><trkpt lat="45.87692310711882" lon="11.565586619277711"><ele>1149.0</ele><time>2026-04-08T09:17:49.974Z</time></trkpt><trkpt lat="45.87688392767392" lon="11.565670297646212"><ele>1147.2857142857142</ele><time>2026-04-08T09:17:54.974Z</time></trkpt><trkpt lat="45.87686601101509" lon="11.56575741960154"><ele>1145.5714285714284</ele><time>2026-04-08T09:17:58.974Z</time></trkpt><trkpt lat="45.87683806089726" lon="11.565859157734145"><ele>1143.8571428571427</ele><time>2026-04-08T09:18:03.974Z</time></trkpt><trkpt lat="45.87680796330656" lon="11.565953602430454"><ele>1142.142857142857</ele><time>2026-04-08T09:18:08.974Z</time></trkpt><trkpt lat="45.87678477069431" lon="11.566051888513181"><ele>1140.4285714285713</ele><time>2026-04-08T09:18:13.974Z</time></trkpt><trkpt lat="45.87676803347148" lon="11.566151383258788"><ele>1138.7142857142856</ele><time>2026-04-08T09:18:18.974Z</time></trkpt><trkpt lat="45.876742086464176" lon="11.566248178702002"><ele>1137.0</ele><time>2026-04-08T09:18:23.974Z</time></trkpt><trkpt lat="45.87671084595836" lon="11.566340414233236"><ele>1135.9999999999998</ele><time>2026-04-08T09:18:28.975Z</time></trkpt><trkpt lat="45.87668594939108" lon="11.566444021778091"><ele>1135.0</ele><time>2026-04-08T09:18:33.975Z</time></trkpt><trkpt lat="45.87666921074886" lon="11.566545772929278"><ele>1134.0</ele><time>2026-04-08T09:18:38.975Z</time></trkpt><trkpt lat="45.87664822272538" lon="11.566646272376795"><ele>1133.0</ele><time>2026-04-08T09:18:43.976Z</time></trkpt><trkpt lat="45.876629518782785" lon="11.56674439805865"><ele>1132.0</ele><time>2026-04-08T09:18:48.975Z</time></trkpt><trkpt lat="45.87660852854002" lon="11.566852145063582"><ele>1130.9999999999998</ele><time>2026-04-08T09:18:53.975Z</time></trkpt><trkpt lat="45.876584969913296" lon="11.566953674204896"><ele>1130.0</ele><time>2026-04-08T09:18:58.975Z</time></trkpt><trkpt lat="45.87655880028115" lon="11.56705875368493"><ele>1129.9999999999998</ele><time>2026-04-08T09:19:03.975Z</time></trkpt><trkpt lat="45.8765331636666" lon="11.56716043878807"><ele>1130.0</ele><time>2026-04-08T09:19:08.975Z</time></trkpt><trkpt lat="45.87650222703061" lon="11.567255535007188"><ele>1130.0</ele><time>2026-04-08T09:19:13.975Z</time></trkpt><trkpt lat="45.87647783666276" lon="11.56735897308639"><ele>1130.0</ele><time>2026-04-08T09:19:18.975Z</time></trkpt><trkpt lat="45.87646637801345" lon="11.56744820916075"><ele>1130.0</ele><time>2026-04-08T09:19:22.975Z</time></trkpt><trkpt lat="45.876450527170235" lon="11.567555009570079"><ele>1129.9999999999998</ele><time>2026-04-08T09:19:27.975Z</time></trkpt><trkpt lat="45.87644500240316" lon="11.567665152884528"><ele>1130.0</ele><time>2026-04-08T09:19:32.975Z</time></trkpt><trkpt lat="45.87642176704865" lon="11.567769191346509"><ele>1130.0</ele><time>2026-04-08T09:19:37.975Z</time></trkpt><trkpt lat="45.876396647004825" lon="11.567868840433924"><ele>1133.0</ele><time>2026-04-08T09:19:42.975Z</time></trkpt><trkpt lat="45.87634902278409" lon="11.567941001854978"><ele>1133.0</ele><time>2026-04-08T09:19:46.975Z</time></trkpt></trkseg></trk></gpx>